UA5333 / N202SY 7700 Squawk Report (3rd of July, 2022)

Aircraft E75L Reg No. N202SY Age 5 years old
Model Emb-175 Jet engines 2 First flight 02-12-16
Registered 18-12-16 Rollout 10-16 Delivered 19-12-16
Construction No. 17000624 Line No. N/A Series 200LR
ADSHEX A19B18 Airline name United Express Owner SkyWest Airlines
Airfield based Chicago O`Hare~IL~N First tracked N/A

Flight history for N202SY

Route Flight No Date Playback
???? N/A 2022-08-10 18:25:00
Chicago Ohare Intl (ORD) - Detroit Metro Wayne Co (DTW) UA5704 2022-08-10 02:18:00
Pensacola Rgnl (PNS) - Chicago Ohare Intl (ORD) UA5429 2022-08-09 21:02:00
Chicago Ohare Intl (ORD) - Pensacola Rgnl (PNS) UA5368 2022-08-09 17:50:00
Memphis Intl (MEM) - Chicago Ohare Intl (ORD) UA5535 2022-08-09 14:29:00
Chicago Ohare Intl (ORD) - Memphis Intl (MEM) UA5369 2022-08-09 02:51:00
La Guardia (LGA) - Chicago Ohare Intl (ORD) UA5212 2022-08-08 23:47:00
Chicago Ohare Intl (ORD) - La Guardia (LGA) UA5338 2022-08-08 20:12:00
Mc Ghee Tyson (TYS) - Chicago Ohare Intl (ORD) UA5491 2022-08-08 17:10:00
Chicago Ohare Intl (ORD) - Mc Ghee Tyson (TYS) UA4745 2022-08-08 01:41:00
Albuquerque International Sunport (ABQ) - Chicago Ohare Intl (ORD) UA4659 2022-08-07 23:14:00
Chicago Ohare Intl (ORD) - Albuquerque International Sunport (ABQ) UA5274 2022-08-07 20:02:00
Wichita Dwight D. Eisenhower (ICT) - Chicago Ohare Intl (ORD) UA5217 2022-08-07 14:35:00
Chicago Ohare Intl (ORD) - Wichita Dwight D. Eisenhower (ICT) UA5331 2022-08-07 02:38:00
Cleveland Hopkins Intl (CLE) - Chicago Ohare Intl (ORD) UA4780 2022-08-06 23:22:00
Chicago Ohare Intl (ORD) - Cleveland Hopkins Intl (CLE) UA5468 2022-08-06 21:24:00
Lambert St Louis Intl (STL) - Chicago Ohare Intl (ORD) UA5497 2022-08-06 18:44:00
George Bush Intercontinental (IAH) - Lambert St Louis Intl (STL) UA5286 2022-08-06 16:43:00
Nashville Intl (BNA) - George Bush Intercontinental (IAH) UA5275 2022-08-06 13:42:00
Chicago Ohare Intl (ORD) - Nashville Intl (BNA) UA5428 2022-08-06 11:49:00
Time Lat Lon Altitude Heading Speed Vertical Rate
2022-07-03 23:58:48 GMT 30.515991 -81.634987 600 251 128 -896
2022-07-03 23:58:43 GMT 30.517181 -81.631165 675 251 127 -512
2022-07-03 23:58:33 GMT 30.518875 -81.625191 750 253 125 -512
2022-07-03 23:58:23 GMT 30.521044 -81.618530 850 244 124 -704
2022-07-03 23:58:09 GMT 30.524582 -81.610733 975 241 124 -640
2022-07-03 23:58:00 GMT 30.527700 -81.605179 1,100 210 126 -768
2022-07-03 23:57:41 GMT 30.536362 -81.599442 1,325 185 130 -832
2022-07-03 23:57:10 GMT 30.555862 -81.601219 1,725 168 139 -640
2022-07-03 23:56:51 GMT 30.567856 -81.604019 1,875 168 152 -64
2022-07-03 23:56:46 GMT 30.572067 -81.605042 1,875 168 153 -64
2022-07-03 23:56:39 GMT 30.576580 -81.606117 1,875 168 153 0
2022-07-03 23:56:29 GMT 30.584015 -81.607903 1,875 168 152 0
2022-07-03 23:56:17 GMT 30.591476 -81.609627 1,875 168 151 0
2022-07-03 23:56:08 GMT 30.598434 -81.611237 1,875 168 151 0
2022-07-03 23:55:55 GMT 30.606560 -81.613205 1,875 168 151 0
2022-07-03 23:55:45 GMT 30.613586 -81.614792 1,875 168 151 64
2022-07-03 23:54:40 GMT 30.659817 -81.634079 1,875 124 181 64
2022-07-03 23:54:32 GMT 30.662842 -81.639618 1,875 124 182 128
2022-07-03 23:54:27 GMT 30.664902 -81.644844 1,875 112 194 -192
2022-07-03 23:54:14 GMT 30.669172 -81.656876 1,875 112 203 0
2022-07-03 23:54:05 GMT 30.672729 -81.666924 1,875 112 203 0
2022-07-03 23:53:56 GMT 30.675690 -81.675278 1,875 112 208 64
2022-07-03 23:53:51 GMT 30.677320 -81.679947 1,875 112 213 0
2022-07-03 23:53:36 GMT 30.683186 -81.696312 1,925 112 219 -704
2022-07-03 23:53:33 GMT 30.684162 -81.698952 1,950 112 219 -1024
2022-07-03 23:53:30 GMT 30.685318 -81.702202 2,025 112 219 -1408
2022-07-03 23:53:08 GMT 30.694359 -81.726799 2,375 113 229 -1408
2022-07-03 23:51:59 GMT 30.724365 -81.804359 3,800 115 226 -896
2022-07-03 23:51:46 GMT 30.730482 -81.819252 3,875 115 231 0
2022-07-03 23:51:34 GMT 30.736176 -81.833336 3,875 115 230 64
2022-07-03 23:51:15 GMT 30.744644 -81.853905 3,875 115 229 64
2022-07-03 23:51:11 GMT 30.747055 -81.859406 3,875 117 228 -128
2022-07-03 23:51:00 GMT 30.753107 -81.869347 3,875 136 228 -64
2022-07-03 23:50:39 GMT 30.768997 -81.886810 3,875 136 228 -64
2022-07-03 23:50:32 GMT 30.774427 -81.892639 3,875 136 228 0
2022-07-03 23:48:30 GMT 30.870510 -81.998055 5,125 137 243 -2240
2022-07-03 23:48:23 GMT 30.875866 -82.003708 5,625 137 243 -2240
2022-07-03 23:48:15 GMT 30.882895 -82.011070 5,625 137 246 -2048
2022-07-03 23:48:05 GMT 30.890808 -82.019310 5,925 138 254 -1536
2022-07-03 23:47:56 GMT 30.899652 -82.028488 6,175 138 260 -1216
2022-07-03 23:47:21 GMT 30.932379 -82.062485 7,075 146 289 -1600
2022-07-03 23:46:49 GMT 30.965942 -82.095284 7,975 146 289 -1600
2022-07-03 23:46:33 GMT 30.982956 -82.107780 8,375 148 290 -1600
2022-07-03 23:46:30 GMT 30.987404 -82.110939 8,475 148 290 -1600
2022-07-03 23:46:10 GMT 31.008728 -82.126038 8,950 148 289 -1664
2022-07-03 23:46:08 GMT 31.010925 -82.127594 9,025 148 289 -1664
2022-07-03 23:45:55 GMT 31.027130 -82.139015 9,375 148 290 -1600
2022-07-03 23:45:48 GMT 31.033724 -82.143730 9,550 148 291 -1664
2022-07-03 23:45:34 GMT 31.051832 -82.156532 9,975 148 293 -1664
2022-07-03 23:45:27 GMT 31.058670 -82.161415 10,125 148 295 -1664
2022-07-03 23:45:17 GMT 31.071762 -82.170677 10,425 148 296 -1536
2022-07-03 23:43:25 GMT 31.206713 -82.266449 13,550 148 330 -1856
2022-07-03 23:43:22 GMT 31.213165 -82.271011 13,700 148 332 -1856
2022-07-03 23:43:06 GMT 31.232986 -82.285118 14,075 148 344 -1856
2022-07-03 23:41:31 GMT 31.375534 -82.386742 17,425 148 389 -2112
2022-07-03 23:41:20 GMT 31.390228 -82.397247 17,900 148 391 -2240
2022-07-03 23:41:10 GMT 31.408051 -82.410042 18,300 148 394 -2176
2022-07-03 23:41:02 GMT 31.420258 -82.418732 18,600 148 394 -2176
2022-07-03 23:39:10 GMT 31.598888 -82.548058 22,900 134 417
2022-07-03 23:38:48 GMT 31.637222 -82.578888 23,000 121 417
We lost coverage of the aircraft here for a total of 6 minutes
2022-07-03 23:32:59 GMT 31.950348 -83.272301 25,675 125 443 -1088
2022-07-03 23:32:48 GMT 31.962627 -83.291107 25,825 134 447 -1024
2022-07-03 23:32:37 GMT 31.976807 -83.309433 26,000 134 447 -1024
2022-07-03 23:32:30 GMT 31.989628 -83.323677 26,150 138 447 -960
2022-07-03 23:32:20 GMT 32.004478 -83.337799 26,275 144 449 -960
2022-07-03 23:32:08 GMT 32.024494 -83.352600 26,475 150 453 -1344
2022-07-03 23:31:55 GMT 32.062363 -83.377716 26,950 150 456 -1344
2022-07-03 23:31:46 GMT 32.067883 -83.381355 27,000 150 456 -1344
2022-07-03 23:31:42 GMT 32.073746 -83.385277 27,075 150 455 -1344
2022-07-03 23:31:39 GMT 32.080917 -83.390152 27,175 149 455 -1280
2022-07-03 23:31:33 GMT 32.089809 -83.396210 27,275 149 455 -1344
2022-07-03 23:31:28 GMT 32.098984 -83.402435 27,400 150 455 -1472
2022-07-03 23:31:23 GMT 32.106659 -83.407585 27,500 150 455 -1408
2022-07-03 23:31:18 GMT 32.117294 -83.414688 27,625 150 455 -1344
2022-07-03 23:31:13 GMT 32.126492 -83.420815 27,725 150 455 -1408
2022-07-03 23:31:08 GMT 32.137569 -83.428162 27,850 150 457 -1408
2022-07-03 23:31:03 GMT 32.143112 -83.431877 28,075 150 457 -1408
2022-07-03 23:30:57 GMT 32.156052 -83.440430 28,075 150 458 -1088
2022-07-03 23:30:54 GMT 32.161869 -83.444359 28,125 150 459 -1088
2022-07-03 23:30:47 GMT 32.174438 -83.452766 28,250 150 459 -1152
2022-07-03 23:30:40 GMT 32.188248 -83.461983 28,400 150 460 -1024
2022-07-03 23:30:37 GMT 32.194595 -83.466164 28,450 150 460 -1152
2022-07-03 23:30:32 GMT 32.201477 -83.470657 28,550 150 461 -1152
2022-07-03 23:30:26 GMT 32.213516 -83.478516 28,650 151 461 -1152
2022-07-03 23:30:23 GMT 32.219131 -83.482140 28,750 151 462 -1152
2022-07-03 23:30:15 GMT 32.234261 -83.491837 28,875 151 464 -1216
2022-07-03 23:30:12 GMT 32.239883 -83.495491 28,925 151 465 -1216
2022-07-03 23:30:06 GMT 32.252930 -83.503952 29,050 151 468 -1152
2022-07-03 23:29:55 GMT 32.272385 -83.516724 29,250 150 471 -1088
2022-07-03 23:29:52 GMT 32.277786 -83.520248 29,300 150 474 -1152
2022-07-03 23:29:44 GMT 32.293148 -83.530289 29,425 151 476 -1152
2022-07-03 23:29:34 GMT 32.313259 -83.543457 29,675 150 480 -1216
2022-07-03 23:29:23 GMT 32.334347 -83.557190 29,800 151 481 -1152
2022-07-03 23:29:22 GMT 32.335884 -83.558197 29,900 151 482 -1216
2022-07-03 23:29:12 GMT 32.356087 -83.571373 30,100 150 482 -1216
2022-07-03 23:29:01 GMT 32.376892 -83.585136 30,325 150 482 -1216
2022-07-03 23:28:57 GMT 32.384674 -83.590248 30,400 150 482 -1152
2022-07-03 23:28:53 GMT 32.392723 -83.595589 30,475 150 482 -1216
2022-07-03 23:28:42 GMT 32.413811 -83.609543 30,700 150 482 -1152
2022-07-03 23:28:35 GMT 32.428009 -83.618904 30,850 150 480 -1088
2022-07-03 23:28:32 GMT 32.432968 -83.622162 30,900 150 480 -1088
2022-07-03 23:28:23 GMT 32.450089 -83.633423 31,050 150 478 -1216
2022-07-03 23:28:21 GMT 32.453842 -83.635895 31,350 150 477 -1152
2022-07-03 23:28:12 GMT 32.473679 -83.648949 31,350 150 476 -1216
2022-07-03 23:28:09 GMT 32.478287 -83.651978 31,350 150 476 -1216
2022-07-03 23:28:04 GMT 32.487854 -83.658310 31,425 150 475 -1152
2022-07-03 23:28:01 GMT 32.493301 -83.661880 31,550 151 476 -1216
2022-07-03 23:27:57 GMT 32.501038 -83.666931 31,575 150 478 -1280
2022-07-03 23:27:48 GMT 32.518845 -83.678574 32,275 150 473 -832
2022-07-03 23:27:44 GMT 32.526764 -83.683685 31,825 151 479 -1088
2022-07-03 23:27:41 GMT 32.547775 -83.697418 31,950 150 479 -704
2022-07-03 23:27:33 GMT 32.547775 -83.697418 31,950 150 479 -640
2022-07-03 23:27:27 GMT 32.557472 -83.703827 32,000 150 479 -512
2022-07-03 23:27:23 GMT 32.567093 -83.710159 32,000 150 478 0
2022-07-03 23:27:19 GMT 32.574509 -83.715034 32,000 150 478 64
2022-07-03 23:27:13 GMT 32.585724 -83.722412 32,000 150 476 128
2022-07-03 23:27:08 GMT 32.596062 -83.729218 32,000 150 475 128
2022-07-03 23:27:02 GMT 32.606506 -83.736092 31,975 150 474 128
2022-07-03 23:26:57 GMT 32.615337 -83.741882 31,975 150 473 64
2022-07-03 23:26:53 GMT 32.624508 -83.747940 32,000 150 473 -128
2022-07-03 23:26:49 GMT 32.632935 -83.753487 32,000 150 474 -640
2022-07-03 23:26:43 GMT 32.644478 -83.761108 32,075 150 475 -1024
2022-07-03 23:26:38 GMT 32.653740 -83.767166 32,175 150 477 -1088
2022-07-03 23:26:32 GMT 32.664589 -83.774284 32,300 151 478 -960
2022-07-03 23:26:27 GMT 32.673431 -83.780037 32,350 151 478 -960
2022-07-03 23:26:22 GMT 32.684326 -83.787178 32,450 151 475 -896
2022-07-03 23:26:17 GMT 32.694305 -83.793770 32,500 150 472 -832
2022-07-03 23:26:12 GMT 32.703369 -83.800087 32,600 148 472 -1024
2022-07-03 23:26:06 GMT 32.713284 -83.807632 32,675 146 471 -1024
2022-07-03 23:26:02 GMT 32.722275 -83.814972 32,775 144 472 -1152
2022-07-03 23:25:56 GMT 32.731110 -83.822716 32,875 142 473 -1024
2022-07-03 23:25:51 GMT 32.740746 -83.831566 32,950 141 474 -960
2022-07-03 23:25:47 GMT 32.748428 -83.838745 33,025 141 476 -1088
2022-07-03 23:25:44 GMT 32.753632 -83.843536 33,075 141 478 -1024
2022-07-03 23:25:40 GMT 32.759602 -83.849060 33,125 141 478 -1024
2022-07-03 23:25:36 GMT 32.767281 -83.856178 33,225 141 481 -1088
2022-07-03 23:25:32 GMT 32.772537 -83.861061 33,275 141 481 -1088
2022-07-03 23:25:29 GMT 32.778717 -83.866829 33,325 141 480 -896
2022-07-03 23:25:25 GMT 32.784988 -83.872597 33,375 141 480 -960
2022-07-03 23:25:20 GMT 32.795307 -83.882187 33,475 141 479 -960
2022-07-03 23:25:16 GMT 32.802803 -83.889244 33,525 141 478 -960
2022-07-03 23:25:13 GMT 32.808701 -83.894730 33,600 141 477 -960
2022-07-03 23:25:09 GMT 32.813927 -83.899559 33,650 141 477 -960
2022-07-03 23:25:05 GMT 32.821381 -83.906487 33,725 141 476 -1088
2022-07-03 23:24:59 GMT 32.829941 -83.914474 33,800 141 475 -1152
2022-07-03 23:24:55 GMT 32.844269 -83.927856 34,000 141 475 -1024
2022-07-03 23:24:52 GMT 32.844269 -83.927856 33,950 141 475 -960
2022-07-03 23:24:49 GMT 32.848099 -83.931396 33,975 141 475 -960
2022-07-03 23:24:46 GMT 32.854660 -83.937469 34,050 141 475 -960
2022-07-03 23:24:43 GMT 32.859131 -83.941711 34,125 141 475 -1024
2022-07-03 23:24:39 GMT 32.865051 -83.947189 34,150 141 475 -960
2022-07-03 23:24:33 GMT 32.876446 -83.957802 34,250 141 475 -1024
2022-07-03 23:24:30 GMT 32.882355 -83.963287 34,325 141 475 -1024
2022-07-03 23:24:23 GMT 32.895859 -83.975906 34,450 141 476 -960
2022-07-03 23:24:20 GMT 32.899521 -83.979324 34,475 141 477 -1024
2022-07-03 23:24:13 GMT 32.911129 -83.990143 34,600 141 477 -1024
2022-07-03 23:24:08 GMT 32.918427 -83.996902 34,650 141 477 -960
2022-07-03 23:24:03 GMT 32.928864 -84.006630 34,750 141 477 -1024
2022-07-03 23:23:59 GMT 32.934776 -84.012169 34,800 141 477 -1024
2022-07-03 23:23:55 GMT 32.942459 -84.019348 34,900 141 478 -960
2022-07-03 23:23:52 GMT 32.947632 -84.024208 34,925 141 478 -960
2022-07-03 23:23:49 GMT 32.952885 -84.029099 34,975 141 477 -384
2022-07-03 23:23:45 GMT 32.959126 -84.034981 35,000 141 477 -128
2022-07-03 23:23:42 GMT 32.965317 -84.040817 35,000 141 477 -192
2022-07-03 23:23:39 GMT 32.970345 -84.045464 35,000 141 478 64
2022-07-03 23:23:36 GMT 32.974869 -84.049751 35,000 141 478 0
2022-07-03 23:23:32 GMT 32.984310 -84.058525 35,000 141 480 64
2022-07-03 23:23:26 GMT 32.999359 -84.072548 35,000 141 482 -128
2022-07-03 23:23:21 GMT 33.003860 -84.076744 35,000 141 484 -192
2022-07-03 23:23:18 GMT 33.007828 -84.080460 35,000 141 484 -192
2022-07-03 23:23:10 GMT 33.021240 -84.092979 35,000 141 484 192
2022-07-03 23:23:07 GMT 33.024765 -84.096329 35,000 141 486 64
2022-07-03 23:23:03 GMT 33.033279 -84.104240 35,000 141 485 -64
2022-07-03 23:22:58 GMT 33.042343 -84.112808 35,000 141 484 192
2022-07-03 23:22:53 GMT 33.051590 -84.121437 35,000 141 484 128
2022-07-03 23:22:48 GMT 33.062164 -84.131378 35,000 141 484 -64
2022-07-03 23:22:41 GMT 33.071182 -84.139839 35,000 141 484 -64
2022-07-03 23:22:38 GMT 33.077927 -84.146133 35,000 141 483 -64
2022-07-03 23:22:31 GMT 33.088448 -84.155998 35,000 141 483 0
2022-07-03 23:22:28 GMT 33.095261 -84.162415 35,000 141 483 0
2022-07-03 23:22:21 GMT 33.107628 -84.173996 35,000 141 483 -64
2022-07-03 23:22:17 GMT 33.113071 -84.179153 35,000 141 483 -64
2022-07-03 23:22:10 GMT 33.125130 -84.190414 35,000 141 482 -64
2022-07-03 23:22:07 GMT 33.134079 -84.198776 35,000 141 480 192
2022-07-03 23:22:00 GMT 33.142818 -84.207008 35,000 141 479 128
2022-07-03 23:21:56 GMT 33.151611 -84.215256 35,000 141 479 0
2022-07-03 23:21:50 GMT 33.161957 -84.224983 35,000 141 479 64
2022-07-03 23:21:46 GMT 33.168003 -84.230667 35,000 141 478 0
2022-07-03 23:21:38 GMT 33.183273 -84.245010 35,000 141 477 -64
2022-07-03 23:21:35 GMT 33.187775 -84.249260 35,000 141 476 -128
2022-07-03 23:21:29 GMT 33.203659 -84.264206 35,000 141 475 -64
2022-07-03 23:21:26 GMT 33.203659 -84.264206 35,000 141 474 -64
2022-07-03 23:21:24 GMT 33.207481 -84.267769 35,000 141 474 -64
2022-07-03 23:21:19 GMT 33.214973 -84.274887 35,000 141 472 64
2022-07-03 23:21:16 GMT 33.224258 -84.283592 35,000 141 471 64
2022-07-03 23:21:10 GMT 33.229359 -84.288399 35,000 141 471 -64
2022-07-03 23:21:07 GMT 33.237305 -84.295845 35,000 141 471 0
2022-07-03 23:21:04 GMT 33.241741 -84.300056 35,000 141 471 64
2022-07-03 23:21:01 GMT 33.245407 -84.303535 35,000 141 470 0
2022-07-03 23:20:58 GMT 33.249935 -84.307793 35,000 141 469 0
2022-07-03 23:20:55 GMT 33.256439 -84.313919 35,000 141 469 0
2022-07-03 23:20:52 GMT 33.259872 -84.317154 35,000 141 468 -64
2022-07-03 23:20:48 GMT 33.269070 -84.325783 35,000 141 467 -64
2022-07-03 23:20:45 GMT 33.273468 -84.329956 35,000 141 466 0
2022-07-03 23:20:42 GMT 33.276855 -84.333145 35,000 141 466 -64
2022-07-03 23:20:39 GMT 33.283173 -84.339073 35,000 141 465 64
2022-07-03 23:20:36 GMT 33.288715 -84.344337 35,000 141 464 64
2022-07-03 23:20:33 GMT 33.298817 -84.353867 35,000 141 464 0
2022-07-03 23:20:30 GMT 33.298817 -84.353867 35,000 141 465 0
2022-07-03 23:20:27 GMT 33.303909 -84.358688 35,000 141 465 0
2022-07-03 23:20:24 GMT 33.309311 -84.363792 35,000 141 465 -64
2022-07-03 23:20:22 GMT 33.312012 -84.366318 35,000 141 465 -64
2022-07-03 23:20:19 GMT 33.324829 -84.378464 35,000 141 465 -64
2022-07-03 23:20:15 GMT 33.324829 -84.378464 35,000 141 464 0
2022-07-03 23:20:12 GMT 33.329914 -84.383240 35,000 141 464 0
2022-07-03 23:20:09 GMT 33.334007 -84.387108 35,000 141 464 64
2022-07-03 23:20:05 GMT 33.340805 -84.393555 35,000 141 464 64
2022-07-03 23:20:02 GMT 33.344204 -84.396751 35,000 141 464 -64
2022-07-03 23:20:00 GMT 33.349319 -84.401588 35,000 141 464 0
2022-07-03 23:19:56 GMT 33.357971 -84.409775 35,000 141 463 0
2022-07-03 23:19:53 GMT 33.361057 -84.412666 35,000 141 463 64
2022-07-03 23:19:49 GMT 33.368549 -84.419785 35,000 141 463 0
2022-07-03 23:19:46 GMT 33.372940 -84.423943 35,000 141 462 64
2022-07-03 23:19:43 GMT 33.378559 -84.429199 35,000 141 462 64
2022-07-03 23:19:41 GMT 33.385868 -84.436150 35,000 141 461 64
2022-07-03 23:19:38 GMT 33.385868 -84.436150 35,000 141 461 0
2022-07-03 23:19:35 GMT 33.392395 -84.442345 35,000 141 461 0
2022-07-03 23:19:32 GMT 33.395924 -84.445679 35,000 141 461 -64
2022-07-03 23:19:28 GMT 33.401825 -84.451302 35,000 141 461 -64
2022-07-03 23:19:25 GMT 33.408417 -84.457504 35,000 141 461 -64
2022-07-03 23:19:22 GMT 33.412537 -84.461411 35,000 141 461 -64
2022-07-03 23:19:20 GMT 33.416565 -84.465256 35,000 141 461 64
2022-07-03 23:19:17 GMT 33.430931 -84.478867 35,000 141 461 -64
2022-07-03 23:19:12 GMT 33.430931 -84.478867 35,000 141 461 0
2022-07-03 23:19:07 GMT 33.437634 -84.485199 35,000 141 461 -64
2022-07-03 23:19:04 GMT 33.441685 -84.489014 35,000 141 461 -128
2022-07-03 23:19:00 GMT 33.451492 -84.498322 35,000 141 461 -64
2022-07-03 23:18:57 GMT 33.456444 -84.503021 35,000 141 461 64
2022-07-03 23:18:54 GMT 33.460190 -84.506561 35,000 141 461 0
2022-07-03 23:18:51 GMT 33.465546 -84.511673 35,000 141 461 0
2022-07-03 23:18:48 GMT 33.470856 -84.516724 35,000 141 461 64
2022-07-03 23:18:44 GMT 33.476505 -84.522079 35,000 141 459 0
2022-07-03 23:18:40 GMT 33.482651 -84.527855 35,000 141 459 0
2022-07-03 23:18:36 GMT 33.489353 -84.534248 35,000 141 459 0
2022-07-03 23:18:33 GMT 33.496399 -84.541000 35,000 141 460 -64
2022-07-03 23:18:30 GMT 33.504715 -84.548874 35,000 141 459 64
2022-07-03 23:18:24 GMT 33.511467 -84.555267 35,000 141 459 0
2022-07-03 23:18:20 GMT 33.522964 -84.566139 35,000 141 460 -64
2022-07-03 23:18:16 GMT 33.529018 -84.571915 35,000 141 461 0
2022-07-03 23:18:13 GMT 33.529018 -84.571915 35,000 141 461 -64
2022-07-03 23:18:10 GMT 33.533340 -84.576050 35,000 141 461 -128
2022-07-03 23:18:07 GMT 33.538651 -84.581047 35,000 141 461 -64
2022-07-03 23:18:02 GMT 33.545425 -84.587494 35,000 141 462 -64
2022-07-03 23:17:59 GMT 33.552433 -84.594154 35,000 141 461 -64
2022-07-03 23:17:56 GMT 33.555180 -84.596786 35,000 141 462 64
2022-07-03 23:17:53 GMT 33.560257 -84.601562 35,000 141 462 64
2022-07-03 23:17:49 GMT 33.568027 -84.608917 35,000 141 462 64
2022-07-03 23:17:47 GMT 33.572342 -84.613052 35,000 141 461 64
2022-07-03 23:17:44 GMT 33.576824 -84.617332 35,000 141 461 64
2022-07-03 23:17:39 GMT 33.584518 -84.624657 35,000 141 461 128
2022-07-03 23:17:33 GMT 33.593582 -84.633347 35,000 141 461 -64
2022-07-03 23:17:29 GMT 33.602383 -84.641708 35,000 141 461 -64
2022-07-03 23:17:27 GMT 33.605736 -84.644913 35,000 141 461 -64
2022-07-03 23:17:23 GMT 33.611389 -84.650276 35,000 141 463 -64
2022-07-03 23:17:18 GMT 33.619747 -84.658241 35,000 141 461 64
2022-07-03 23:17:16 GMT 33.622398 -84.660812 35,000 141 461 128
2022-07-03 23:17:13 GMT 33.629150 -84.667229 35,000 141 460 64
2022-07-03 23:17:10 GMT 33.632812 -84.670677 35,000 141 461 0
2022-07-03 23:17:07 GMT 33.639160 -84.676781 35,000 141 461 64
2022-07-03 23:17:04 GMT 33.644165 -84.681549 35,000 141 460 -64
2022-07-03 23:17:01 GMT 33.649166 -84.686340 35,000 141 461 -64
2022-07-03 23:16:58 GMT 33.656204 -84.692986 35,000 141 461 64
2022-07-03 23:16:51 GMT 33.671539 -84.707619 35,000 141 461 64
2022-07-03 23:16:47 GMT 33.675568 -84.711487 35,000 141 461 0
2022-07-03 23:16:41 GMT 33.680592 -84.716263 35,000 141 462 0
2022-07-03 23:16:37 GMT 33.687946 -84.723305 35,000 141 463 -64
2022-07-03 23:16:35 GMT 33.691299 -84.726501 35,000 141 463 -64
2022-07-03 23:16:30 GMT 33.701065 -84.735809 35,000 141 463 0
2022-07-03 23:16:27 GMT 33.706421 -84.740967 35,000 141 463 0
2022-07-03 23:16:24 GMT 33.709965 -84.744354 35,000 141 463 -64
2022-07-03 23:16:20 GMT 33.716492 -84.750610 35,000 141 463 0
2022-07-03 23:16:17 GMT 33.722534 -84.756386 35,000 141 463 64
2022-07-03 23:16:15 GMT 33.726562 -84.760193 35,000 141 463 64
2022-07-03 23:16:09 GMT 33.735260 -84.768547 35,000 141 463 64
2022-07-03 23:16:05 GMT 33.741302 -84.774323 35,000 141 463 -64
2022-07-03 23:16:02 GMT 33.747894 -84.780594 35,000 141 463 -64
2022-07-03 23:15:59 GMT 33.752934 -84.785439 35,000 141 463 -64
2022-07-03 23:15:54 GMT 33.761398 -84.793549 35,000 141 463 64
2022-07-03 23:15:51 GMT 33.766479 -84.798431 35,000 141 463 64
2022-07-03 23:15:48 GMT 33.769833 -84.801636 35,000 141 463 64
2022-07-03 23:15:44 GMT 33.776962 -84.808456 35,000 141 463 -64
2022-07-03 23:15:41 GMT 33.787125 -84.818207 35,000 141 463 64
2022-07-03 23:15:38 GMT 33.787125 -84.818207 35,000 141 463 64
2022-07-03 23:15:35 GMT 33.796833 -84.827499 35,000 141 463 -64
2022-07-03 23:15:32 GMT 33.796833 -84.827499 35,000 141 463 0
2022-07-03 23:15:29 GMT 33.802185 -84.832588 35,000 141 462 0
2022-07-03 23:15:26 GMT 33.809097 -84.839287 35,000 141 462 0
2022-07-03 23:15:23 GMT 33.813904 -84.843826 35,000 141 462 0
2022-07-03 23:15:18 GMT 33.819550 -84.849243 35,000 141 462 64
2022-07-03 23:15:14 GMT 33.827271 -84.856659 35,000 141 462 0
2022-07-03 23:15:11 GMT 33.832165 -84.861374 35,000 141 462 0
2022-07-03 23:15:08 GMT 33.836960 -84.865952 35,000 141 462 0
2022-07-03 23:15:05 GMT 33.843616 -84.872360 35,000 141 462 0
2022-07-03 23:15:02 GMT 33.848969 -84.877510 35,000 141 462 64
2022-07-03 23:14:58 GMT 33.853912 -84.882217 35,000 141 462 0
2022-07-03 23:14:55 GMT 33.859955 -84.888046 35,000 141 462 -64
2022-07-03 23:14:52 GMT 33.864670 -84.892532 35,000 141 462 -64
2022-07-03 23:14:46 GMT 33.874054 -84.901558 35,000 141 463 -64
2022-07-03 23:14:43 GMT 33.879364 -84.906662 35,000 141 464 64
2022-07-03 23:14:40 GMT 33.884125 -84.911201 35,000 141 464 64
2022-07-03 23:14:36 GMT 33.890213 -84.917084 35,000 141 464 -64
2022-07-03 23:14:31 GMT 33.901249 -84.927750 35,000 141 465 -64
2022-07-03 23:14:28 GMT 33.905502 -84.931824 35,000 141 466 -64
2022-07-03 23:14:24 GMT 33.911350 -84.937424 35,000 141 466 0
2022-07-03 23:14:20 GMT 33.923721 -84.949318 35,000 141 463 64
2022-07-03 23:14:16 GMT 33.923721 -84.949318 35,000 141 463 64
2022-07-03 23:14:13 GMT 33.928761 -84.954124 35,000 141 464 64
2022-07-03 23:14:10 GMT 33.936115 -84.961227 35,000 141 463 128
2022-07-03 23:14:06 GMT 33.941422 -84.966316 35,000 141 463 64
2022-07-03 23:14:02 GMT 33.948963 -84.973579 35,000 141 463 0
2022-07-03 23:13:59 GMT 33.953014 -84.977470 35,000 141 463 0
2022-07-03 23:13:55 GMT 33.959625 -84.983826 35,000 141 463 -64
2022-07-03 23:13:52 GMT 33.966019 -84.990013 35,000 141 463 -64
2022-07-03 23:13:48 GMT 33.970779 -84.994606 35,000 141 463 -64
2022-07-03 23:13:44 GMT 33.976730 -85.000320 35,000 141 463 -64
2022-07-03 23:13:41 GMT 33.983181 -85.006538 35,000 141 465 64
2022-07-03 23:13:38 GMT 33.987926 -85.011124 35,000 141 463 64
2022-07-03 23:13:34 GMT 33.994724 -85.017700 35,000 141 464 0
2022-07-03 23:13:31 GMT 34.001129 -85.023811 35,000 141 464 -64
2022-07-03 23:13:27 GMT 34.006393 -85.028908 35,000 141 464 0
2022-07-03 23:13:24 GMT 34.010834 -85.033211 35,000 141 465 0
2022-07-03 23:13:21 GMT 34.017792 -85.039955 35,000 141 465 -64
2022-07-03 23:13:18 GMT 34.023495 -85.045448 35,000 141 465 -64
2022-07-03 23:13:15 GMT 34.027954 -85.049759 35,000 141 465 64
2022-07-03 23:13:10 GMT 34.036297 -85.057816 35,000 141 465 64
2022-07-03 23:13:07 GMT 34.038712 -85.060135 35,000 141 465 64
2022-07-03 23:13:04 GMT 34.044956 -85.066170 35,000 141 465 64
2022-07-03 23:13:01 GMT 34.049702 -85.070747 35,000 141 465 64
2022-07-03 23:12:57 GMT 34.065250 -85.085732 35,000 141 465 -128
2022-07-03 23:12:53 GMT 34.065250 -85.085732 35,000 141 465 -64
2022-07-03 23:12:50 GMT 34.067951 -85.088364 35,000 141 465 -128
2022-07-03 23:12:48 GMT 34.071671 -85.091911 35,000 141 465 -128
2022-07-03 23:12:45 GMT 34.075699 -85.095840 35,000 141 465 -128
2022-07-03 23:12:42 GMT 34.082428 -85.102341 35,000 141 465 -64
2022-07-03 23:12:39 GMT 34.088806 -85.108505 35,000 141 465 0
2022-07-03 23:12:36 GMT 34.092499 -85.112091 35,000 141 463 0
2022-07-03 23:12:33 GMT 34.098770 -85.118179 35,000 141 461 64
2022-07-03 23:12:29 GMT 34.104168 -85.123383 35,000 141 461 64
2022-07-03 23:12:26 GMT 34.110081 -85.129105 35,000 141 460 128
2022-07-03 23:12:23 GMT 34.114830 -85.133682 35,000 141 459 -128
2022-07-03 23:12:20 GMT 34.119141 -85.137878 35,000 141 458 -128
2022-07-03 23:12:18 GMT 34.123077 -85.141685 35,000 141 458 -64
2022-07-03 23:12:15 GMT 34.131638 -85.149986 35,000 141 456 64
2022-07-03 23:12:12 GMT 34.131638 -85.149986 35,000 141 455 64
2022-07-03 23:12:08 GMT 34.137543 -85.155701 35,000 141 455 64
2022-07-03 23:12:06 GMT 34.142166 -85.160187 35,000 141 453 64
2022-07-03 23:12:03 GMT 34.146297 -85.164185 35,000 141 453 -64
2022-07-03 23:12:00 GMT 34.150589 -85.168373 35,000 141 453 -64
2022-07-03 23:11:57 GMT 34.158169 -85.175690 35,000 141 450 0
2022-07-03 23:11:54 GMT 34.161289 -85.178719 35,000 141 450 64
2022-07-03 23:11:50 GMT 34.167854 -85.185127 35,000 141 450 64
2022-07-03 23:11:45 GMT 34.175068 -85.192108 35,000 141 450 0
2022-07-03 23:11:42 GMT 34.180935 -85.197716 35,000 141 450 128
2022-07-03 23:11:39 GMT 34.185150 -85.201836 35,000 141 449 64
2022-07-03 23:11:34 GMT 34.194572 -85.210938 35,000 141 449 64
2022-07-03 23:11:31 GMT 34.199478 -85.215675 35,000 141 449 0
2022-07-03 23:11:26 GMT 34.212078 -85.227928 35,000 141 448 0
2022-07-03 23:11:23 GMT 34.216919 -85.232658 35,000 141 448 -64
2022-07-03 23:11:20 GMT 34.216919 -85.232658 35,000 141 448 -128
2022-07-03 23:11:15 GMT 34.225342 -85.240845 35,000 141 448 0
2022-07-03 23:11:11 GMT 34.231018 -85.246338 35,000 141 447 64
2022-07-03 23:11:08 GMT 34.236282 -85.251495 35,000 141 447 64
2022-07-03 23:11:05 GMT 34.241127 -85.256195 35,000 141 447 64
2022-07-03 23:11:02 GMT 34.245941 -85.260857 35,000 141 447 64
2022-07-03 23:10:59 GMT 34.252396 -85.267136 35,000 141 446 64
2022-07-03 23:10:55 GMT 34.257046 -85.271645 35,000 141 445 64
2022-07-03 23:10:52 GMT 34.262054 -85.276497 35,000 141 445 64
2022-07-03 23:10:48 GMT 34.269428 -85.283714 35,000 141 445 -64
2022-07-03 23:10:44 GMT 34.275513 -85.289612 35,000 141 444 64
2022-07-03 23:10:41 GMT 34.280640 -85.294601 35,000 141 444 128
2022-07-03 23:10:37 GMT 34.285767 -85.299591 35,000 141 444 64
2022-07-03 23:10:34 GMT 34.291218 -85.304893 35,000 141 445 0
2022-07-03 23:10:30 GMT 34.296848 -85.310440 35,000 141 445 -64
2022-07-03 23:10:27 GMT 34.303070 -85.316460 35,000 141 445 -64
2022-07-03 23:10:23 GMT 34.309792 -85.323029 35,000 141 445 0
2022-07-03 23:10:19 GMT 34.315563 -85.328636 35,000 141 445 0
2022-07-03 23:10:16 GMT 34.319427 -85.332413 35,000 140 447 -128
2022-07-03 23:10:12 GMT 34.328110 -85.340843 35,000 140 447 -128
2022-07-03 23:10:09 GMT 34.330490 -85.343201 35,000 141 445 768
2022-07-03 23:10:06 GMT 34.336838 -85.349350 35,025 141 448 -128
2022-07-03 23:10:02 GMT 34.343262 -85.355644 35,025 141 448 -128
2022-07-03 23:09:58 GMT 34.347336 -85.359619 35,025 141 448 -128
2022-07-03 23:09:55 GMT 34.353458 -85.365601 35,025 140 446 256
2022-07-03 23:09:52 GMT 34.357773 -85.369820 35,000 141 445 576
2022-07-03 23:09:48 GMT 34.364349 -85.376244 34,875 140 446 1472
2022-07-03 23:09:45 GMT 34.372215 -85.383911 34,825 140 446 1472
2022-07-03 23:09:42 GMT 34.374638 -85.386253 34,800 140 446 1536
2022-07-03 23:09:39 GMT 34.378502 -85.390038 34,700 141 447 1600
2022-07-03 23:09:36 GMT 34.383453 -85.394882 34,600 141 448 1600
2022-07-03 23:09:33 GMT 34.388535 -85.399811 34,525 141 448 1600
2022-07-03 23:09:30 GMT 34.393494 -85.404678 34,475 141 450 1664
2022-07-03 23:09:26 GMT 34.403549 -85.414497 34,325 141 451 1536
2022-07-03 23:09:21 GMT 34.414627 -85.425316 34,100 141 452 1024
2022-07-03 23:09:17 GMT 34.424076 -85.434494 34,125 141 452 1088
2022-07-03 23:09:12 GMT 34.424076 -85.434494 34,075 141 453 768
2022-07-03 23:09:09 GMT 34.427124 -85.437538 34,050 141 453 640
2022-07-03 23:09:06 GMT 34.431339 -85.441650 34,025 141 452 512
2022-07-03 23:09:02 GMT 34.440170 -85.450203 34,025 141 452 256
2022-07-03 23:08:59 GMT 34.442928 -85.452972 34,000 140 450 128
2022-07-03 23:08:56 GMT 34.447861 -85.457771 34,000 140 450 128
2022-07-03 23:08:52 GMT 34.456757 -85.466476 34,000 140 447 64
2022-07-03 23:08:49 GMT 34.461639 -85.471222 34,000 140 449 64
2022-07-03 23:08:46 GMT 34.464844 -85.474358 34,000 141 448 128
2022-07-03 23:08:43 GMT 34.471207 -85.480583 34,000 141 448 128
2022-07-03 23:08:39 GMT 34.475098 -85.484398 34,000 140 447 -64
2022-07-03 23:08:36 GMT 34.481243 -85.490456 34,000 140 447 -64
2022-07-03 23:08:29 GMT 34.491302 -85.500259 34,000 141 447 64
2022-07-03 23:08:25 GMT 34.498699 -85.507507 34,000 140 447 -64
2022-07-03 23:08:19 GMT 34.510292 -85.518837 34,000 140 447 -128
2022-07-03 23:08:14 GMT 34.517368 -85.525764 34,000 140 449 64
2022-07-03 23:08:10 GMT 34.523746 -85.531998 34,000 141 451 -128
2022-07-03 23:08:07 GMT 34.529053 -85.537209 34,000 141 451 -128
2022-07-03 23:08:04 GMT 34.540737 -85.548706 34,025 140 453 -128
2022-07-03 23:07:59 GMT 34.540737 -85.548706 34,025 140 454 -64
2022-07-03 23:07:56 GMT 34.545856 -85.553680 34,025 140 453 128
2022-07-03 23:07:53 GMT 34.561638 -85.569138 34,000 141 452 320
2022-07-03 23:07:47 GMT 34.561638 -85.569138 33,925 141 452 1088
2022-07-03 23:07:44 GMT 34.565231 -85.572624 33,900 141 452 1216
2022-07-03 23:07:36 GMT 34.578232 -85.585342 33,700 141 453 1472
2022-07-03 23:07:33 GMT 34.582493 -85.589500 33,650 141 454 1408
2022-07-03 23:07:26 GMT 34.597229 -85.603897 33,375 139 455 1280
2022-07-03 23:07:21 GMT 34.602695 -85.609421 33,375 139 455 1280
2022-07-03 23:07:17 GMT 34.609123 -85.615997 33,300 139 456 1152
2022-07-03 23:07:14 GMT 34.613983 -85.621048 33,200 138 456 1152
2022-07-03 23:07:11 GMT 34.618664 -85.626015 33,175 138 456 1152
2022-07-03 23:07:04 GMT 34.628494 -85.636749 33,050 137 457 1280
2022-07-03 23:07:01 GMT 34.635563 -85.644669 32,950 136 457 1280
2022-07-03 23:06:57 GMT 34.642044 -85.652214 32,875 135 457 1088
2022-07-03 23:06:52 GMT 34.647903 -85.659332 32,800 133 457 1152
2022-07-03 23:06:49 GMT 34.652321 -85.664978 32,750 133 458 1280
2022-07-03 23:06:45 GMT 34.657024 -85.671104 32,675 132 458 1472
2022-07-03 23:06:42 GMT 34.661633 -85.677170 32,600 132 458 1472
2022-07-03 23:06:39 GMT 34.665939 -85.682823 32,525 132 458 1472
2022-07-03 23:06:36 GMT 34.672852 -85.691902 32,400 132 459 1408
2022-07-03 23:06:33 GMT 34.680908 -85.702553 32,325 132 459 1536
2022-07-03 23:06:30 GMT 34.680908 -85.702553 32,275 132 460 1664
2022-07-03 23:06:25 GMT 34.686909 -85.710526 32,150 132 460 1664
2022-07-03 23:06:21 GMT 34.692398 -85.717857 32,050 132 461 1600
2022-07-03 23:06:16 GMT 34.700130 -85.728210 31,875 132 463 1472
2022-07-03 23:06:13 GMT 34.704182 -85.733582 31,850 132 463 1408
2022-07-03 23:06:09 GMT 34.710800 -85.742409 31,750 132 463 1280
2022-07-03 23:06:04 GMT 34.716797 -85.750526 31,625 132 463 1088
2022-07-03 23:06:01 GMT 34.722198 -85.757706 31,600 132 463 832
2022-07-03 23:05:57 GMT 34.726868 -85.763985 31,575 132 462 576
2022-07-03 23:05:52 GMT 34.734070 -85.773582 31,525 132 460 512
2022-07-03 23:05:48 GMT 34.741241 -85.783096 31,450 132 459 1152
2022-07-03 23:05:44 GMT 34.745937 -85.789375 31,400 132 460 1024
2022-07-03 23:05:40 GMT 34.752136 -85.797615 31,275 132 458 832
2022-07-03 23:05:36 GMT 34.756413 -85.803337 31,300 132 458 832
2022-07-03 23:05:33 GMT 34.762695 -85.811691 31,250 132 457 1024
2022-07-03 23:05:29 GMT 34.766968 -85.817345 31,175 132 457 1024
2022-07-03 23:05:26 GMT 34.772095 -85.824188 31,125 132 457 1152
2022-07-03 23:05:21 GMT 34.777817 -85.831810 31,050 132 456 1024
2022-07-03 23:05:16 GMT 34.785507 -85.842018 30,950 132 456 1088
2022-07-03 23:05:12 GMT 34.792351 -85.851112 30,250 132 455 1088
2022-07-03 23:05:09 GMT 34.796913 -85.857124 30,800 132 455 1152
2022-07-03 23:05:06 GMT 34.800613 -85.862022 30,750 132 455 1088
2022-07-03 23:05:01 GMT 34.807014 -85.870514 30,675 132 455 1216
2022-07-03 23:04:57 GMT 34.813393 -85.878983 30,575 132 455 1216
2022-07-03 23:04:54 GMT 34.819931 -85.887695 30,500 132 454 1216
2022-07-03 23:04:50 GMT 34.822174 -85.890663 30,450 132 454 1216
2022-07-03 23:04:47 GMT 34.827759 -85.898064 30,375 132 453 1280
2022-07-03 23:04:42 GMT 34.837006 -85.910286 29,825 132 450 1152
2022-07-03 23:04:35 GMT 34.845280 -85.921097 30,125 132 453 1088
2022-07-03 23:04:29 GMT 34.851837 -85.929733 30,050 132 452 1088
2022-07-03 23:04:26 GMT 34.856640 -85.936028 29,975 132 451 1024
2022-07-03 23:04:24 GMT 34.859756 -85.940163 29,950 132 450 1024
2022-07-03 23:04:18 GMT 34.869579 -85.953079 29,825 132 450 1152
2022-07-03 23:04:14 GMT 34.875046 -85.960228 29,750 132 449 1280
2022-07-03 23:04:09 GMT 34.880722 -85.967682 29,675 132 448 1216
2022-07-03 23:04:05 GMT 34.887226 -85.976143 29,575 132 448 1152
2022-07-03 23:04:02 GMT 34.890575 -85.980606 29,525 132 448 1216
2022-07-03 23:03:59 GMT 34.895920 -85.987579 29,450 132 447 1280
2022-07-03 23:03:56 GMT 34.901001 -85.994247 29,375 132 447 1280
2022-07-03 23:03:53 GMT 34.904388 -85.998680 29,325 132 447 1280
2022-07-03 23:03:48 GMT 34.910522 -86.006752 29,250 132 446 1024
2022-07-03 23:03:45 GMT 34.915649 -86.013420 29,175 132 445 960
2022-07-03 23:03:42 GMT 34.918739 -86.017456 29,150 132 445 1024
2022-07-03 23:03:38 GMT 34.925446 -86.026268 29,075 132 444 1024
2022-07-03 23:03:35 GMT 34.928467 -86.030182 29,000 132 443 960
2022-07-03 23:03:32 GMT 34.933868 -86.037315 28,975 132 443 960
2022-07-03 23:03:27 GMT 34.939636 -86.044922 28,900 132 442 1152
2022-07-03 23:03:24 GMT 34.943180 -86.049614 28,850 132 442 1280
2022-07-03 23:03:21 GMT 34.948349 -86.056366 28,700 132 442 1280
2022-07-03 23:03:17 GMT 34.955006 -86.065125 28,675 132 441 1280
2022-07-03 23:03:13 GMT 34.960545 -86.072449 28,575 132 441 1280
2022-07-03 23:03:08 GMT 34.966084 -86.079712 28,450 132 440 1344
2022-07-03 23:03:04 GMT 34.976761 -86.093742 28,375 132 439 1344
2022-07-03 23:03:01 GMT 34.976761 -86.093742 28,325 132 439 1280
2022-07-03 23:02:57 GMT 34.982052 -86.100716 28,250 132 439 1280
2022-07-03 23:02:55 GMT 34.983398 -86.102432 28,225 132 439 1216
2022-07-03 23:02:52 GMT 34.988804 -86.109528 28,150 132 435 1024
2022-07-03 23:02:49 GMT 34.991547 -86.113129 28,000 132 438 1152
2022-07-03 23:02:43 GMT 35.002022 -86.126862 27,950 132 438 1216
2022-07-03 23:02:40 GMT 35.005840 -86.131950 27,900 132 437 1216
2022-07-03 23:02:34 GMT 35.012146 -86.140266 27,800 132 436 1152
2022-07-03 23:02:31 GMT 35.016781 -86.146431 27,675 132 435 1024
2022-07-03 23:02:28 GMT 35.021156 -86.152267 27,700 132 436 1088
2022-07-03 23:02:25 GMT 35.025391 -86.157928 27,600 132 434 960
2022-07-03 23:02:21 GMT 35.031349 -86.165833 27,525 132 433 1088
2022-07-03 23:02:18 GMT 35.035259 -86.171097 27,525 132 433 1088
2022-07-03 23:02:13 GMT 35.040661 -86.178307 27,350 132 431 1216
2022-07-03 23:02:10 GMT 35.044647 -86.183655 27,375 132 431 1280
2022-07-03 23:02:07 GMT 35.049500 -86.190208 27,300 132 431 1280
2022-07-03 23:02:04 GMT 35.054115 -86.196381 27,225 132 431 1408
2022-07-03 23:02:01 GMT 35.057556 -86.201027 26,425 132 427 1280
2022-07-03 23:01:58 GMT 35.062168 -86.207146 26,750 132 428 1216
2022-07-03 23:01:51 GMT 35.072159 -86.220421 26,950 132 431 1216
2022-07-03 23:01:47 GMT 35.076180 -86.225800 26,875 132 430 1216
2022-07-03 23:01:42 GMT 35.084015 -86.236176 26,750 132 428 1216
2022-07-03 23:01:39 GMT 35.086670 -86.239708 26,750 132 428 1216
2022-07-03 23:01:35 GMT 35.091682 -86.246338 26,650 132 428 1216
2022-07-03 23:01:33 GMT 35.095184 -86.250969 26,600 132 428 1280
2022-07-03 23:01:30 GMT 35.100388 -86.257835 26,525 132 427 1280
2022-07-03 23:01:26 GMT 35.104671 -86.263504 26,400 132 427 1408
2022-07-03 23:01:22 GMT 35.110443 -86.271233 26,300 132 427 1408
2022-07-03 23:01:19 GMT 35.114044 -86.275970 26,275 132 426 1344
2022-07-03 23:01:16 GMT 35.119102 -86.282730 26,200 132 426 1344
2022-07-03 23:01:12 GMT 35.122314 -86.286964 26,150 132 426 1344
2022-07-03 23:01:08 GMT 35.128551 -86.295380 26,025 132 426 1472
2022-07-03 23:01:05 GMT 35.132416 -86.300529 25,925 132 426 1344
2022-07-03 23:00:59 GMT 35.141693 -86.312965 25,825 132 426 1344
2022-07-03 23:00:55 GMT 35.146408 -86.319359 25,750 132 425 1344
2022-07-03 23:00:47 GMT 35.155689 -86.331711 25,575 133 423 704
2022-07-03 23:00:44 GMT 35.160278 -86.337799 25,400 134 422 704
2022-07-03 23:00:41 GMT 35.163746 -86.342354 25,525 133 423 768
2022-07-03 23:00:38 GMT 35.169388 -86.349571 25,450 134 422 704
2022-07-03 23:00:35 GMT 35.173519 -86.354652 25,425 136 420 1088
2022-07-03 23:00:28 GMT 35.184311 -86.366051 25,275 143 418 1344
2022-07-03 23:00:23 GMT 35.189816 -86.370621 25,150 149 417 1344
2022-07-03 23:00:17 GMT 35.201313 -86.378120 25,050 154 416 1280
2022-07-03 23:00:13 GMT 35.207977 -86.381912 24,950 155 416 1216
2022-07-03 23:00:06 GMT 35.220306 -86.388817 24,800 155 413 1024
2022-07-03 23:00:03 GMT 35.224495 -86.391167 24,725 155 413 1024
2022-07-03 22:59:56 GMT 35.237671 -86.398529 24,675 155 411 1024
2022-07-03 22:59:51 GMT 35.244965 -86.402664 24,550 155 408 1216
2022-07-03 22:59:45 GMT 35.256245 -86.408989 24,475 155 409 1216
2022-07-03 22:59:42 GMT 35.263832 -86.413200 24,375 155 409 1344
2022-07-03 22:59:35 GMT 35.274628 -86.419258 24,250 155 408 1152
2022-07-03 22:59:30 GMT 35.282227 -86.423492 24,175 155 407 1152
2022-07-03 22:59:27 GMT 35.288269 -86.426865 24,100 155 407 1216
2022-07-03 22:59:24 GMT 35.291485 -86.428680 24,075 155 407 1280
2022-07-03 22:59:19 GMT 35.301361 -86.434250 23,950 155 406 1408
2022-07-03 22:59:14 GMT 35.308914 -86.438484 23,850 155 406 1344
2022-07-03 22:59:09 GMT 35.318344 -86.443748 23,725 155 405 1216
2022-07-03 22:59:05 GMT 35.337341 -86.454453 23,575 155 404 1216
2022-07-03 22:59:00 GMT 35.337341 -86.454453 23,525 155 403 1024
2022-07-03 22:58:51 GMT 35.349655 -86.461433 23,400 155 401 1024
2022-07-03 22:58:48 GMT 35.357449 -86.465790 23,325 155 400 960
2022-07-03 22:58:42 GMT 35.362850 -86.468834 23,275 155 399 960
2022-07-03 22:58:36 GMT 35.376766 -86.476662 23,150 155 397 960
2022-07-03 22:58:32 GMT 35.381927 -86.479568 23,100 155 394 1280
2022-07-03 22:58:27 GMT 35.388920 -86.483498 23,025 155 394 1216
2022-07-03 22:58:22 GMT 35.397263 -86.488213 22,900 155 394 1280
2022-07-03 22:58:17 GMT 35.405182 -86.492676 22,800 155 392 1344
2022-07-03 22:58:12 GMT 35.415756 -86.498627 22,575 155 391 1344
2022-07-03 22:58:07 GMT 35.422989 -86.502747 22,575 155 391 1344
2022-07-03 22:58:02 GMT 35.439423 -86.511955 22,425 155 389 1920
2022-07-03 22:57:57 GMT 35.439423 -86.511955 22,350 155 389 1408
2022-07-03 22:57:54 GMT 35.444267 -86.514702 22,275 155 389 1536
2022-07-03 22:57:52 GMT 35.447666 -86.516632 22,225 155 389 1536
2022-07-03 22:57:46 GMT 35.455902 -86.521278 22,075 155 389 1856
2022-07-03 22:57:42 GMT 35.463448 -86.525513 21,925 155 389 1984
2022-07-03 22:57:35 GMT 35.473022 -86.530891 21,750 155 390 1728
2022-07-03 22:57:32 GMT 35.479568 -86.534615 21,575 155 390 1664
2022-07-03 22:57:30 GMT 35.483505 -86.536842 21,575 155 390 1664
2022-07-03 22:57:26 GMT 35.489750 -86.540359 21,475 155 390 1664
2022-07-03 22:57:24 GMT 35.494629 -86.543137 21,400 155 390 1792
2022-07-03 22:57:20 GMT 35.501083 -86.546806 21,275 155 390 1920
2022-07-03 22:57:16 GMT 35.506695 -86.549942 21,175 155 390 1856
2022-07-03 22:57:12 GMT 35.512001 -86.552979 21,025 155 390 1472
2022-07-03 22:57:09 GMT 35.517609 -86.556129 21,000 155 390 1408
2022-07-03 22:57:06 GMT 35.523033 -86.559174 20,925 155 388 1216
2022-07-03 22:57:00 GMT 35.532623 -86.564598 20,800 155 388 1344
2022-07-03 22:56:55 GMT 35.539810 -86.568665 20,700 155 387 1280
2022-07-03 22:56:50 GMT 35.549290 -86.574020 20,600 155 385 1216
2022-07-03 22:56:45 GMT 35.556320 -86.577995 20,500 155 384 1280
2022-07-03 22:56:40 GMT 35.566048 -86.583488 20,275 155 382 1408
2022-07-03 22:56:37 GMT 35.570007 -86.585762 20,300 155 382 1408
2022-07-03 22:56:33 GMT 35.576111 -86.589203 20,225 155 382 1536
2022-07-03 22:56:29 GMT 35.582809 -86.593010 20,100 155 381 1856
2022-07-03 22:56:25 GMT 35.588791 -86.596413 19,975 155 381 1920
2022-07-03 22:56:22 GMT 35.594353 -86.599556 19,875 155 381 1920
2022-07-03 22:56:18 GMT 35.600777 -86.603180 19,750 155 381 1792
2022-07-03 22:56:14 GMT 35.605247 -86.605690 19,675 155 381 1728
2022-07-03 22:56:08 GMT 35.616837 -86.612297 19,475 155 381 1664
2022-07-03 22:56:04 GMT 35.621613 -86.615005 19,400 155 380 1536
2022-07-03 22:56:00 GMT 35.628067 -86.618668 19,300 155 380 1280
2022-07-03 22:55:57 GMT 35.633457 -86.621765 19,225 155 378 1216
2022-07-03 22:55:54 GMT 35.637924 -86.624275 19,175 155 378 1088
2022-07-03 22:55:51 GMT 35.643860 -86.627655 19,125 155 376 1152
2022-07-03 22:55:44 GMT 35.654022 -86.633492 18,975 155 374 1344
2022-07-03 22:55:40 GMT 35.660339 -86.637039 18,900 154 373 0
2022-07-03 22:55:37 GMT 35.666565 -86.640640 18,775 154 372 1600
2022-07-03 22:55:34 GMT 35.669586 -86.642365 18,725 155 371 1664
2022-07-03 22:55:26 GMT 35.682175 -86.649567 18,475 154 370 1984
2022-07-03 22:55:23 GMT 35.685928 -86.651749 18,400 155 371 1984
2022-07-03 22:55:19 GMT 35.693741 -86.656181 18,225 155 371 1920
2022-07-03 22:55:16 GMT 35.698380 -86.658836 18,125 154 370 2048
2022-07-03 22:55:13 GMT 35.702263 -86.661095 18,050 154 371 1984
2022-07-03 22:55:09 GMT 35.708591 -86.664711 17,925 154 371 1984
2022-07-03 22:55:06 GMT 35.713017 -86.667290 17,775 154 371 2112
2022-07-03 22:55:02 GMT 35.720509 -86.671555 17,700 154 371 2112
2022-07-03 22:54:58 GMT 35.725800 -86.674629 17,550 154 371 2048
2022-07-03 22:54:55 GMT 35.731682 -86.678040 17,400 154 371 2112
2022-07-03 22:54:51 GMT 35.739643 -86.682655 17,250 154 370 1984
2022-07-03 22:54:46 GMT 35.745071 -86.685738 17,025 155 371 2176
2022-07-03 22:54:42 GMT 35.751652 -86.689377 16,975 156 370 1984
2022-07-03 22:54:36 GMT 35.761757 -86.694695 16,775 159 369 1600
2022-07-03 22:54:32 GMT 35.766586 -86.696838 16,725 162 368 1536
2022-07-03 22:54:25 GMT 35.779129 -86.700668 16,525 170 365 1472
2022-07-03 22:54:22 GMT 35.783157 -86.701355 16,475 173 364 1472
2022-07-03 22:54:17 GMT 35.791409 -86.701996 16,325 182 361 1792
2022-07-03 22:54:14 GMT 35.795551 -86.701942 16,200 184 360 1856
2022-07-03 22:54:10 GMT 35.803513 -86.701065 16,175 188 358 1984
2022-07-03 22:54:05 GMT 35.813004 -86.698952 15,900 194 358 2304
2022-07-03 22:54:01 GMT 35.819962 -86.696663 15,750 197 357 2176
2022-07-03 22:53:56 GMT 35.825684 -86.694603 15,625 197 357 2112
2022-07-03 22:53:52 GMT 35.832001 -86.692261 15,300 197 356 1856
2022-07-03 22:53:47 GMT 35.841125 -86.688850 15,300 197 355 1728
2022-07-03 22:53:44 GMT 35.844852 -86.687447 15,225 197 354 1728
2022-07-03 22:53:41 GMT 35.849670 -86.685616 15,150 197 354 1728
2022-07-03 22:53:34 GMT 35.861618 -86.681152 14,900 198 351 1856
2022-07-03 22:53:31 GMT 35.865372 -86.679787 14,850 197 351 1984
2022-07-03 22:53:26 GMT 35.873806 -86.676636 14,675 197 350 2112
2022-07-03 22:53:21 GMT 35.881485 -86.673775 14,500 197 348 2112
2022-07-03 22:53:15 GMT 35.891171 -86.670151 14,250 197 348 2176
2022-07-03 22:53:10 GMT 35.897408 -86.667809 14,125 197 347 2048
2022-07-03 22:53:03 GMT 35.909409 -86.663361 13,850 197 346 1984
2022-07-03 22:53:00 GMT 35.914635 -86.661385 13,775 197 346 1984
2022-07-03 22:52:55 GMT 35.921383 -86.658875 13,575 197 344 1856
2022-07-03 22:52:52 GMT 35.925060 -86.657524 13,550 197 344 1792
2022-07-03 22:52:49 GMT 35.930508 -86.655479 13,450 197 343 1600
2022-07-03 22:52:43 GMT 35.937771 -86.652794 13,325 197 341 1600
2022-07-03 22:52:40 GMT 35.943512 -86.650658 13,200 197 339 1856
2022-07-03 22:52:37 GMT 35.947220 -86.649284 13,125 197 339 2048
2022-07-03 22:52:32 GMT 35.956146 -86.645905 12,900 197 338 2304
2022-07-03 22:52:28 GMT 35.961594 -86.643906 12,750 197 337 2304
2022-07-03 22:52:24 GMT 35.968494 -86.641342 12,575 197 337 2432
2022-07-03 22:52:21 GMT 35.972076 -86.639992 12,475 197 336 2496
2022-07-03 22:52:18 GMT 35.978039 -86.637772 12,325 197 336 2368
2022-07-03 22:52:10 GMT 35.987274 -86.634293 12,000 197 335 2368
2022-07-03 22:52:07 GMT 35.993225 -86.632118 11,925 197 335 2368
2022-07-03 22:52:01 GMT 36.003639 -86.628189 11,625 197 335 2688
2022-07-03 22:51:56 GMT 36.010811 -86.625565 11,425 197 336 2752
2022-07-03 22:51:52 GMT 36.015152 -86.623940 11,300 197 336 2432
2022-07-03 22:51:49 GMT 36.019455 -86.622337 11,200 197 336 2176
2022-07-03 22:51:45 GMT 36.025146 -86.620239 11,075 197 335 2112
2022-07-03 22:51:42 GMT 36.035248 -86.616501 10,900 197 329 1216
2022-07-03 22:51:38 GMT 36.035248 -86.616501 10,850 197 333 1792
2022-07-03 22:51:35 GMT 36.039642 -86.614899 10,775 197 331 1472
2022-07-03 22:51:30 GMT 36.048431 -86.611633 10,650 197 325 1088
2022-07-03 22:51:27 GMT 36.050472 -86.610893 10,625 197 324 1088
2022-07-03 22:51:25 GMT 36.055939 -86.608887 10,550 197 320 1280
2022-07-03 22:51:21 GMT 36.060471 -86.607224 10,350 197 315 1344
2022-07-03 22:51:18 GMT 36.064957 -86.605568 10,425 197 314 1408
2022-07-03 22:51:14 GMT 36.070255 -86.603584 10,325 198 310 1216
2022-07-03 22:51:10 GMT 36.075191 -86.601715 10,275 198 306 1024
2022-07-03 22:51:07 GMT 36.079788 -86.599960 10,200 198 302 1600
2022-07-03 22:51:05 GMT 36.083199 -86.598679 10,100 198 300 2176
2022-07-03 22:51:01 GMT 36.089310 -86.596298 9,900 198 298 2688
2022-07-03 22:50:58 GMT 36.092010 -86.595268 9,825 198 298 2432
2022-07-03 22:50:54 GMT 36.097023 -86.593300 9,675 198 297 2496
2022-07-03 22:50:50 GMT 36.102238 -86.591255 9,400 198 296 2688
2022-07-03 22:50:47 GMT 36.105652 -86.589951 9,375 198 296 2688
2022-07-03 22:50:43 GMT 36.111687 -86.587631 9,175 198 294 2496
2022-07-03 22:50:37 GMT 36.119370 -86.584541 8,950 199 292 2560
2022-07-03 22:50:33 GMT 36.124329 -86.582504 8,775 199 290 2688
2022-07-03 22:50:30 GMT 36.128681 -86.580681 8,600 200 290 2816
2022-07-03 22:50:27 GMT 36.131973 -86.579247 8,475 200 290 2816
2022-07-03 22:50:22 GMT 36.137558 -86.576843 8,300 200 289 2624
2022-07-03 22:50:17 GMT 36.145523 -86.573357 8,050 200 287 2304
2022-07-03 22:50:12 GMT 36.151398 -86.570862 7,850 199 286 2816
2022-07-03 22:50:08 GMT 36.155308 -86.569283 7,700 198 285 3008
2022-07-03 22:50:05 GMT 36.158474 -86.568115 7,575 197 286 3072
2022-07-03 22:50:02 GMT 36.165085 -86.565781 7,325 196 285 2752
2022-07-03 22:49:59 GMT 36.168274 -86.564713 7,200 194 285 2560
2022-07-03 22:49:56 GMT 36.170975 -86.563911 7,100 191 283 2752
2022-07-03 22:49:46 GMT 36.184822 -86.563034 6,600 172 281 3072
2022-07-03 22:49:38 GMT 36.193680 -86.565514 6,275 161 278 2688
2022-07-03 22:49:35 GMT 36.197433 -86.567574 6,150 152 277 2496
2022-07-03 22:49:27 GMT 36.206085 -86.575012 5,750 137 273 3200
2022-07-03 22:49:24 GMT 36.208843 -86.578224 5,600 135 272 3136
2022-07-03 22:49:18 GMT 36.214989 -86.586639 5,225 125 271 2944
2022-07-03 22:49:15 GMT 36.218765 -86.594353 4,925 121 271 3136
2022-07-03 22:49:07 GMT 36.220825 -86.600700 4,625 104 268 3200
2022-07-03 22:49:04 GMT 36.221645 -86.604462 4,575 102 268 3264
2022-07-03 22:48:54 GMT 36.222244 -86.620674 4,050 79 266 2304
2022-07-03 22:48:45 GMT 36.219269 -86.632690 3,750 60 258 1216
2022-07-03 22:48:42 GMT 36.217457 -86.636604 3,750 60 258 1216
2022-07-03 22:48:33 GMT 36.210800 -86.645622 3,625 40 241 640
2022-07-03 22:48:24 GMT 36.201233 -86.652313 3,500 22 219 1536
2022-07-03 22:48:13 GMT 36.191895 -86.656441 3,075 19 210 2944
2022-07-03 22:48:03 GMT 36.182693 -86.660439 2,600 19 209 2560
2022-07-03 22:47:53 GMT 36.172943 -86.664680 2,275 19 199 1152
2022-07-03 22:47:42 GMT 36.164291 -86.668396 2,100 18 179 1344
2022-07-03 22:47:29 GMT 36.154770 -86.672287 1,875 17 155 1152
2022-07-03 22:47:28 GMT 36.154221 -86.672516 1,850 17 151 1536
2022-07-03 22:47:22 GMT 36.149597 -86.674294 1,650 17 147 2176
We lost coverage of the aircraft here for a total of 305 minutes
2022-07-03 17:42:35 GMT 36.099014 -86.689682 575 18 147 -640
2022-07-03 17:42:29 GMT 36.095070 -86.691246 650 18 147 -640
2022-07-03 17:42:08 GMT 36.080704 -86.697006 975 18 152 -896
2022-07-03 17:41:58 GMT 36.073883 -86.699753 1,125 17 157 -768
2022-07-03 17:41:50 GMT 36.069000 -86.701645 1,225 18 157 -1024
2022-07-03 17:41:49 GMT 36.067841 -86.702103 1,250 18 157 -1024
2022-07-03 17:41:47 GMT 36.066486 -86.702644 1,275 18 156 -960
2022-07-03 17:41:39 GMT 36.060993 -86.704865 1,375 18 154 -640
2022-07-03 17:41:38 GMT 36.060059 -86.705246 1,400 18 154 -640
2022-07-03 17:41:37 GMT 36.058685 -86.705818 1,425 18 154 -576
2022-07-03 17:41:35 GMT 36.058014 -86.706085 1,425 18 154 -512
2022-07-03 17:41:33 GMT 36.055481 -86.707130 1,450 18 152 -704
2022-07-03 17:41:32 GMT 36.055481 -86.707130 1,475 18 152 -704
2022-07-03 17:41:31 GMT 36.054802 -86.707436 1,475 18 152 -704
2022-07-03 17:41:28 GMT 36.053406 -86.707954 1,500 18 153 -640
2022-07-03 17:41:27 GMT 36.052734 -86.708282 1,525 18 153 -704
2022-07-03 17:41:23 GMT 36.048843 -86.709831 1,600 17 150 -896
2022-07-03 17:41:21 GMT 36.048843 -86.709831 1,600 17 150 -832
2022-07-03 17:41:19 GMT 36.047260 -86.710472 1,625 17 150 -768
2022-07-03 17:41:18 GMT 36.046600 -86.710686 1,625 17 151 -768
2022-07-03 17:41:12 GMT 36.042618 -86.712280 1,700 18 151 -704
2022-07-03 17:41:11 GMT 36.041904 -86.712578 1,700 17 152 -640
2022-07-03 17:41:09 GMT 36.040558 -86.713104 1,725 18 153 -768
2022-07-03 17:41:08 GMT 36.040192 -86.713257 1,750 18 154 -768
2022-07-03 17:41:06 GMT 36.038818 -86.713829 1,775 17 154 -960
2022-07-03 17:41:04 GMT 36.037064 -86.714500 1,825 18 154 -1024
2022-07-03 17:41:03 GMT 36.036507 -86.714737 1,825 18 154 -1152
2022-07-03 17:41:01 GMT 36.035156 -86.715324 1,875 19 155 -1024
2022-07-03 17:41:00 GMT 36.034550 -86.715553 1,875 19 155 -1024
2022-07-03 17:40:58 GMT 36.032822 -86.716293 1,925 18 156 -896
2022-07-03 17:40:56 GMT 36.031403 -86.716866 1,950 17 159 -704
2022-07-03 17:40:55 GMT 36.029850 -86.717484 1,975 17 160 -640
2022-07-03 17:40:52 GMT 36.027740 -86.718292 2,000 17 163 -704
2022-07-03 17:40:50 GMT 36.027740 -86.718292 2,000 17 163 -768
2022-07-03 17:40:47 GMT 36.024857 -86.719376 2,075 16 165 -1024
2022-07-03 17:40:45 GMT 36.024078 -86.719643 2,075 16 166 -1088
2022-07-03 17:40:43 GMT 36.023026 -86.720009 2,100 16 166 -1152
2022-07-03 17:40:41 GMT 36.021240 -86.720634 2,150 16 168 -1152
2022-07-03 17:40:40 GMT 36.020538 -86.720932 2,175 16 168 -1152
2022-07-03 17:40:39 GMT 36.019775 -86.721207 2,200 17 169 -1216
2022-07-03 17:40:38 GMT 36.019329 -86.721397 2,200 17 169 -1152
2022-07-03 17:40:36 GMT 36.017513 -86.722099 2,250 17 172 -1024
2022-07-03 17:40:34 GMT 36.016022 -86.722687 2,275 18 172 -1024
2022-07-03 17:40:33 GMT 36.015045 -86.723038 2,300 18 173 -960
2022-07-03 17:40:32 GMT 36.013508 -86.723679 2,325 18 176 -1024
2022-07-03 17:40:30 GMT 36.012817 -86.723953 2,350 18 177 -960
2022-07-03 17:40:29 GMT 36.012020 -86.724266 2,350 18 178 -960
2022-07-03 17:40:26 GMT 36.010113 -86.725082 2,400 18 179 -896
2022-07-03 17:40:25 GMT 36.008808 -86.725609 2,400 18 181 -704
2022-07-03 17:40:24 GMT 36.008202 -86.725838 2,425 18 183 -640
2022-07-03 17:40:23 GMT 36.007370 -86.726189 2,425 18 184 -576
2022-07-03 17:40:21 GMT 36.005768 -86.726875 2,450 17 185 -576
2022-07-03 17:40:20 GMT 36.004944 -86.727188 2,475 17 185 -576
2022-07-03 17:40:18 GMT 36.003113 -86.727905 2,500 17 186 -896
2022-07-03 17:40:17 GMT 36.002289 -86.728180 2,500 17 186 -896
2022-07-03 17:40:14 GMT 35.999683 -86.729233 2,550 18 187 -768
2022-07-03 17:40:13 GMT 35.998856 -86.729568 2,575 18 187 -832
2022-07-03 17:40:12 GMT 35.998009 -86.729935 2,575 18 187 -896
2022-07-03 17:40:11 GMT 35.997356 -86.730164 2,600 18 188 -1024
2022-07-03 17:40:09 GMT 35.995682 -86.730865 2,625 18 187 -1600
2022-07-03 17:40:08 GMT 35.994873 -86.731224 2,650 18 187 -1600
2022-07-03 17:40:07 GMT 35.993225 -86.731911 2,700 18 186 -1664
2022-07-03 17:40:04 GMT 35.989975 -86.733231 2,800 18 185 -960
2022-07-03 17:40:01 GMT 35.989288 -86.733513 2,800 18 185 -960
2022-07-03 17:39:58 GMT 35.986038 -86.734833 2,850 18 186 -640
2022-07-03 17:39:57 GMT 35.985252 -86.735130 2,850 18 186 -576
2022-07-03 17:39:55 GMT 35.983578 -86.735832 2,875 18 187 -384
2022-07-03 17:39:54 GMT 35.982552 -86.736244 2,875 18 187 -384
2022-07-03 17:39:52 GMT 35.981297 -86.736771 2,900 18 188 -640
2022-07-03 17:39:50 GMT 35.979248 -86.737587 2,925 18 189 -640
2022-07-03 17:39:45 GMT 35.975941 -86.738930 2,975 18 190 -1280
2022-07-03 17:39:42 GMT 35.972542 -86.740334 3,050 18 192 -512
2022-07-03 17:39:40 GMT 35.971844 -86.740623 3,050 18 192 -512
2022-07-03 17:39:37 GMT 35.969330 -86.741692 3,075 19 192 -512
2022-07-03 17:39:36 GMT 35.968494 -86.742027 3,075 19 193 -576
2022-07-03 17:39:34 GMT 35.966354 -86.742950 3,100 19 193 -448
2022-07-03 17:39:32 GMT 35.965141 -86.743492 3,100 19 195 -512
2022-07-03 17:39:30 GMT 35.963371 -86.744247 3,125 19 196 -768
2022-07-03 17:39:27 GMT 35.960625 -86.745415 3,175 19 198 -960
2022-07-03 17:39:25 GMT 35.958755 -86.746269 3,225 19 198 -1152
2022-07-03 17:39:24 GMT 35.957832 -86.746643 3,250 19 198 -1216
2022-07-03 17:39:22 GMT 35.955917 -86.747536 3,275 19 198 -832
2022-07-03 17:39:21 GMT 35.955086 -86.747871 3,300 20 199 -576
2022-07-03 17:39:20 GMT 35.954224 -86.748276 3,300 20 199 -576
2022-07-03 17:39:18 GMT 35.952164 -86.749191 3,325 20 200 -640
2022-07-03 17:39:15 GMT 35.951267 -86.749626 3,325 20 200 -640
2022-07-03 17:39:13 GMT 35.946167 -86.751938 3,425 20 201 -1280
2022-07-03 17:39:10 GMT 35.946167 -86.751938 3,425 20 201 -1280
2022-07-03 17:39:08 GMT 35.944061 -86.752914 3,475 20 201 -1344
2022-07-03 17:39:06 GMT 35.942844 -86.753479 3,500 20 201 -1280
2022-07-03 17:39:05 GMT 35.940582 -86.754517 3,575 20 201 -1216
2022-07-03 17:39:04 GMT 35.940582 -86.754517 3,575 21 201 -1152
2022-07-03 17:39:02 GMT 35.938889 -86.755318 3,600 21 201 -1280
2022-07-03 17:38:52 GMT 35.929668 -86.760025 3,725 23 204 -256
2022-07-03 17:38:47 GMT 35.925526 -86.762421 3,725 28 211 -64
2022-07-03 17:38:45 GMT 35.923691 -86.763611 3,725 28 211 -64
2022-07-03 17:38:41 GMT 35.920776 -86.765755 3,750 36 216 -256
2022-07-03 17:38:33 GMT 35.914913 -86.771011 3,775 39 219 -448
2022-07-03 17:38:31 GMT 35.912724 -86.773232 3,800 40 219 -640
2022-07-03 17:38:20 GMT 35.904530 -86.781593 3,950 38 221 -640
2022-07-03 17:38:11 GMT 35.895779 -86.789070 4,100 25 220 -640
2022-07-03 17:38:07 GMT 35.892754 -86.790649 4,100 18 222 -320
2022-07-03 17:38:04 GMT 35.889683 -86.791817 4,125 11 222 0
2022-07-03 17:38:03 GMT 35.888626 -86.792168 4,125 11 222 0
2022-07-03 17:38:02 GMT 35.886375 -86.792633 4,100 2 225 0
2022-07-03 17:38:00 GMT 35.885330 -86.792793 4,100 2 225 0
2022-07-03 17:37:55 GMT 35.880341 -86.792732 4,125 352 226 -512
2022-07-03 17:37:54 GMT 35.879150 -86.792564 4,150 352 226 -512
2022-07-03 17:37:51 GMT 35.876221 -86.791702 4,175 343 224 -960
2022-07-03 17:37:49 GMT 35.874252 -86.790848 4,225 340 224 -960
2022-07-03 17:37:48 GMT 35.873108 -86.790215 4,225 335 224 -1088
2022-07-03 17:37:46 GMT 35.871231 -86.789078 4,275 328 224 -960
2022-07-03 17:37:45 GMT 35.870361 -86.788429 4,275 328 224 -960
2022-07-03 17:37:43 GMT 35.868530 -86.786842 4,325 323 223 -832
2022-07-03 17:37:42 GMT 35.867844 -86.786156 4,325 320 223 -832
2022-07-03 17:37:41 GMT 35.865738 -86.783752 4,375 316 223 -832
2022-07-03 17:37:39 GMT 35.865738 -86.783752 4,375 314 222 -832
2022-07-03 17:37:37 GMT 35.864262 -86.781647 4,400 307 222 -896
2022-07-03 17:37:35 GMT 35.863052 -86.779602 4,425 303 221 -960
2022-07-03 17:37:34 GMT 35.862446 -86.778374 4,450 299 221 -960
2022-07-03 17:37:33 GMT 35.862026 -86.777382 4,450 298 221 -1024
2022-07-03 17:37:31 GMT 35.861145 -86.775223 4,500 293 221 -960
2022-07-03 17:37:30 GMT 35.860748 -86.773972 4,500 291 221 -832
2022-07-03 17:37:27 GMT 35.859699 -86.770485 4,550 288 220 -704
2022-07-03 17:37:26 GMT 35.859421 -86.769333 4,550 288 221 -640
2022-07-03 17:37:23 GMT 35.858505 -86.765839 4,575 288 221 -576
2022-07-03 17:37:22 GMT 35.858212 -86.764641 4,600 287 222 -576
2022-07-03 17:37:21 GMT 35.857910 -86.763435 4,600 286 222 -576
2022-07-03 17:37:20 GMT 35.857655 -86.762192 4,625 286 222 -640
2022-07-03 17:37:18 GMT 35.857132 -86.760010 4,625 286 222 -640
2022-07-03 17:37:17 GMT 35.856628 -86.757545 4,650 284 222 -640
2022-07-03 17:37:13 GMT 35.856033 -86.754051 4,700 278 223 -896
2022-07-03 17:37:10 GMT 35.855621 -86.749023 4,750 273 222 -1088
2022-07-03 17:37:09 GMT 35.855652 -86.747284 4,775 266 222 -1152
2022-07-03 17:37:06 GMT 35.855839 -86.744713 4,825 261 222 -1024
2022-07-03 17:37:03 GMT 35.856674 -86.739059 4,900 258 223 -832
2022-07-03 17:37:00 GMT 35.856857 -86.738029 4,900 258 223 -768
2022-07-03 17:36:58 GMT 35.857498 -86.734657 4,925 257 223 -768
2022-07-03 17:36:56 GMT 35.857933 -86.732330 4,950 257 224 -832
2022-07-03 17:36:54 GMT 35.858398 -86.729813 4,975 257 224 -832
2022-07-03 17:36:53 GMT 35.858734 -86.728081 5,000 257 224 -768
2022-07-03 17:36:50 GMT 35.860153 -86.721268 5,075 256 225 -768
2022-07-03 17:36:47 GMT 35.860153 -86.721268 5,075 256 225 -832
2022-07-03 17:36:44 GMT 35.861191 -86.716553 5,125 254 226 -768
2022-07-03 17:36:41 GMT 35.861935 -86.713509 5,150 252 228 -768
2022-07-03 17:36:40 GMT 35.863129 -86.709419 5,200 249 228 -832
2022-07-03 17:36:37 GMT 35.863129 -86.709419 5,200 248 228 -832
2022-07-03 17:36:36 GMT 35.863705 -86.707611 5,225 246 229 -896
2022-07-03 17:36:34 GMT 35.864449 -86.705856 5,250 242 229 -960
2022-07-03 17:36:33 GMT 35.864868 -86.704865 5,275 240 229 -960
2022-07-03 17:36:31 GMT 35.865986 -86.702583 5,300 235 231 -960
2022-07-03 17:36:30 GMT 35.866608 -86.701530 5,300 233 231 -960
2022-07-03 17:36:28 GMT 35.868034 -86.699425 5,350 228 232 -1024
2022-07-03 17:36:27 GMT 35.869492 -86.697578 5,375 222 233 -1152
2022-07-03 17:36:25 GMT 35.870270 -86.696678 5,400 221 233 -1152
2022-07-03 17:36:23 GMT 35.872147 -86.694885 5,450 212 234 -1216
2022-07-03 17:36:20 GMT 35.874924 -86.692764 5,500 208 235 -1216
2022-07-03 17:36:17 GMT 35.877869 -86.690994 5,550 203 235 -1152
2022-07-03 17:36:15 GMT 35.879883 -86.690086 5,575 197 236 -640
2022-07-03 17:36:14 GMT 35.880928 -86.689606 5,600 197 236 -640
2022-07-03 17:36:13 GMT 35.881989 -86.689224 5,600 197 236 -640
2022-07-03 17:36:08 GMT 35.886612 -86.687508 5,650 197 238 -512
2022-07-03 17:36:07 GMT 35.887680 -86.687096 5,650 197 238 -512
2022-07-03 17:36:06 GMT 35.889683 -86.686394 5,675 197 239 -512
2022-07-03 17:36:04 GMT 35.891281 -86.685791 5,675 197 239 -512
2022-07-03 17:35:59 GMT 35.898514 -86.683044 5,750 198 241 -576
2022-07-03 17:35:57 GMT 35.899502 -86.682655 5,750 198 242 -640
2022-07-03 17:35:55 GMT 35.901535 -86.681900 5,775 198 242 -640
2022-07-03 17:35:53 GMT 35.903786 -86.681023 5,800 198 244 -704
2022-07-03 17:35:48 GMT 35.910816 -86.678391 5,825 197 246 -320
2022-07-03 17:35:45 GMT 35.912025 -86.677917 5,850 196 247 -64
2022-07-03 17:35:43 GMT 35.914215 -86.677162 5,850 196 247 -64
2022-07-03 17:35:42 GMT 35.915359 -86.676750 5,850 196 246 -64
2022-07-03 17:35:40 GMT 35.917007 -86.676224 5,850 195 247 -128
2022-07-03 17:35:39 GMT 35.918262 -86.675819 5,850 195 246 -128
2022-07-03 17:35:37 GMT 35.921848 -86.674706 5,850 194 246 0
2022-07-03 17:35:35 GMT 35.923920 -86.674118 5,850 192 246 -64
2022-07-03 17:35:33 GMT 35.925060 -86.673828 5,850 191 246 -64
2022-07-03 17:35:32 GMT 35.926208 -86.673546 5,850 190 247 -64
2022-07-03 17:35:30 GMT 35.928452 -86.673088 5,850 188 247 -128
2022-07-03 17:35:29 GMT 35.929623 -86.672897 5,850 186 246 -192
2022-07-03 17:35:28 GMT 35.931904 -86.672722 5,850 181 247 -128
2022-07-03 17:35:25 GMT 35.933945 -86.672745 5,875 179 247 64
2022-07-03 17:35:24 GMT 35.935318 -86.672859 5,850 175 246 128
2022-07-03 17:35:21 GMT 35.938980 -86.673431 5,850 167 247 192
2022-07-03 17:35:18 GMT 35.941868 -86.674355 5,850 157 248 -128
2022-07-03 17:35:17 GMT 35.943077 -86.674828 5,850 157 248 -128
2022-07-03 17:35:15 GMT 35.945847 -86.676231 5,850 151 249 64
2022-07-03 17:35:13 GMT 35.947906 -86.677551 5,850 149 249 64
2022-07-03 17:35:12 GMT 35.951221 -86.680145 5,850 144 250 64
2022-07-03 17:35:10 GMT 35.951221 -86.680145 5,850 142 250 0
2022-07-03 17:35:09 GMT 35.953949 -86.682983 5,850 138 250 -64
2022-07-03 17:35:07 GMT 35.953949 -86.682983 5,850 137 250 -64
2022-07-03 17:35:05 GMT 35.955460 -86.684761 5,850 132 251 -128
2022-07-03 17:35:04 GMT 35.957108 -86.687164 5,850 128 250 -128
2022-07-03 17:35:02 GMT 35.957832 -86.688263 5,850 126 251 -64
2022-07-03 17:35:01 GMT 35.958527 -86.689453 5,850 124 251 -64
2022-07-03 17:34:58 GMT 35.960449 -86.693344 5,850 118 250 64
2022-07-03 17:34:57 GMT 35.961777 -86.696892 5,850 113 250 0
2022-07-03 17:34:55 GMT 35.961777 -86.696892 5,850 112 250 0
2022-07-03 17:34:54 GMT 35.962738 -86.700211 5,850 104 248 -64
2022-07-03 17:34:52 GMT 35.963421 -86.703224 5,850 104 248 -64
2022-07-03 17:34:50 GMT 35.963421 -86.703224 5,850 103 248 -64
2022-07-03 17:34:49 GMT 35.963745 -86.705444 5,875 97 248 -192
2022-07-03 17:34:46 GMT 35.964024 -86.708252 5,875 92 247 -384
2022-07-03 17:34:45 GMT 35.964111 -86.709656 5,875 92 247 -384
2022-07-03 17:34:44 GMT 35.964165 -86.710938 5,900 90 247 -448
2022-07-03 17:34:43 GMT 35.963974 -86.715263 5,925 86 246 -576
2022-07-03 17:34:41 GMT 35.963974 -86.715263 5,925 84 246 -512
2022-07-03 17:34:40 GMT 35.963837 -86.716667 5,925 82 246 -512
2022-07-03 17:34:38 GMT 35.963467 -86.719414 5,950 76 244 -320
2022-07-03 17:34:37 GMT 35.963287 -86.720634 5,950 75 244 -256
2022-07-03 17:34:35 GMT 35.962860 -86.722687 5,950 73 244 -256
2022-07-03 17:34:34 GMT 35.962486 -86.724266 5,950 72 244 -256
2022-07-03 17:34:32 GMT 35.961502 -86.727615 5,975 67 243 -512
2022-07-03 17:34:30 GMT 35.960587 -86.730247 6,000 66 243 -512
2022-07-03 17:34:29 GMT 35.960114 -86.731506 6,000 63 242 -576
2022-07-03 17:34:27 GMT 35.958813 -86.734375 6,025 58 242 -512
2022-07-03 17:34:25 GMT 35.958298 -86.735306 6,025 56 242 -512
2022-07-03 17:34:24 GMT 35.957043 -86.737587 6,050 54 242 -512
2022-07-03 17:34:21 GMT 35.954865 -86.740784 6,075 46 243 -768
2022-07-03 17:34:19 GMT 35.952385 -86.743668 6,125 40 244 -704
2022-07-03 17:34:17 GMT 35.951523 -86.744553 6,125 38 244 -704
2022-07-03 17:34:15 GMT 35.949738 -86.746162 6,150 36 244 -768
2022-07-03 17:34:13 GMT 35.947769 -86.747704 6,200 31 245 -896
2022-07-03 17:34:11 GMT 35.945892 -86.749077 6,225 27 246 -1024
2022-07-03 17:34:10 GMT 35.945023 -86.749649 6,250 27 245 -1024
2022-07-03 17:34:09 GMT 35.943878 -86.750397 6,250 26 246 -1024
2022-07-03 17:34:06 GMT 35.940842 -86.752251 6,300 28 246 -1088
2022-07-03 17:34:03 GMT 35.937378 -86.754570 6,375 29 247 -1216
2022-07-03 17:34:01 GMT 35.935410 -86.756004 6,425 32 248 -1536
2022-07-03 17:33:57 GMT 35.932205 -86.758461 6,500 33 247 -1728
2022-07-03 17:33:51 GMT 35.926208 -86.763496 6,700 34 243 -2176
2022-07-03 17:33:48 GMT 35.923920 -86.765388 6,800 33 239 -1920
2022-07-03 17:33:42 GMT 35.918015 -86.770248 6,950 33 242 -192
2022-07-03 17:33:39 GMT 35.916229 -86.771736 6,975 34 239 -576
2022-07-03 17:33:37 GMT 35.913795 -86.773758 6,975 34 239 -576
2022-07-03 17:33:32 GMT 35.908302 -86.778374 7,025 33 239 -384
2022-07-03 17:33:20 GMT 35.898514 -86.786446 7,100 34 240 -320
2022-07-03 17:33:10 GMT 35.888901 -86.794510 7,150 34 241 -384
2022-07-03 17:33:07 GMT 35.885193 -86.797600 7,175 34 241 -320
2022-07-03 17:32:59 GMT 35.878742 -86.802979 7,200 33 242 -192
2022-07-03 17:32:50 GMT 35.870033 -86.810051 7,225 33 245 -128
2022-07-03 17:32:47 GMT 35.867474 -86.812157 7,225 33 247 -128
2022-07-03 17:32:39 GMT 35.859840 -86.818466 7,250 34 250 -64
2022-07-03 17:32:34 GMT 35.855186 -86.822319 7,225 34 254 0
2022-07-03 17:32:29 GMT 35.849030 -86.827415 7,250 33 261 -448
2022-07-03 17:32:20 GMT 35.840012 -86.834908 7,325 34 271 -192
2022-07-03 17:32:17 GMT 35.838364 -86.836281 7,325 34 272 -128
2022-07-03 17:32:12 GMT 35.832458 -86.841255 7,375 34 274 -128
2022-07-03 17:32:08 GMT 35.828659 -86.844406 7,375 34 284 -512
2022-07-03 17:32:05 GMT 35.824463 -86.847916 7,425 34 285 -832
2022-07-03 17:31:58 GMT 35.812405 -86.857323 7,725 29 288 -1600
2022-07-03 17:31:54 GMT 35.812405 -86.857323 7,725 29 288 -1600
2022-07-03 17:31:50 GMT 35.808289 -86.859970 7,725 25 291 -1536
2022-07-03 17:31:45 GMT 35.800369 -86.864265 7,925 21 290 -1600
2022-07-03 17:31:42 GMT 35.798576 -86.865097 7,925 19 291 -1408
2022-07-03 17:31:40 GMT 35.796295 -86.866096 7,975 17 290 -1472
2022-07-03 17:31:39 GMT 35.794876 -86.866722 8,000 17 290 -1472
2022-07-03 17:31:38 GMT 35.793732 -86.867126 8,025 17 290 -1472
2022-07-03 17:31:36 GMT 35.790897 -86.868195 8,075 15 290 -1536
2022-07-03 17:31:35 GMT 35.789360 -86.868721 8,100 13 289 -1600
2022-07-03 17:31:34 GMT 35.786755 -86.869537 8,150 13 289 -1536
2022-07-03 17:31:32 GMT 35.782612 -86.870705 8,250 11 289 -1408
2022-07-03 17:31:29 GMT 35.781235 -86.871017 8,250 11 289 -1408
2022-07-03 17:31:28 GMT 35.777817 -86.871880 8,325 11 289 -1408
2022-07-03 17:31:27 GMT 35.777817 -86.871880 8,325 11 289 -1280
2022-07-03 17:31:24 GMT 35.774139 -86.872810 8,375 11 289 -1344
2022-07-03 17:31:22 GMT 35.770973 -86.873627 8,425 11 289 -1408
2022-07-03 17:31:21 GMT 35.768875 -86.874153 8,475 11 289 -1536
2022-07-03 17:31:17 GMT 35.764389 -86.875252 8,550 11 289 -1600
2022-07-03 17:31:15 GMT 35.763058 -86.875557 8,575 11 289 -1600
2022-07-03 17:31:13 GMT 35.759380 -86.876495 8,650 11 289 -1600
2022-07-03 17:31:11 GMT 35.756775 -86.877136 8,700 11 289 -1600
2022-07-03 17:31:10 GMT 35.755463 -86.877480 8,725 11 289 -1536
2022-07-03 17:31:08 GMT 35.752537 -86.878189 8,775 11 289 -1472
2022-07-03 17:31:05 GMT 35.748348 -86.879181 8,850 11 290 -1280
2022-07-03 17:31:04 GMT 35.745743 -86.879822 8,900 11 291 -1152
2022-07-03 17:31:02 GMT 35.744625 -86.880058 8,900 11 291 -1152
2022-07-03 17:31:00 GMT 35.741970 -86.880699 8,950 11 291 -1152
2022-07-03 17:30:59 GMT 35.740387 -86.881111 8,975 11 292 -1152
2022-07-03 17:30:58 GMT 35.739075 -86.881432 9,000 11 292 -1152
2022-07-03 17:30:55 GMT 35.735321 -86.882401 9,050 11 293 -1088
2022-07-03 17:30:54 GMT 35.731960 -86.883217 9,075 10 294 -1088
2022-07-03 17:30:52 GMT 35.731960 -86.883217 9,100 10 294 -1152
2022-07-03 17:30:50 GMT 35.730011 -86.883659 9,125 10 294 -1152
2022-07-03 17:30:49 GMT 35.728912 -86.883888 9,125 10 294 -1152
2022-07-03 17:30:47 GMT 35.726002 -86.884560 9,175 9 295 -1088
2022-07-03 17:30:45 GMT 35.722698 -86.885139 9,225 7 296 -1344
2022-07-03 17:30:44 GMT 35.719440 -86.885612 9,275 5 296 -1600
2022-07-03 17:30:41 GMT 35.715061 -86.885841 9,375 0 296 -1792
2022-07-03 17:30:39 GMT 35.713482 -86.885788 9,400 357 295 -1728
2022-07-03 17:30:38 GMT 35.712269 -86.885727 9,425 356 294 -1664
2022-07-03 17:30:37 GMT 35.709320 -86.885376 9,500 353 295 -1792
2022-07-03 17:30:35 GMT 35.708221 -86.885201 9,525 351 294 -1856
2022-07-03 17:30:34 GMT 35.706871 -86.884911 9,550 350 294 -1920
2022-07-03 17:30:33 GMT 35.704170 -86.884270 9,625 347 294 -1856
2022-07-03 17:30:30 GMT 35.702408 -86.883720 9,650 345 294 -1856
2022-07-03 17:30:29 GMT 35.701004 -86.883217 9,700 343 293 -1856
2022-07-03 17:30:26 GMT 35.695930 -86.880821 9,825 336 292 -1920
2022-07-03 17:30:24 GMT 35.694717 -86.880112 9,850 335 292 -1792
2022-07-03 17:30:23 GMT 35.693508 -86.879356 9,875 333 292 -1728
2022-07-03 17:30:21 GMT 35.691330 -86.877937 9,925 332 292 -1664
2022-07-03 17:30:20 GMT 35.690159 -86.877197 9,950 332 292 -1664
2022-07-03 17:30:18 GMT 35.687782 -86.875557 10,000 332 292 -1728
2022-07-03 17:30:16 GMT 35.685242 -86.873817 10,075 332 293 -1792
2022-07-03 17:30:15 GMT 35.683968 -86.872986 10,100 332 293 -1792
2022-07-03 17:30:14 GMT 35.680847 -86.870895 10,175 332 293 -1856
2022-07-03 17:30:11 GMT 35.678970 -86.869637 10,225 332 293 -1920
2022-07-03 17:30:09 GMT 35.676426 -86.867905 10,300 332 293 -1984
2022-07-03 17:30:08 GMT 35.672745 -86.865463 10,375 332 292 -1984
2022-07-03 17:30:06 GMT 35.672745 -86.865463 10,400 332 292 -1920
2022-07-03 17:30:05 GMT 35.671829 -86.864838 10,425 332 292 -1856
2022-07-03 17:30:04 GMT 35.668945 -86.862946 10,500 332 293 -1728
2022-07-03 17:30:01 GMT 35.666565 -86.861343 10,550 332 293 -1664
2022-07-03 17:29:59 GMT 35.665237 -86.860428 10,575 332 293 -1600
2022-07-03 17:29:58 GMT 35.664043 -86.859665 10,600 332 293 -1600
2022-07-03 17:29:57 GMT 35.661060 -86.857674 10,650 332 294 -1536
2022-07-03 17:29:55 GMT 35.658920 -86.856255 10,700 332 294 -1472
2022-07-03 17:29:53 GMT 35.657547 -86.855331 10,725 332 294 -1344
2022-07-03 17:29:52 GMT 35.654823 -86.853523 10,775 332 296 -1216
2022-07-03 17:29:50 GMT 35.653610 -86.852699 10,800 332 296 -1152
2022-07-03 17:29:49 GMT 35.651184 -86.851105 10,825 332 298 -960
2022-07-03 17:29:46 GMT 35.649261 -86.849785 10,850 332 298 -960
2022-07-03 17:29:44 GMT 35.646584 -86.847977 10,900 331 299 -1152
2022-07-03 17:29:43 GMT 35.642487 -86.845207 10,950 331 301 -1216
2022-07-03 17:29:41 GMT 35.641232 -86.844353 10,975 331 302 -1152
2022-07-03 17:29:39 GMT 35.640015 -86.843491 11,000 331 303 -1088
2022-07-03 17:29:38 GMT 35.636341 -86.840965 11,050 331 305 -896
2022-07-03 17:29:36 GMT 35.636341 -86.840965 11,050 331 306 -768
2022-07-03 17:29:35 GMT 35.633877 -86.839272 11,075 331 308 -640
2022-07-03 17:29:33 GMT 35.632645 -86.838402 11,075 331 309 -576
2022-07-03 17:29:31 GMT 35.630127 -86.836624 11,100 330 311 -512
2022-07-03 17:29:29 GMT 35.628895 -86.835762 11,125 330 313 -768
2022-07-03 17:29:28 GMT 35.627609 -86.834846 11,125 330 313 -768
2022-07-03 17:29:26 GMT 35.625229 -86.833138 11,150 330 316 -832
2022-07-03 17:29:25 GMT 35.622471 -86.831085 11,175 329 318 -768
2022-07-03 17:29:23 GMT 35.618683 -86.828217 11,200 328 320 -704
2022-07-03 17:29:21 GMT 35.618683 -86.828217 11,200 327 322 -640
2022-07-03 17:29:19 GMT 35.616074 -86.826157 11,225 326 323 -512
2022-07-03 17:29:18 GMT 35.613602 -86.824097 11,225 325 324 -320
2022-07-03 17:29:16 GMT 35.612507 -86.823082 11,225 324 326 -384
2022-07-03 17:29:15 GMT 35.610168 -86.821060 11,250 323 327 -512
2022-07-03 17:29:12 GMT 35.607788 -86.818771 11,275 322 327 -576
2022-07-03 17:29:10 GMT 35.602451 -86.813438 11,300 320 330 -832
2022-07-03 17:29:08 GMT 35.602451 -86.813438 11,325 320 331 -960
2022-07-03 17:29:06 GMT 35.600170 -86.810982 11,350 320 331 -1088
2022-07-03 17:29:05 GMT 35.598171 -86.808884 11,400 320 332 -1216
2022-07-03 17:29:02 GMT 35.593983 -86.804497 11,475 320 332 -1472
2022-07-03 17:28:59 GMT 35.592072 -86.802513 11,500 320 333 -1536
2022-07-03 17:28:58 GMT 35.590675 -86.800995 11,550 320 333 -1536
2022-07-03 17:28:56 GMT 35.588348 -86.798538 11,600 320 333 -1408
2022-07-03 17:28:55 GMT 35.587189 -86.797318 11,625 320 333 -1344
2022-07-03 17:28:53 GMT 35.584351 -86.794334 11,675 320 334 -1344
2022-07-03 17:28:50 GMT 35.580807 -86.790649 11,750 320 336 -1280
2022-07-03 17:28:49 GMT 35.579773 -86.789536 11,750 320 336 -1216
2022-07-03 17:28:47 GMT 35.577759 -86.787415 11,800 320 336 -1216
2022-07-03 17:28:44 GMT 35.574661 -86.784164 11,850 320 337 -1344
2022-07-03 17:28:43 GMT 35.572289 -86.781708 11,900 320 337 -1472
2022-07-03 17:28:40 GMT 35.570618 -86.779976 11,925 320 337 -1472
2022-07-03 17:28:39 GMT 35.568935 -86.778259 11,975 320 339 -1472
2022-07-03 17:28:38 GMT 35.567734 -86.777000 12,000 320 339 -1472
2022-07-03 17:28:37 GMT 35.565903 -86.775108 12,025 320 339 -1536
2022-07-03 17:28:34 GMT 35.563385 -86.772537 12,075 320 339 -1536
2022-07-03 17:28:33 GMT 35.561207 -86.770309 12,125 320 340 -1600
2022-07-03 17:28:32 GMT 35.558834 -86.767799 12,175 320 340 -1664
2022-07-03 17:28:30 GMT 35.557617 -86.766525 12,225 320 340 -1728
2022-07-03 17:28:28 GMT 35.555061 -86.763939 12,275 320 341 -1664
2022-07-03 17:28:27 GMT 35.553619 -86.762421 12,300 320 341 -1664
2022-07-03 17:28:26 GMT 35.552307 -86.761040 12,325 320 341 -1664
2022-07-03 17:28:25 GMT 35.549881 -86.758514 12,375 320 342 -1664
2022-07-03 17:28:23 GMT 35.548683 -86.757278 12,425 320 342 -1728
2022-07-03 17:28:22 GMT 35.545990 -86.754517 12,475 320 342 -1792
2022-07-03 17:28:20 GMT 35.544617 -86.753082 12,525 320 342 -1792
2022-07-03 17:28:18 GMT 35.543472 -86.751846 12,550 320 342 -1856
2022-07-03 17:28:15 GMT 35.537514 -86.745712 12,700 320 343 -1856
2022-07-03 17:28:11 GMT 35.535603 -86.743668 12,750 320 344 -1792
2022-07-03 17:28:10 GMT 35.533905 -86.741920 12,775 320 344 -1664
2022-07-03 17:28:09 GMT 35.531937 -86.739861 12,825 320 344 -1664
2022-07-03 17:28:06 GMT 35.525967 -86.733612 12,975 320 344 -1664
2022-07-03 17:28:04 GMT 35.525967 -86.733612 12,975 320 345 -1728
2022-07-03 17:28:01 GMT 35.522102 -86.729584 13,050 320 346 -1728
2022-07-03 17:27:59 GMT 35.519684 -86.727013 13,100 320 346 -1728
2022-07-03 17:27:57 GMT 35.517380 -86.724586 13,175 320 346 -1792
2022-07-03 17:27:55 GMT 35.514954 -86.722069 13,225 320 346 -1792
2022-07-03 17:27:54 GMT 35.513725 -86.720818 13,250 320 346 -1856
2022-07-03 17:27:52 GMT 35.512070 -86.719093 13,300 320 346 -1856
2022-07-03 17:27:51 GMT 35.510056 -86.716972 13,350 320 346 -1856
2022-07-03 17:27:50 GMT 35.508839 -86.715675 13,375 320 346 -1984
2022-07-03 17:27:48 GMT 35.505905 -86.712631 13,450 320 346 -1984
2022-07-03 17:27:46 GMT 35.501266 -86.707764 13,575 320 347 -1984
2022-07-03 17:27:44 GMT 35.501266 -86.707764 13,575 320 347 -1984
2022-07-03 17:27:42 GMT 35.498840 -86.705193 13,650 320 347 -1984
2022-07-03 17:27:41 GMT 35.497105 -86.703400 13,700 320 347 -2048
2022-07-03 17:27:38 GMT 35.493660 -86.699837 13,800 320 347 -1984
2022-07-03 17:27:36 GMT 35.492355 -86.698433 13,825 320 348 -1984
2022-07-03 17:27:33 GMT 35.487579 -86.693398 13,950 320 348 -1984
2022-07-03 17:27:31 GMT 35.485611 -86.691338 14,000 320 348 -1984
2022-07-03 17:27:30 GMT 35.484444 -86.690132 14,025 320 348 -1984
2022-07-03 17:27:29 GMT 35.483139 -86.688766 14,075 320 348 -1984
2022-07-03 17:27:27 GMT 35.479462 -86.684875 14,150 320 348 -1984
2022-07-03 17:27:26 GMT 35.479462 -86.684875 14,175 320 348 -1984
2022-07-03 17:27:23 GMT 35.474575 -86.679733 14,375 320 348 -1856
2022-07-03 17:27:20 GMT 35.472107 -86.677162 14,375 320 348 -1792
2022-07-03 17:27:16 GMT 35.466705 -86.671555 14,500 320 349 -1664
2022-07-03 17:27:14 GMT 35.464752 -86.669563 14,525 320 349 -1600
2022-07-03 17:27:10 GMT 35.460480 -86.665131 14,575 320 350 -1600
2022-07-03 17:27:06 GMT 35.455536 -86.660042 14,725 320 351 -1664
2022-07-03 17:27:00 GMT 35.446781 -86.651039 14,950 320 352 -1792
2022-07-03 17:26:56 GMT 35.441753 -86.645897 15,050 320 353 -1792
2022-07-03 17:26:52 GMT 35.436726 -86.640755 15,175 320 354 -1856
2022-07-03 17:26:48 GMT 35.431282 -86.635086 15,325 320 355 -1792
2022-07-03 17:26:45 GMT 35.424500 -86.627937 15,475 320 355 -1856
2022-07-03 17:26:37 GMT 35.419270 -86.622406 15,625 319 356 -2368
2022-07-03 17:26:34 GMT 35.414803 -86.617676 15,725 319 355 -2368
2022-07-03 17:26:28 GMT 35.406693 -86.609001 16,025 319 357 -2368
2022-07-03 17:26:25 GMT 35.403397 -86.605461 16,125 319 357 -2240
2022-07-03 17:26:21 GMT 35.397903 -86.599617 16,275 320 358 -1920
2022-07-03 17:26:14 GMT 35.388611 -86.589828 16,475 320 358 -1280
2022-07-03 17:26:03 GMT 35.376255 -86.576881 16,650 320 358 -1152
2022-07-03 17:25:54 GMT 35.365177 -86.565315 16,800 320 359 -1024
2022-07-03 17:25:51 GMT 35.359726 -86.559677 16,875 320 360 -960
2022-07-03 17:25:44 GMT 35.352173 -86.551781 16,975 320 360 -960
2022-07-03 17:25:42 GMT 35.349609 -86.549149 17,000 320 361 -960
2022-07-03 17:25:32 GMT 35.336594 -86.535744 17,175 322 362 -960
2022-07-03 17:25:29 GMT 35.332870 -86.532120 17,225 323 362 -960
2022-07-03 17:25:21 GMT 35.322464 -86.522537 17,325 322 363 -896
2022-07-03 17:25:17 GMT 35.318577 -86.518623 17,375 317 362 -1024
2022-07-03 17:25:11 GMT 35.309967 -86.507545 17,500 309 363 -960
2022-07-03 17:25:00 GMT 35.300842 -86.488930 17,675 294 365 -1152
2022-07-03 17:24:50 GMT 35.295071 -86.467659 17,850 285 366 -896
2022-07-03 17:24:42 GMT 35.292835 -86.451477 17,975 274 368 -1152
2022-07-03 17:24:39 GMT 35.292740 -86.447151 18,025 269 369 -1216
2022-07-03 17:24:31 GMT 35.294266 -86.429504 18,200 258 369 -1216
2022-07-03 17:24:26 GMT 35.296280 -86.419601 18,275 255 370 -896
2022-07-03 17:24:19 GMT 35.299164 -86.406837 18,375 255 371 -832
2022-07-03 17:24:16 GMT 35.300514 -86.400749 18,425 255 372 -832
2022-07-03 17:24:11 GMT 35.303329 -86.388016 18,500 255 374 -768
2022-07-03 17:24:05 GMT 35.305962 -86.376144 18,575 255 375 -896
2022-07-03 17:24:00 GMT 35.308151 -86.366333 18,650 255 375 -1024
2022-07-03 17:23:57 GMT 35.309326 -86.361008 18,700 255 375 -1088
2022-07-03 17:23:47 GMT 35.313721 -86.341324 18,925 255 376 -1088
2022-07-03 17:23:38 GMT 35.318298 -86.320892 19,050 255 377 -1152
2022-07-03 17:23:29 GMT 35.322254 -86.303101 19,225 255 377 -1024
2022-07-03 17:23:25 GMT 35.323887 -86.295853 19,275 255 377 -960
2022-07-03 17:23:17 GMT 35.328003 -86.277122 19,425 256 377 -1152
2022-07-03 17:23:07 GMT 35.332626 -86.255669 19,700 256 377 -1408
2022-07-03 17:22:55 GMT 35.337387 -86.233406 19,925 256 376 -1600
2022-07-03 17:22:48 GMT 35.340878 -86.217369 20,075 256 376 -896
2022-07-03 17:22:45 GMT 35.341827 -86.213036 20,100 255 376 -960
2022-07-03 17:22:36 GMT 35.346313 -86.193123 20,250 254 378 -832
2022-07-03 17:22:26 GMT 35.351395 -86.172638 20,375 253 380 -768
2022-07-03 17:22:22 GMT 35.353165 -86.165710 20,425 253 380 -832
2022-07-03 17:22:17 GMT 35.356194 -86.154373 20,650 248 383 -896
2022-07-03 17:22:14 GMT 35.358891 -86.145317 20,600 250 382 -896
2022-07-03 17:22:09 GMT 35.361603 -86.136871 20,650 247 383 -704
2022-07-03 17:22:06 GMT 35.365494 -86.125832 20,725 246 384 -832
2022-07-03 17:22:03 GMT 35.365494 -86.125832 20,725 246 384 -832
2022-07-03 17:21:55 GMT 35.372158 -86.109032 20,875 244 385 -1152
2022-07-03 17:21:52 GMT 35.373837 -86.104935 20,925 244 386 -1216
2022-07-03 17:21:48 GMT 35.377373 -86.096344 21,000 244 387 -1280
2022-07-03 17:21:43 GMT 35.380585 -86.088516 21,100 244 387 -1152
2022-07-03 17:21:39 GMT 35.383797 -86.080688 21,175 244 387 -1152
2022-07-03 17:21:36 GMT 35.386185 -86.074905 21,225 244 387 -1152
2022-07-03 17:21:33 GMT 35.388794 -86.068497 21,300 244 388 -1152
2022-07-03 17:21:30 GMT 35.391724 -86.061462 21,375 244 388 -1216
2022-07-03 17:21:27 GMT 35.394287 -86.055161 21,425 244 388 -1152
2022-07-03 17:21:23 GMT 35.396740 -86.049248 21,475 244 388 -1152
2022-07-03 17:21:19 GMT 35.400467 -86.040230 21,575 244 389 -1152
2022-07-03 17:21:14 GMT 35.404793 -86.029610 21,675 244 389 -1152
2022-07-03 17:21:08 GMT 35.410172 -86.016541 21,800 244 390 -1088
2022-07-03 17:21:05 GMT 35.411636 -86.013016 21,825 244 390 -1152
2022-07-03 17:21:02 GMT 35.414383 -86.006355 21,900 244 390 -1216
2022-07-03 17:20:58 GMT 35.417313 -85.999207 21,975 244 391 -1216
2022-07-03 17:20:53 GMT 35.422165 -85.987305 22,100 244 391 -1152
2022-07-03 17:20:45 GMT 35.427933 -85.973167 22,225 244 392 -1152
2022-07-03 17:20:42 GMT 35.430351 -85.967255 22,275 244 392 -1152
2022-07-03 17:20:35 GMT 35.436447 -85.952393 22,400 244 393 -1024
2022-07-03 17:20:32 GMT 35.438869 -85.946510 22,450 243 393 -1024
2022-07-03 17:20:25 GMT 35.444092 -85.934143 22,575 243 394 -1152
2022-07-03 17:20:21 GMT 35.447754 -85.925507 22,650 243 394 -1216
2022-07-03 17:20:14 GMT 35.454185 -85.911041 22,800 241 395 -1216
2022-07-03 17:20:10 GMT 35.457687 -85.903648 22,875 239 395 -1152
2022-07-03 17:20:06 GMT 35.461075 -85.896721 22,950 239 396 -1216
2022-07-03 17:20:02 GMT 35.465172 -85.888657 23,025 238 396 -1152
2022-07-03 17:19:59 GMT 35.467804 -85.883789 23,075 237 396 -1088
2022-07-03 17:19:53 GMT 35.474670 -85.871086 23,250 237 397 -1088
2022-07-03 17:19:50 GMT 35.477787 -85.865456 23,250 236 398 -1152
2022-07-03 17:19:46 GMT 35.482349 -85.857338 23,350 236 398 -1216
2022-07-03 17:19:42 GMT 35.485329 -85.852074 23,425 235 399 -1344
2022-07-03 17:19:38 GMT 35.489143 -85.845535 23,475 234 399 -1344
2022-07-03 17:19:33 GMT 35.495010 -85.836121 23,600 232 399 -1344
2022-07-03 17:19:31 GMT 35.497246 -85.832619 23,625 231 400 -1280
2022-07-03 17:19:28 GMT 35.502640 -85.824623 23,725 231 400 -1280
2022-07-03 17:19:24 GMT 35.506836 -85.818649 23,800 229 401 -1216
2022-07-03 17:19:21 GMT 35.509552 -85.814957 23,875 228 401 -1216
2022-07-03 17:19:18 GMT 35.513580 -85.809570 23,925 227 401 -1280
2022-07-03 17:19:13 GMT 35.520172 -85.801163 24,025 226 401 -1280
2022-07-03 17:19:07 GMT 35.528481 -85.791122 24,150 224 402 -1216
2022-07-03 17:19:03 GMT 35.533081 -85.785767 24,200 223 403 -1216
2022-07-03 17:19:01 GMT 35.536926 -85.781425 24,275 223 403 -1216
2022-07-03 17:18:57 GMT 35.541096 -85.776871 24,325 222 403 -1280
2022-07-03 17:18:54 GMT 35.549568 -85.767807 24,500 222 404 -1280
2022-07-03 17:18:49 GMT 35.552124 -85.765114 24,500 221 405 -1216
2022-07-03 17:18:46 GMT 35.558556 -85.758224 24,575 221 405 -1216
2022-07-03 17:18:42 GMT 35.562195 -85.754356 24,650 221 405 -1216
2022-07-03 17:18:40 GMT 35.566517 -85.749748 24,700 221 405 -1280
2022-07-03 17:18:36 GMT 35.571304 -85.744682 24,775 221 405 -1344
2022-07-03 17:18:31 GMT 35.578430 -85.737129 24,850 221 406 -1408
2022-07-03 17:18:29 GMT 35.582657 -85.732674 24,950 221 406 -1408
2022-07-03 17:18:26 GMT 35.586594 -85.728439 25,025 221 406 -1344
2022-07-03 17:18:22 GMT 35.590908 -85.723923 25,075 221 406 -1344
2022-07-03 17:18:18 GMT 35.596985 -85.717445 25,175 221 407 -1280
2022-07-03 17:18:14 GMT 35.604130 -85.709900 25,275 221 408 -1344
2022-07-03 17:18:11 GMT 35.606457 -85.707504 25,325 221 409 -1344
2022-07-03 17:18:08 GMT 35.612503 -85.701202 25,425 221 409 -1408
2022-07-03 17:18:02 GMT 35.620747 -85.692543 25,550 221 410 -1472
2022-07-03 17:17:57 GMT 35.626968 -85.686089 25,650 221 410 -1472
2022-07-03 17:17:54 GMT 35.631130 -85.681732 25,725 221 410 -1472
2022-07-03 17:17:51 GMT 35.636215 -85.676422 25,800 221 411 -1408
2022-07-03 17:17:47 GMT 35.642029 -85.670418 26,075 221 411 -1408
2022-07-03 17:17:41 GMT 35.651100 -85.661102 26,050 220 413 -1408
2022-07-03 17:17:37 GMT 35.655487 -85.656624 26,100 220 412 -1472
2022-07-03 17:17:34 GMT 35.662033 -85.650101 26,225 219 414 -1408
2022-07-03 17:17:30 GMT 35.667206 -85.645210 26,300 218 414 -1408
2022-07-03 17:17:26 GMT 35.672562 -85.640182 26,375 217 415 -1408
2022-07-03 17:17:20 GMT 35.682663 -85.631180 26,525 216 415 -1408
2022-07-03 17:17:13 GMT 35.694901 -85.620461 26,700 216 417 -1408
2022-07-03 17:17:10 GMT 35.699467 -85.616516 26,775 216 418 -1344
2022-07-03 17:17:06 GMT 35.704880 -85.611763 26,850 216 418 -1344
2022-07-03 17:16:59 GMT 35.715435 -85.602608 27,000 216 419 -1344
2022-07-03 17:16:55 GMT 35.721813 -85.597115 27,100 216 420 -1408
2022-07-03 17:16:52 GMT 35.728146 -85.591560 27,200 216 420 -1408
2022-07-03 17:16:49 GMT 35.732895 -85.587387 27,250 216 421 -1472
2022-07-03 17:16:45 GMT 35.738384 -85.582680 27,350 216 421 -1536
2022-07-03 17:16:41 GMT 35.744064 -85.577766 27,450 215 422 -1536
2022-07-03 17:16:38 GMT 35.749279 -85.573326 27,525 215 423 -1536
2022-07-03 17:16:35 GMT 35.761337 -85.562981 27,625 215 423 -1472
2022-07-03 17:16:31 GMT 35.761337 -85.562981 27,700 215 423 -1472
2022-07-03 17:16:27 GMT 35.766174 -85.558891 27,775 215 424 -1472
2022-07-03 17:16:24 GMT 35.776062 -85.550591 27,950 214 426 -1408
2022-07-03 17:16:21 GMT 35.782608 -85.545219 27,950 214 426 -1408
2022-07-03 17:16:17 GMT 35.782608 -85.545219 28,000 213 426 -1472
2022-07-03 17:16:13 GMT 35.789291 -85.540009 28,100 212 427 -1600
2022-07-03 17:16:10 GMT 35.796204 -85.535202 28,225 209 429 -1600
2022-07-03 17:16:05 GMT 35.803940 -85.530281 28,325 206 430 -1536
2022-07-03 17:16:03 GMT 35.809021 -85.527420 28,400 205 432 -1472
2022-07-03 17:15:59 GMT 35.814148 -85.524788 28,450 201 433 -1344
2022-07-03 17:15:56 GMT 35.823166 -85.520721 28,575 199 435 -1280
2022-07-03 17:15:53 GMT 35.826233 -85.519463 28,625 198 436 -1216
2022-07-03 17:15:49 GMT 35.834515 -85.516464 28,675 196 438 -1024
2022-07-03 17:15:43 GMT 35.845501 -85.512787 28,750 196 440 -896
2022-07-03 17:15:41 GMT 35.849365 -85.511497 28,900 195 441 -960
2022-07-03 17:15:38 GMT 35.855789 -85.509399 28,850 196 443 -1088
2022-07-03 17:15:33 GMT 35.864494 -85.506531 28,950 195 443 -1344
2022-07-03 17:15:31 GMT 35.870407 -85.504646 29,600 195 444 -1664
2022-07-03 17:15:27 GMT 35.876366 -85.502678 29,100 195 444 -1856
2022-07-03 17:15:24 GMT 35.883179 -85.500465 29,200 195 444 -1792
2022-07-03 17:15:22 GMT 35.887161 -85.499207 29,250 195 445 -1728
2022-07-03 17:15:18 GMT 35.893570 -85.497147 29,350 195 445 -1664
2022-07-03 17:15:14 GMT 35.903553 -85.494026 29,475 195 446 -1472
2022-07-03 17:15:12 GMT 35.907944 -85.492630 29,550 195 446 -1344
2022-07-03 17:15:09 GMT 35.913574 -85.490852 29,600 195 447 -1152
2022-07-03 17:15:06 GMT 35.918198 -85.489365 29,625 195 447 -1152
2022-07-03 17:15:02 GMT 35.928772 -85.486053 29,750 195 449 -1216
2022-07-03 17:14:59 GMT 35.932800 -85.484734 30,275 195 450 -1152
2022-07-03 17:14:54 GMT 35.950199 -85.479187 29,925 195 452 -1152
2022-07-03 17:14:51 GMT 35.950199 -85.479187 29,950 195 452 -1152
2022-07-03 17:14:48 GMT 35.955879 -85.477318 29,950 195 452 -1152
2022-07-03 17:14:43 GMT 35.965256 -85.474319 30,075 195 454 -1216
2022-07-03 17:14:40 GMT 35.970932 -85.472427 30,175 196 455 -1152
2022-07-03 17:14:36 GMT 35.981552 -85.468941 30,225 196 456 -1216
2022-07-03 17:14:33 GMT 35.995029 -85.464401 30,350 196 458 -1152
2022-07-03 17:14:29 GMT 35.995029 -85.464401 30,375 196 458 -1152
2022-07-03 17:14:25 GMT 36.002430 -85.461945 30,425 196 460 -1216
2022-07-03 17:14:21 GMT 36.010483 -85.459259 30,525 196 462 -960
2022-07-03 17:14:18 GMT 36.016846 -85.457092 31,650 196 463 -1664
2022-07-03 17:14:15 GMT 36.024731 -85.454521 30,650 196 464 -1920
2022-07-03 17:14:11 GMT 36.031433 -85.452301 30,775 195 464 -2048
2022-07-03 17:14:07 GMT 36.038692 -85.449905 30,900 195 465 -1664
2022-07-03 17:14:03 GMT 36.048935 -85.446518 31,050 196 466 -1664
2022-07-03 17:14:01 GMT 36.054153 -85.444794 31,100 196 466 -1600
2022-07-03 17:13:57 GMT 36.060013 -85.442848 31,175 196 465 -1536
2022-07-03 17:13:54 GMT 36.068481 -85.440041 31,275 195 464 -1472
2022-07-03 17:13:51 GMT 36.071419 -85.439095 31,325 195 463 -1536
2022-07-03 17:13:47 GMT 36.081619 -85.435753 31,450 195 461 -1600
2022-07-03 17:13:43 GMT 36.089577 -85.433136 31,625 195 458 -1600
2022-07-03 17:13:40 GMT 36.095348 -85.431267 31,625 195 458 -1600
2022-07-03 17:13:38 GMT 36.098606 -85.430214 31,650 194 455 -1536
2022-07-03 17:13:36 GMT 36.105171 -85.428230 31,800 189 452 -1536
2022-07-03 17:13:33 GMT 36.111736 -85.426239 31,950 191 453 -1536
2022-07-03 17:13:28 GMT 36.125153 -85.422935 32,050 189 452 -1536
2022-07-03 17:13:22 GMT 36.132359 -85.421623 32,075 187 451 -1536
2022-07-03 17:13:16 GMT 36.146759 -85.420135 32,250 183 449 -1536
2022-07-03 17:13:12 GMT 36.154797 -85.419868 32,350 181 448 -1600
2022-07-03 17:13:07 GMT 36.162643 -85.420074 32,475 177 446 -1664
2022-07-03 17:13:05 GMT 36.167877 -85.420395 32,525 175 444 -1600
2022-07-03 17:13:01 GMT 36.176208 -85.421211 32,625 174 442 -1536
2022-07-03 17:12:56 GMT 36.188599 -85.422592 32,825 174 439 -1344
2022-07-03 17:12:50 GMT 36.196793 -85.423508 32,825 174 437 -768
2022-07-03 17:12:47 GMT 36.206589 -85.424652 32,900 174 436 -768
2022-07-03 17:12:43 GMT 36.211590 -85.425247 32,900 174 436 -704
2022-07-03 17:12:40 GMT 36.218628 -85.426086 32,950 174 435 -640
2022-07-03 17:12:34 GMT 36.232269 -85.427856 33,000 173 434 -128
2022-07-03 17:12:29 GMT 36.239056 -85.428810 33,000 162 441 -64
2022-07-03 17:12:23 GMT 36.252823 -85.431007 33,000 171 435 64
2022-07-03 17:12:19 GMT 36.260010 -85.432549 33,000 169 436 0
2022-07-03 17:12:16 GMT 36.268383 -85.434769 33,000 166 438 0
2022-07-03 17:12:13 GMT 36.273037 -85.436234 33,000 164 438 -64
2022-07-03 17:12:08 GMT 36.281792 -85.439445 33,000 162 441 -64
2022-07-03 17:12:05 GMT 36.288391 -85.441994 33,000 162 440 64
2022-07-03 17:12:02 GMT 36.293655 -85.444054 33,000 162 440 64
2022-07-03 17:11:59 GMT 36.300659 -85.446793 33,000 162 440 0
2022-07-03 17:11:54 GMT 36.308231 -85.449730 33,000 162 440 -64
2022-07-03 17:11:51 GMT 36.313679 -85.451897 33,000 162 440 -64
2022-07-03 17:11:48 GMT 36.321030 -85.454750 33,000 162 440 0
2022-07-03 17:11:42 GMT 36.334579 -85.460075 33,000 162 441 0
2022-07-03 17:11:38 GMT 36.342449 -85.463173 33,000 162 441 128
2022-07-03 17:11:33 GMT 36.349430 -85.465919 33,000 162 442 64
2022-07-03 17:11:30 GMT 36.354492 -85.467911 33,000 162 442 -64
2022-07-03 17:11:25 GMT 36.366749 -85.472755 33,000 162 443 192
2022-07-03 17:11:21 GMT 36.375687 -85.476265 33,000 162 444 -64
2022-07-03 17:11:15 GMT 36.386345 -85.480415 33,000 162 445 64
2022-07-03 17:11:10 GMT 36.397751 -85.484901 33,000 162 446 0
2022-07-03 17:11:06 GMT 36.402920 -85.486900 33,000 162 447 0
2022-07-03 17:11:03 GMT 36.410294 -85.489822 33,000 162 448 64
2022-07-03 17:10:56 GMT 36.423889 -85.495148 33,000 162 450 64
2022-07-03 17:10:53 GMT 36.428894 -85.497124 33,000 162 451 -64
2022-07-03 17:10:51 GMT 36.431454 -85.498116 33,000 162 451 -64
2022-07-03 17:10:47 GMT 36.439819 -85.501442 33,000 162 452 0
2022-07-03 17:10:44 GMT 36.445404 -85.503616 33,000 162 453 0
2022-07-03 17:10:40 GMT 36.456036 -85.507820 33,000 162 453 0
2022-07-03 17:10:37 GMT 36.461018 -85.509750 33,000 162 455 -64
2022-07-03 17:10:32 GMT 36.472549 -85.514320 33,000 162 456 64
2022-07-03 17:10:27 GMT 36.486237 -85.519753 33,000 162 457 0
2022-07-03 17:10:24 GMT 36.486237 -85.519753 33,000 162 458 -64
2022-07-03 17:10:21 GMT 36.492874 -85.522324 33,000 162 458 0
2022-07-03 17:10:17 GMT 36.502167 -85.525993 33,000 162 459 -64
2022-07-03 17:10:13 GMT 36.508209 -85.528397 33,000 162 459 0
2022-07-03 17:10:06 GMT 36.521988 -85.533829 33,000 162 459 64
2022-07-03 17:10:04 GMT 36.528534 -85.536407 33,000 162 458 0
2022-07-03 17:09:56 GMT 36.545517 -85.543098 33,000 162 457 -64
2022-07-03 17:09:53 GMT 36.549885 -85.544807 33,000 162 457 0
2022-07-03 17:09:47 GMT 36.562035 -85.549660 33,000 162 457 0
2022-07-03 17:09:45 GMT 36.566391 -85.551392 33,000 162 456 0
2022-07-03 17:09:41 GMT 36.573715 -85.554253 33,000 162 456 64
2022-07-03 17:09:37 GMT 36.582005 -85.557549 33,000 162 455 64
2022-07-03 17:09:32 GMT 36.592117 -85.561523 33,000 162 455 64
2022-07-03 17:09:27 GMT 36.608185 -85.567879 33,000 162 453 -64
2022-07-03 17:09:22 GMT 36.613335 -85.569878 33,000 162 453 0
2022-07-03 17:09:14 GMT 36.629059 -85.576118 33,000 162 452 -64
2022-07-03 17:09:11 GMT 36.633820 -85.578003 33,000 162 451 -64
2022-07-03 17:09:06 GMT 36.643642 -85.581917 33,000 162 451 64
2022-07-03 17:09:03 GMT 36.649750 -85.584297 33,000 162 450 64
2022-07-03 17:09:00 GMT 36.656113 -85.586815 33,000 162 450 64
2022-07-03 17:08:56 GMT 36.663940 -85.589958 33,000 162 449 64
2022-07-03 17:08:52 GMT 36.671906 -85.593109 33,000 162 449 0
2022-07-03 17:08:49 GMT 36.677490 -85.595345 33,000 162 449 -64
2022-07-03 17:08:46 GMT 36.683807 -85.597855 33,000 162 448 -64
2022-07-03 17:08:42 GMT 36.692799 -85.601440 33,000 162 447 64
2022-07-03 17:08:39 GMT 36.695663 -85.602554 33,000 162 447 0
2022-07-03 17:08:36 GMT 36.703537 -85.605698 33,000 162 446 0
2022-07-03 17:08:30 GMT 36.716125 -85.610680 33,000 162 444 0
2022-07-03 17:08:25 GMT 36.723816 -85.613708 33,000 162 444 0
2022-07-03 17:08:21 GMT 36.734558 -85.617973 33,000 162 444 -64
2022-07-03 17:08:18 GMT 36.737724 -85.619202 33,000 162 444 -64
2022-07-03 17:08:15 GMT 36.743591 -85.621552 33,000 162 442 0
2022-07-03 17:08:08 GMT 36.758240 -85.627327 33,000 162 440 0
2022-07-03 17:08:05 GMT 36.764072 -85.629662 33,000 162 440 0
2022-07-03 17:08:00 GMT 36.775150 -85.634048 33,000 162 439 64
2022-07-03 17:07:55 GMT 36.783669 -85.637436 33,000 162 439 0
2022-07-03 17:07:51 GMT 36.789505 -85.639748 33,000 162 452 64
2022-07-03 17:07:47 GMT 36.800354 -85.644096 33,000 162 439 0
2022-07-03 17:07:43 GMT 36.806534 -85.646553 33,000 162 438 64
2022-07-03 17:07:38 GMT 36.818443 -85.651222 33,000 162 438 -64
2022-07-03 17:07:35 GMT 36.823193 -85.653152 33,000 162 438 -64
2022-07-03 17:07:29 GMT 36.835575 -85.658066 33,000 162 439 -64
2022-07-03 17:07:25 GMT 36.841812 -85.660515 33,000 162 439 0
2022-07-03 17:07:18 GMT 36.861973 -85.668518 33,000 162 439 0
2022-07-03 17:07:15 GMT 36.861973 -85.668518 33,000 162 440 64
2022-07-03 17:07:08 GMT 36.876728 -85.674431 33,000 162 440 0
2022-07-03 17:07:04 GMT 36.881790 -85.676414 33,000 162 441 -64
2022-07-03 17:07:01 GMT 36.887238 -85.678574 33,000 162 442 0
2022-07-03 17:06:54 GMT 36.901634 -85.684341 33,000 162 442 -64
2022-07-03 17:06:47 GMT 36.917274 -85.690552 33,000 162 443 0
2022-07-03 17:06:44 GMT 36.929214 -85.695343 33,000 162 452 64
2022-07-03 17:06:34 GMT 36.941849 -85.700371 33,000 162 444 64
2022-07-03 17:06:30 GMT 36.961079 -85.708046 33,000 162 452 64
2022-07-03 17:06:24 GMT 36.961079 -85.708046 33,000 162 445 0
2022-07-03 17:06:19 GMT 36.969692 -85.711510 33,000 162 452 64
2022-07-03 17:06:15 GMT 36.977966 -85.714806 33,000 162 446 0
2022-07-03 17:06:12 GMT 36.982075 -85.716469 33,000 162 446 0
2022-07-03 17:06:07 GMT 37.001633 -85.724213 33,000 162 452 64
2022-07-03 17:06:03 GMT 37.001633 -85.724213 33,000 162 447 -64
2022-07-03 17:05:59 GMT 37.009506 -85.727371 33,000 162 447 0
2022-07-03 17:05:55 GMT 37.018574 -85.730972 33,000 162 447 64
2022-07-03 17:05:51 GMT 37.024857 -85.733543 33,000 162 448 64
2022-07-03 17:05:46 GMT 37.037518 -85.738556 33,000 162 448 0
2022-07-03 17:05:43 GMT 37.045433 -85.741722 33,000 162 449 0
2022-07-03 17:05:31 GMT 37.071213 -85.752029 33,000 162 450 64
2022-07-03 17:05:27 GMT 37.071213 -85.752029 33,000 162 450 0
2022-07-03 17:05:22 GMT 37.083939 -85.757172 33,000 162 451 64
2022-07-03 17:05:14 GMT 37.104492 -85.765358 33,000 162 453 0
2022-07-03 17:05:11 GMT 37.104492 -85.765358 33,000 162 452 0
2022-07-03 17:05:02 GMT 37.122986 -85.772774 33,000 162 453 -128
2022-07-03 17:04:59 GMT 37.128155 -85.774864 33,000 162 453 -64
2022-07-03 17:04:56 GMT 37.134579 -85.777428 33,000 162 454 64
2022-07-03 17:04:52 GMT 37.144501 -85.781425 33,000 162 454 0
2022-07-03 17:04:49 GMT 37.150593 -85.783875 33,000 162 454 64
2022-07-03 17:04:45 GMT 37.156586 -85.786278 33,000 162 457 0
2022-07-03 17:04:40 GMT 37.166607 -85.790329 33,000 162 456 0
2022-07-03 17:04:35 GMT 37.176945 -85.794502 33,000 162 457 0
2022-07-03 17:04:30 GMT 37.187851 -85.798843 33,000 162 458 0
2022-07-03 17:04:21 GMT 37.205704 -85.806030 33,000 162 457 -64
2022-07-03 17:04:19 GMT 37.209206 -85.807465 33,000 162 458 0
2022-07-03 17:04:10 GMT 37.226288 -85.814331 33,000 162 458 -64
2022-07-03 17:04:08 GMT 37.231968 -85.816597 33,000 162 458 0
2022-07-03 17:04:02 GMT 37.241650 -85.820480 33,000 162 459 0
2022-07-03 17:03:58 GMT 37.252579 -85.824905 33,000 162 459 -64
2022-07-03 17:03:52 GMT 37.265533 -85.830101 33,000 162 459 64
2022-07-03 17:03:49 GMT 37.268372 -85.831223 33,000 162 459 64
2022-07-03 17:03:46 GMT 37.274277 -85.833611 33,000 162 459 0
2022-07-03 17:03:43 GMT 37.280380 -85.836060 33,000 162 459 0
2022-07-03 17:03:39 GMT 37.288528 -85.839409 33,000 162 459 0
2022-07-03 17:03:37 GMT 37.295048 -85.841972 33,000 162 459 0
2022-07-03 17:03:32 GMT 37.303528 -85.845413 33,000 162 459 0
2022-07-03 17:03:29 GMT 37.308826 -85.847527 33,000 162 459 -64
2022-07-03 17:03:26 GMT 37.314789 -85.849976 33,000 162 459 0
2022-07-03 17:03:23 GMT 37.324047 -85.853676 33,000 162 459 0
2022-07-03 17:03:19 GMT 37.329868 -85.856064 33,000 162 460 64
2022-07-03 17:03:14 GMT 37.339550 -85.859947 33,000 162 460 64
2022-07-03 17:03:11 GMT 37.344818 -85.862068 33,000 162 460 -64
2022-07-03 17:03:05 GMT 37.366745 -85.870895 33,000 162 460 -64
2022-07-03 17:02:54 GMT 37.380936 -85.876663 33,000 162 460 64
2022-07-03 17:02:51 GMT 37.386616 -85.878937 33,000 162 452 0
2022-07-03 17:02:44 GMT 37.402405 -85.885330 33,000 162 460 0
2022-07-03 17:02:41 GMT 37.420643 -85.892723 33,000 162 452 0
2022-07-03 17:02:35 GMT 37.429535 -85.896309 33,000 162 459 -64
2022-07-03 17:02:31 GMT 37.429535 -85.896309 33,000 162 459 -64
2022-07-03 17:02:24 GMT 37.441547 -85.901146 33,000 162 458 64
2022-07-03 17:02:19 GMT 37.473854 -85.914223 33,000 162 452 0
2022-07-03 17:02:10 GMT 37.483490 -85.918159 33,000 162 452 0
2022-07-03 17:02:03 GMT 37.483490 -85.918159 33,000 162 455 0
2022-07-03 17:01:57 GMT 37.494278 -85.922493 33,000 162 452 0
2022-07-03 17:01:53 GMT 37.503845 -85.926407 33,000 162 451 -64
2022-07-03 17:01:48 GMT 37.517006 -85.931717 33,000 162 450 -64
2022-07-03 17:01:43 GMT 37.525711 -85.935242 33,000 162 448 0
2022-07-03 17:01:38 GMT 37.532833 -85.938103 33,000 162 447 0
2022-07-03 17:01:35 GMT 37.537949 -85.940201 33,000 162 445 0
2022-07-03 17:01:32 GMT 37.545639 -85.943298 33,000 162 445 64
2022-07-03 17:01:29 GMT 37.553272 -85.946404 33,000 162 445 64
2022-07-03 17:01:26 GMT 37.558182 -85.948380 33,000 162 443 -192
2022-07-03 17:01:22 GMT 37.565796 -85.951477 33,000 162 443 -192
2022-07-03 17:01:18 GMT 37.572418 -85.954170 33,000 161 442 64
2022-07-03 17:01:15 GMT 37.578876 -85.956795 33,000 161 442 64
2022-07-03 17:01:11 GMT 37.586472 -85.959892 33,000 162 442 64
2022-07-03 17:01:04 GMT 37.600296 -85.965561 33,000 162 443 0
2022-07-03 17:01:01 GMT 37.606995 -85.968254 33,000 162 443 0
2022-07-03 17:00:57 GMT 37.612839 -85.970650 33,000 162 446 0
2022-07-03 17:00:53 GMT 37.622406 -85.974503 33,000 162 446 0
2022-07-03 17:00:50 GMT 37.627121 -85.976433 33,000 162 448 128
2022-07-03 17:00:47 GMT 37.633438 -85.978943 33,200 162 448 128
2022-07-03 17:00:43 GMT 37.642513 -85.982643 33,000 162 450 64
2022-07-03 17:00:40 GMT 37.647259 -85.984619 33,000 162 453 -320
2022-07-03 17:00:36 GMT 37.655220 -85.987839 33,075 162 454 -896
2022-07-03 17:00:32 GMT 37.663227 -85.991127 33,050 162 454 -896
2022-07-03 17:00:28 GMT 37.679195 -85.997635 33,275 162 453 -1024
2022-07-03 17:00:24 GMT 37.679195 -85.997635 33,200 162 453 -1024
2022-07-03 17:00:22 GMT 37.683990 -85.999542 33,225 162 453 -1024
2022-07-03 17:00:18 GMT 37.689388 -86.001755 33,300 162 454 -1024
2022-07-03 17:00:14 GMT 37.697632 -86.005096 33,325 162 454 -1024
2022-07-03 17:00:11 GMT 37.705215 -86.008163 33,400 162 454 -1024
2022-07-03 17:00:07 GMT 37.715225 -86.012260 33,475 162 454 -960
2022-07-03 17:00:04 GMT 37.719231 -86.013870 33,525 162 454 -1024
2022-07-03 17:00:01 GMT 37.728771 -86.017815 33,600 162 454 -1024
2022-07-03 16:59:55 GMT 37.739246 -86.022057 33,700 162 455 -1024
2022-07-03 16:59:49 GMT 37.749252 -86.026161 33,850 161 455 -1024
2022-07-03 16:59:45 GMT 37.757587 -86.029579 33,850 161 455 -1024
2022-07-03 16:59:42 GMT 37.763222 -86.031906 35,000 162 455 -960
2022-07-03 16:59:39 GMT 37.770344 -86.034828 33,950 162 455 -960
2022-07-03 16:59:34 GMT 37.779144 -86.038414 34,025 161 455 -1024
2022-07-03 16:59:31 GMT 37.783237 -86.040085 34,050 162 455 -1024
2022-07-03 16:59:27 GMT 37.795158 -86.044922 34,150 162 455 -1024
2022-07-03 16:59:23 GMT 37.801300 -86.047493 34,225 161 455 -1024
2022-07-03 16:59:15 GMT 37.816406 -86.053627 34,700 162 456 -960
2022-07-03 16:59:12 GMT 37.825378 -86.057312 35,000 162 456 -1024
2022-07-03 16:59:05 GMT 37.839428 -86.063072 34,500 162 456 -1024
2022-07-03 16:59:01 GMT 37.844650 -86.065201 34,550 162 456 -1024
2022-07-03 16:58:54 GMT 37.861076 -86.071907 34,700 162 456 -1024
2022-07-03 16:58:51 GMT 37.867126 -86.074371 34,750 162 456 -1024
2022-07-03 16:58:44 GMT 37.878204 -86.078934 34,825 162 456 -1024
2022-07-03 16:58:41 GMT 37.885933 -86.082123 34,900 162 456 -1088
2022-07-03 16:58:34 GMT 37.902420 -86.088867 35,000 161 455 -192
2022-07-03 16:58:30 GMT 37.908466 -86.091316 35,000 161 455 64
2022-07-03 16:58:24 GMT 37.920044 -86.096115 35,000 161 455 -128
2022-07-03 16:58:21 GMT 37.925270 -86.098244 35,000 162 455 -64
2022-07-03 16:58:18 GMT 37.930019 -86.100151 35,000 162 455 -64
2022-07-03 16:58:12 GMT 37.945988 -86.106720 35,000 162 454 0
2022-07-03 16:58:09 GMT 37.950829 -86.108688 35,000 162 454 64
2022-07-03 16:58:04 GMT 37.961254 -86.112991 35,000 162 453 0
2022-07-03 16:58:01 GMT 37.965637 -86.114754 35,000 161 453 0
2022-07-03 16:57:58 GMT 37.970009 -86.116570 35,000 161 453 0
2022-07-03 16:57:46 GMT 37.997147 -86.127739 35,000 162 453 64
2022-07-03 16:57:42 GMT 38.008713 -86.132523 35,000 162 453 0
2022-07-03 16:57:39 GMT 38.017502 -86.136147 35,000 161 452 64
2022-07-03 16:57:36 GMT 38.017502 -86.136147 35,000 161 452 0
2022-07-03 16:57:31 GMT 38.032200 -86.142189 35,000 161 452 64
2022-07-03 16:57:28 GMT 38.032200 -86.142189 35,000 161 452 0
2022-07-03 16:57:25 GMT 38.039371 -86.145111 35,000 161 452 0
2022-07-03 16:57:20 GMT 38.048962 -86.149055 35,000 161 452 64
2022-07-03 16:57:17 GMT 38.054123 -86.151161 35,000 161 452 0
2022-07-03 16:57:14 GMT 38.058315 -86.152931 35,000 161 452 -64
2022-07-03 16:57:11 GMT 38.071213 -86.158249 35,000 158 451 0
2022-07-03 16:57:08 GMT 38.084572 -86.163742 35,000 161 451 -64
2022-07-03 16:57:01 GMT 38.084572 -86.163742 35,000 161 451 -64
2022-07-03 16:56:58 GMT 38.092300 -86.166939 35,000 162 451 -64
2022-07-03 16:56:55 GMT 38.099258 -86.169746 35,000 162 451 -64
2022-07-03 16:56:51 GMT 38.105194 -86.172218 35,000 162 451 0
2022-07-03 16:56:49 GMT 38.110966 -86.174545 35,000 162 451 -64
2022-07-03 16:56:46 GMT 38.112991 -86.175354 35,000 161 452 0
2022-07-03 16:56:43 GMT 38.122513 -86.179268 35,000 161 452 -64
2022-07-03 16:56:40 GMT 38.125912 -86.180702 35,000 161 452 -64
2022-07-03 16:56:37 GMT 38.135239 -86.184532 35,000 161 452 192
2022-07-03 16:56:34 GMT 38.138805 -86.186012 35,000 161 452 192
2022-07-03 16:56:30 GMT 38.146225 -86.189087 35,000 161 452 0
2022-07-03 16:56:26 GMT 38.155930 -86.193123 35,000 162 453 -64
2022-07-03 16:56:20 GMT 38.166275 -86.197327 35,000 162 452 64
2022-07-03 16:56:16 GMT 38.174286 -86.200600 35,000 162 452 64
2022-07-03 16:56:13 GMT 38.179443 -86.202728 35,000 161 452 0
2022-07-03 16:56:09 GMT 38.186966 -86.205917 35,000 161 452 0
2022-07-03 16:56:07 GMT 38.193192 -86.208603 35,000 160 452 0
2022-07-03 16:56:04 GMT 38.199230 -86.211327 35,000 159 452 0
2022-07-03 16:55:58 GMT 38.209030 -86.215973 35,000 158 452 0
2022-07-03 16:55:55 GMT 38.214870 -86.218849 35,000 157 451 64
2022-07-03 16:55:52 GMT 38.224182 -86.223572 35,000 157 452 64
2022-07-03 16:55:49 GMT 38.228836 -86.226021 35,000 156 452 64
2022-07-03 16:55:43 GMT 38.239929 -86.232155 35,000 153 451 -64
2022-07-03 16:55:38 GMT 38.248901 -86.237419 35,000 154 451 -64
2022-07-03 16:55:35 GMT 38.252838 -86.239815 35,000 153 451 -64
2022-07-03 16:55:32 GMT 38.259888 -86.244347 35,000 152 451 0
2022-07-03 16:55:28 GMT 38.267338 -86.249245 35,000 152 451 0
2022-07-03 16:55:24 GMT 38.273808 -86.253540 35,000 152 451 -64
2022-07-03 16:55:21 GMT 38.281769 -86.258804 35,000 152 451 -64
2022-07-03 16:55:17 GMT 38.287308 -86.262436 35,000 152 451 -64
2022-07-03 16:55:15 GMT 38.291382 -86.265175 35,000 152 450 0
2022-07-03 16:55:12 GMT 38.298798 -86.270081 35,000 152 449 64
2022-07-03 16:55:09 GMT 38.304298 -86.273727 35,000 152 449 64
2022-07-03 16:55:05 GMT 38.309830 -86.277390 35,000 152 449 64
2022-07-03 16:55:00 GMT 38.319660 -86.283936 35,000 152 449 -64
2022-07-03 16:54:57 GMT 38.331577 -86.291817 35,000 152 449 -64
2022-07-03 16:54:53 GMT 38.331577 -86.291817 35,000 152 448 -64
2022-07-03 16:54:49 GMT 38.339680 -86.297188 35,000 152 448 64
2022-07-03 16:54:46 GMT 38.343750 -86.299828 35,000 152 447 64
2022-07-03 16:54:43 GMT 38.349270 -86.303520 35,000 152 447 64
2022-07-03 16:54:39 GMT 38.357323 -86.308891 35,000 152 448 0
2022-07-03 16:54:36 GMT 38.361923 -86.311928 35,000 152 448 0
2022-07-03 16:54:34 GMT 38.367657 -86.315697 35,000 152 447 0
2022-07-03 16:54:31 GMT 38.371334 -86.318146 35,000 152 447 0
2022-07-03 16:54:27 GMT 38.380737 -86.324417 35,000 152 448 0
2022-07-03 16:54:24 GMT 38.386044 -86.327942 35,000 152 447 -64
2022-07-03 16:54:21 GMT 38.390671 -86.330978 35,000 152 447 0
2022-07-03 16:54:18 GMT 38.396332 -86.334747 35,000 152 446 -64
2022-07-03 16:54:15 GMT 38.402199 -86.338684 35,000 152 446 -64
2022-07-03 16:54:11 GMT 38.408062 -86.342567 35,000 152 450 0
2022-07-03 16:54:06 GMT 38.418304 -86.349365 35,000 152 447 0
2022-07-03 16:54:03 GMT 38.427383 -86.355408 35,000 152 447 0
2022-07-03 16:53:57 GMT 38.436172 -86.361259 35,000 152 448 -64
2022-07-03 16:53:54 GMT 38.442169 -86.365257 35,000 152 448 -64
2022-07-03 16:53:50 GMT 38.445786 -86.367645 35,000 152 448 0
2022-07-03 16:53:44 GMT 38.459061 -86.376480 35,000 152 449 0
2022-07-03 16:53:42 GMT 38.466812 -86.381653 35,000 152 449 64
2022-07-03 16:53:39 GMT 38.466812 -86.381653 35,000 152 449 64
2022-07-03 16:53:36 GMT 38.472679 -86.385559 35,000 152 449 64
2022-07-03 16:53:33 GMT 38.477055 -86.388489 35,000 152 449 64
2022-07-03 16:53:31 GMT 38.481522 -86.391479 35,000 152 449 -64
2022-07-03 16:53:28 GMT 38.487389 -86.395386 35,000 152 449 -64
2022-07-03 16:53:26 GMT 38.492203 -86.398575 35,000 152 450 -64
2022-07-03 16:53:21 GMT 38.500992 -86.404427 35,000 152 450 -64
2022-07-03 16:53:18 GMT 38.507538 -86.408783 35,000 152 450 0
2022-07-03 16:53:14 GMT 38.513828 -86.412964 35,000 152 450 64
2022-07-03 16:53:11 GMT 38.520905 -86.417679 35,000 152 450 0
2022-07-03 16:53:08 GMT 38.527542 -86.422157 35,000 152 450 0
2022-07-03 16:53:03 GMT 38.539806 -86.430359 35,000 152 451 0
2022-07-03 16:53:00 GMT 38.539806 -86.430359 35,000 152 451 -64
2022-07-03 16:52:57 GMT 38.545258 -86.433983 35,000 152 451 -64
2022-07-03 16:52:55 GMT 38.553165 -86.439270 35,000 152 451 0
2022-07-03 16:52:48 GMT 38.561646 -86.444908 35,000 152 451 0
2022-07-03 16:52:45 GMT 38.569462 -86.450134 35,000 152 452 0
2022-07-03 16:52:42 GMT 38.575012 -86.453865 35,000 152 452 64
2022-07-03 16:52:38 GMT 38.579453 -86.456787 35,000 152 452 0
2022-07-03 16:52:33 GMT 38.591354 -86.464790 35,000 152 452 64
2022-07-03 16:52:30 GMT 38.596436 -86.468193 35,000 152 452 0
2022-07-03 16:52:27 GMT 38.599503 -86.470222 35,000 152 451 0
2022-07-03 16:52:24 GMT 38.607559 -86.475601 35,000 152 451 0
2022-07-03 16:52:21 GMT 38.613964 -86.479858 35,000 152 451 0
2022-07-03 16:52:17 GMT 38.618435 -86.482849 35,000 152 451 -64
2022-07-03 16:52:11 GMT 38.629372 -86.490234 35,000 152 451 -64
2022-07-03 16:52:08 GMT 38.635239 -86.494141 35,000 152 450 0
2022-07-03 16:52:05 GMT 38.642082 -86.498718 35,000 152 450 -64
2022-07-03 16:52:01 GMT 38.650833 -86.504578 35,000 152 450 0
2022-07-03 16:51:56 GMT 38.657227 -86.508858 35,000 152 450 0
2022-07-03 16:51:53 GMT 38.669037 -86.516739 35,000 152 450 -64
2022-07-03 16:51:50 GMT 38.669037 -86.516739 35,000 152 450 0
2022-07-03 16:51:46 GMT 38.676270 -86.521576 35,000 152 450 0
2022-07-03 16:51:41 GMT 38.684864 -86.527405 35,000 152 450 0
2022-07-03 16:51:36 GMT 38.694077 -86.533577 35,000 152 450 0
2022-07-03 16:51:34 GMT 38.697052 -86.535545 35,000 152 450 -64
2022-07-03 16:51:30 GMT 38.704601 -86.540649 35,000 152 450 64
2022-07-03 16:51:27 GMT 38.711792 -86.545456 35,000 152 450 0
2022-07-03 16:51:21 GMT 38.723602 -86.553398 35,000 152 450 -64
2022-07-03 16:51:16 GMT 38.732067 -86.559082 35,000 152 449 64
2022-07-03 16:51:13 GMT 38.737232 -86.562500 35,000 152 449 64
2022-07-03 16:51:10 GMT 38.749802 -86.570923 35,000 152 449 64
2022-07-03 16:51:06 GMT 38.749802 -86.570923 35,000 152 450 0
2022-07-03 16:51:04 GMT 38.753483 -86.573425 35,000 152 450 0
2022-07-03 16:51:01 GMT 38.760090 -86.577881 35,000 152 450 0
2022-07-03 16:50:54 GMT 38.770985 -86.585205 35,000 152 450 0
2022-07-03 16:50:51 GMT 38.779270 -86.590759 35,000 152 449 64
2022-07-03 16:50:48 GMT 38.781830 -86.592506 35,000 152 450 0
2022-07-03 16:50:43 GMT 38.794373 -86.600929 35,000 152 450 64
2022-07-03 16:50:39 GMT 38.801338 -86.605652 35,000 152 450 -64
2022-07-03 16:50:34 GMT 38.816792 -86.616028 35,000 152 449 64
2022-07-03 16:50:30 GMT 38.816792 -86.616028 35,000 152 449 -64
2022-07-03 16:50:26 GMT 38.824890 -86.621521 34,975 152 449 64
2022-07-03 16:50:24 GMT 38.829712 -86.624687 35,000 152 449 0
2022-07-03 16:50:20 GMT 38.834885 -86.628151 35,000 152 450 -64
2022-07-03 16:50:18 GMT 38.839512 -86.631287 35,000 152 450 64
2022-07-03 16:50:15 GMT 38.845093 -86.635017 35,000 152 450 -64
2022-07-03 16:50:12 GMT 38.850357 -86.638603 35,000 152 451 -64
2022-07-03 16:50:09 GMT 38.856262 -86.642601 35,000 152 452 -64
2022-07-03 16:50:03 GMT 38.868374 -86.650757 35,000 152 456 0
2022-07-03 16:49:57 GMT 38.878555 -86.657646 35,000 152 456 64
2022-07-03 16:49:54 GMT 38.883041 -86.660690 35,000 152 457 -128
2022-07-03 16:49:49 GMT 38.893929 -86.668030 35,000 152 458 -64
2022-07-03 16:49:46 GMT 38.904831 -86.675385 35,000 152 459 -64
2022-07-03 16:49:43 GMT 38.904831 -86.675385 35,000 152 459 64
2022-07-03 16:49:38 GMT 38.912735 -86.680725 35,000 152 460 128
2022-07-03 16:49:35 GMT 38.919113 -86.685059 35,000 152 460 0
2022-07-03 16:49:33 GMT 38.927773 -86.690918 35,000 152 460 0
2022-07-03 16:49:27 GMT 38.932289 -86.693970 35,000 152 461 64
2022-07-03 16:49:24 GMT 38.938248 -86.697998 35,000 152 461 -128
2022-07-03 16:49:21 GMT 38.944016 -86.701889 35,000 152 461 64
2022-07-03 16:49:18 GMT 38.952301 -86.707443 35,000 152 461 64
2022-07-03 16:49:14 GMT 38.957985 -86.711304 35,000 152 461 64
2022-07-03 16:49:11 GMT 38.965481 -86.716370 35,000 152 461 64
2022-07-03 16:49:07 GMT 38.971161 -86.720222 35,000 152 461 -64
2022-07-03 16:49:04 GMT 38.978329 -86.725098 35,000 152 461 0
2022-07-03 16:49:00 GMT 38.983887 -86.728821 35,000 152 461 64
2022-07-03 16:48:56 GMT 38.993366 -86.735291 35,000 152 461 -192
2022-07-03 16:48:53 GMT 38.997089 -86.737793 35,000 152 461 -192
2022-07-03 16:48:50 GMT 39.002537 -86.741455 35,000 152 461 64
2022-07-03 16:48:47 GMT 39.010681 -86.747009 35,000 152 462 0
2022-07-03 16:48:43 GMT 39.016434 -86.750916 35,000 152 463 -64
2022-07-03 16:48:41 GMT 39.022568 -86.755089 35,000 152 463 0
2022-07-03 16:48:36 GMT 39.030121 -86.760223 35,000 152 463 64
2022-07-03 16:48:33 GMT 39.036804 -86.764763 35,000 152 463 64
2022-07-03 16:48:30 GMT 39.041519 -86.767929 35,000 152 463 64
2022-07-03 16:48:25 GMT 39.051697 -86.774902 35,000 152 463 -64
2022-07-03 16:48:21 GMT 39.057049 -86.778503 35,000 152 463 -64
2022-07-03 16:48:19 GMT 39.061424 -86.781494 35,000 152 463 -64
2022-07-03 16:48:16 GMT 39.069580 -86.787033 35,000 152 463 -64
2022-07-03 16:48:12 GMT 39.075249 -86.790894 35,000 152 463 -64
2022-07-03 16:48:09 GMT 39.080933 -86.794739 35,000 152 463 0
2022-07-03 16:48:05 GMT 39.093796 -86.803513 35,000 152 471 -64
2022-07-03 16:48:02 GMT 39.093796 -86.803513 35,000 151 463 128
2022-07-03 16:47:59 GMT 39.100201 -86.807922 35,000 151 463 128
2022-07-03 16:47:52 GMT 39.113480 -86.817009 35,000 151 464 -64
2022-07-03 16:47:48 GMT 39.120300 -86.821671 35,000 151 466 64
2022-07-03 16:47:44 GMT 39.129810 -86.828247 35,000 151 468 64
2022-07-03 16:47:41 GMT 39.140030 -86.835281 35,000 152 471 -64
2022-07-03 16:47:38 GMT 39.140030 -86.835281 35,000 152 471 -64
2022-07-03 16:47:34 GMT 39.147903 -86.840591 35,000 152 472 -64
2022-07-03 16:47:31 GMT 39.152481 -86.843697 35,000 152 473 -64
2022-07-03 16:47:28 GMT 39.158344 -86.847595 35,000 152 474 -64
2022-07-03 16:47:24 GMT 39.168541 -86.854309 35,000 152 474 0
2022-07-03 16:47:21 GMT 39.178299 -86.860718 35,000 152 474 64
2022-07-03 16:47:19 GMT 39.178299 -86.860718 35,000 152 474 64
2022-07-03 16:47:14 GMT 39.193539 -86.870667 35,000 152 474 64
2022-07-03 16:47:11 GMT 39.193539 -86.870667 35,000 152 473 64
2022-07-03 16:47:08 GMT 39.207554 -86.879944 35,000 152 473 64
2022-07-03 16:47:03 GMT 39.207554 -86.879944 35,000 152 472 0
2022-07-03 16:47:00 GMT 39.212494 -86.883163 35,000 152 473 0
2022-07-03 16:46:57 GMT 39.219143 -86.887573 35,000 152 473 0
2022-07-03 16:46:52 GMT 39.230530 -86.895050 35,000 152 474 -64
2022-07-03 16:46:49 GMT 39.235291 -86.898216 35,000 152 476 -128
2022-07-03 16:46:44 GMT 39.246655 -86.905640 35,000 152 476 -64
2022-07-03 16:46:40 GMT 39.253498 -86.910156 35,000 152 475 64
2022-07-03 16:46:36 GMT 39.260761 -86.914917 35,000 152 474 448
2022-07-03 16:46:33 GMT 39.266647 -86.918816 34,950 152 474 704
2022-07-03 16:46:30 GMT 39.273144 -86.923096 34,950 152 474 704
2022-07-03 16:46:27 GMT 39.286552 -86.931885 34,900 152 474 768
2022-07-03 16:46:23 GMT 39.286552 -86.931885 34,850 152 474 832
2022-07-03 16:46:19 GMT 39.293793 -86.936668 34,800 152 474 832
2022-07-03 16:46:16 GMT 39.302147 -86.942200 34,750 152 474 960
2022-07-03 16:46:12 GMT 39.308578 -86.946396 34,650 152 474 1088
2022-07-03 16:46:09 GMT 39.312653 -86.949142 34,650 152 474 1088
2022-07-03 16:46:05 GMT 39.321304 -86.954819 34,525 152 475 1088
2022-07-03 16:46:02 GMT 39.332245 -86.962105 34,400 152 477 960
2022-07-03 16:45:59 GMT 39.332245 -86.962105 34,475 152 476 1024
2022-07-03 16:45:56 GMT 39.340073 -86.967239 34,400 152 476 1024
2022-07-03 16:45:53 GMT 39.345951 -86.971130 34,350 152 476 1024
2022-07-03 16:45:49 GMT 39.351883 -86.974998 34,300 152 477 960
2022-07-03 16:45:45 GMT 39.362476 -86.981995 34,200 152 477 896
2022-07-03 16:45:42 GMT 39.368015 -86.985657 34,200 152 477 896
2022-07-03 16:45:39 GMT 39.371929 -86.988220 34,150 152 478 896
2022-07-03 16:45:33 GMT 39.384403 -86.996460 34,075 152 478 896
2022-07-03 16:45:28 GMT 39.392807 -87.002045 34,000 152 478 896
2022-07-03 16:45:25 GMT 39.404617 -87.009865 33,925 152 478 896
2022-07-03 16:45:22 GMT 39.413315 -87.015602 33,900 152 478 832
2022-07-03 16:45:18 GMT 39.413315 -87.015602 33,850 152 478 832
2022-07-03 16:45:15 GMT 39.419086 -87.019409 33,775 152 479 832
2022-07-03 16:45:12 GMT 39.425125 -87.023422 33,775 152 479 832
2022-07-03 16:45:08 GMT 39.433422 -87.028931 33,700 152 479 896
2022-07-03 16:45:05 GMT 39.439362 -87.032852 33,675 152 479 896
2022-07-03 16:45:02 GMT 39.445248 -87.036743 33,625 152 479 896
2022-07-03 16:44:59 GMT 39.451859 -87.041092 33,575 152 479 896
2022-07-03 16:44:57 GMT 39.453953 -87.042480 33,475 152 479 896
2022-07-03 16:44:54 GMT 39.462250 -87.048019 33,500 152 479 896
2022-07-03 16:44:51 GMT 39.466568 -87.050903 33,450 152 479 896
2022-07-03 16:44:48 GMT 39.474106 -87.055840 33,375 152 480 832
2022-07-03 16:44:45 GMT 39.479229 -87.059265 33,375 152 480 832
2022-07-03 16:44:42 GMT 39.485184 -87.063187 33,325 152 480 832
2022-07-03 16:44:39 GMT 39.492142 -87.067787 33,275 152 480 768
2022-07-03 16:44:37 GMT 39.493881 -87.068977 33,225 152 480 768
2022-07-03 16:44:34 GMT 39.501251 -87.073853 33,225 152 480 768
2022-07-03 16:44:31 GMT 39.506138 -87.077087 33,200 152 481 768
2022-07-03 16:44:28 GMT 39.518799 -87.085449 33,150 152 481 768
2022-07-03 16:44:25 GMT 39.518799 -87.085449 33,125 152 480 768
2022-07-03 16:44:21 GMT 39.526337 -87.090477 33,050 152 480 960
2022-07-03 16:44:17 GMT 39.536209 -87.097046 32,975 152 480 960
2022-07-03 16:44:11 GMT 39.548080 -87.104919 32,875 152 481 896
2022-07-03 16:44:08 GMT 39.552036 -87.107544 32,850 152 481 960
2022-07-03 16:44:06 GMT 39.555996 -87.110229 32,825 152 481 960
2022-07-03 16:44:01 GMT 39.566666 -87.117287 32,725 152 481 1024
2022-07-03 16:43:58 GMT 39.571682 -87.120667 32,675 152 481 832
2022-07-03 16:43:56 GMT 39.576187 -87.123611 32,600 152 480 640
2022-07-03 16:43:52 GMT 39.584484 -87.129150 32,575 152 481 640
2022-07-03 16:43:48 GMT 39.591606 -87.133911 32,575 152 481 640
2022-07-03 16:43:46 GMT 39.596355 -87.137024 32,500 152 480 576
2022-07-03 16:43:40 GMT 39.607433 -87.144409 32,500 152 479 576
2022-07-03 16:43:37 GMT 39.613129 -87.148209 32,475 152 479 576
2022-07-03 16:43:35 GMT 39.617340 -87.151016 32,450 152 479 576
2022-07-03 16:43:30 GMT 39.634251 -87.162354 32,325 152 478 960
2022-07-03 16:43:27 GMT 39.641327 -87.167053 32,275 152 478 1024
2022-07-03 16:43:20 GMT 39.647827 -87.171440 32,250 152 478 1088
2022-07-03 16:43:17 GMT 39.653103 -87.174927 32,200 152 478 1088
2022-07-03 16:43:15 GMT 39.657059 -87.177551 32,150 152 478 1024
2022-07-03 16:43:10 GMT 39.666046 -87.183556 32,050 152 478 1024
2022-07-03 16:43:07 GMT 39.672653 -87.187988 31,875 152 478 704
2022-07-03 16:43:04 GMT 39.678589 -87.191917 31,975 152 478 832
2022-07-03 16:43:00 GMT 39.694473 -87.202484 31,925 152 478 704
2022-07-03 16:42:57 GMT 39.694473 -87.202484 31,900 152 478 704
2022-07-03 16:42:54 GMT 39.698410 -87.205116 31,875 152 478 704
2022-07-03 16:42:51 GMT 39.712875 -87.214783 31,775 152 475 576
2022-07-03 16:42:47 GMT 39.718414 -87.218506 31,750 152 475 832
2022-07-03 16:42:44 GMT 39.718414 -87.218506 31,325 152 474 1088
2022-07-03 16:42:39 GMT 39.734436 -87.229179 31,700 152 475 832
2022-07-03 16:42:36 GMT 39.734436 -87.229179 31,650 152 474 768
2022-07-03 16:42:33 GMT 39.739456 -87.232544 31,625 152 474 768
2022-07-03 16:42:29 GMT 39.747276 -87.237793 31,550 152 474 960
2022-07-03 16:42:26 GMT 39.754761 -87.242790 31,500 152 474 960
2022-07-03 16:42:23 GMT 39.759056 -87.245728 31,475 152 474 960
2022-07-03 16:42:19 GMT 39.766830 -87.250916 31,400 152 474 960
2022-07-03 16:42:16 GMT 39.771790 -87.254257 31,375 152 474 1024
2022-07-03 16:42:13 GMT 39.779305 -87.259277 31,325 152 474 1024
2022-07-03 16:42:08 GMT 39.795601 -87.270142 31,225 152 474 1024
2022-07-03 16:42:05 GMT 39.795601 -87.270142 31,150 152 474 1024
2022-07-03 16:42:02 GMT 39.799210 -87.272583 31,150 152 474 960
2022-07-03 16:41:59 GMT 39.805435 -87.276764 31,075 152 474 960
2022-07-03 16:41:56 GMT 39.811893 -87.281128 31,050 152 472 896
2022-07-03 16:41:51 GMT 39.819805 -87.286499 30,750 152 471 1024
2022-07-03 16:41:48 GMT 39.827042 -87.291336 30,950 152 472 896
2022-07-03 16:41:45 GMT 39.831490 -87.294312 30,900 152 472 960
2022-07-03 16:41:42 GMT 39.840271 -87.300232 30,775 152 471 1024
2022-07-03 16:41:35 GMT 39.852486 -87.308411 30,675 152 471 768
2022-07-03 16:41:31 GMT 39.860073 -87.313538 30,675 152 471 832
2022-07-03 16:41:27 GMT 39.866821 -87.318024 30,650 152 470 640
2022-07-03 16:41:24 GMT 39.873386 -87.322449 30,600 152 470 704
2022-07-03 16:41:21 GMT 39.879959 -87.326859 30,550 152 470 640
2022-07-03 16:41:15 GMT 39.891125 -87.334412 30,475 152 469 832
2022-07-03 16:41:10 GMT 39.900604 -87.340828 30,375 152 467 1280
2022-07-03 16:41:07 GMT 39.906532 -87.344849 30,350 152 467 896
2022-07-03 16:41:04 GMT 39.912827 -87.349129 30,325 152 467 1024
2022-07-03 16:41:02 GMT 39.917103 -87.351990 30,250 152 467 1088
2022-07-03 16:40:59 GMT 39.919922 -87.353905 30,250 152 467 1152
2022-07-03 16:40:55 GMT 39.929764 -87.360596 30,150 152 467 1024
2022-07-03 16:40:50 GMT 39.939835 -87.367493 30,050 152 467 1216
2022-07-03 16:40:47 GMT 39.946148 -87.371834 29,825 152 467 1280
2022-07-03 16:40:44 GMT 39.950943 -87.375137 29,925 152 467 1344
2022-07-03 16:40:39 GMT 39.959370 -87.380882 29,850 152 467 1280
2022-07-03 16:40:36 GMT 39.965149 -87.384766 29,775 153 467 1344
2022-07-03 16:40:33 GMT 39.970917 -87.388565 29,700 153 467 1472
2022-07-03 16:40:30 GMT 39.974991 -87.391174 29,650 153 466 1408
2022-07-03 16:40:28 GMT 39.979843 -87.394226 29,600 154 467 1280
2022-07-03 16:40:24 GMT 39.989582 -87.400360 29,525 154 467 1024
2022-07-03 16:40:19 GMT 40.000076 -87.406982 29,400 154 466 896
2022-07-03 16:40:15 GMT 40.007858 -87.411865 29,375 154 465 896
2022-07-03 16:40:07 GMT 40.021423 -87.420464 29,275 154 465 768
2022-07-03 16:40:02 GMT 40.029556 -87.425537 29,225 154 464 768
2022-07-03 16:40:00 GMT 40.033806 -87.428200 29,200 154 463 640
2022-07-03 16:39:57 GMT 40.039764 -87.432007 29,175 154 462 704
2022-07-03 16:39:53 GMT 40.050201 -87.438599 29,100 154 461 704
2022-07-03 16:39:48 GMT 40.059586 -87.444519 29,025 154 460 896
2022-07-03 16:39:42 GMT 40.069519 -87.450806 28,950 154 460 1088
2022-07-03 16:39:37 GMT 40.079102 -87.456856 28,850 154 459 1152
2022-07-03 16:39:31 GMT 40.100517 -87.470337 28,650 154 459 1280
2022-07-03 16:39:26 GMT 40.100517 -87.470337 28,625 154 459 1280
2022-07-03 16:39:21 GMT 40.109688 -87.476143 28,525 154 459 1344
2022-07-03 16:39:16 GMT 40.118858 -87.481949 28,000 154 460 1344
2022-07-03 16:39:12 GMT 40.127842 -87.487686 28,300 154 460 1344
2022-07-03 16:39:07 GMT 40.136456 -87.493118 28,200 154 460 1344
2022-07-03 16:39:05 GMT 40.149124 -87.501160 28,125 154 460 1088
2022-07-03 16:39:00 GMT 40.149124 -87.501160 28,050 153 460 1216
2022-07-03 16:38:55 GMT 40.161346 -87.508911 27,925 153 460 1216
2022-07-03 16:38:51 GMT 40.169037 -87.513794 27,850 153 460 1216
2022-07-03 16:38:46 GMT 40.185745 -87.524414 27,750 154 460 1088
2022-07-03 16:38:42 GMT 40.185745 -87.524414 27,700 154 459 1024
2022-07-03 16:38:39 GMT 40.188950 -87.526428 27,650 154 459 1024
2022-07-03 16:38:34 GMT 40.198746 -87.532715 27,350 153 457 832
2022-07-03 16:38:29 GMT 40.209961 -87.539810 27,325 153 456 960
2022-07-03 16:38:26 GMT 40.220619 -87.546616 27,425 154 457 832
2022-07-03 16:38:23 GMT 40.220619 -87.546616 27,425 154 457 832
2022-07-03 16:38:18 GMT 40.236786 -87.556885 27,250 154 455 896
2022-07-03 16:38:14 GMT 40.246033 -87.562744 27,200 153 453 768
2022-07-03 16:38:10 GMT 40.258118 -87.570435 26,525 165 445 1152
2022-07-03 16:38:03 GMT 40.258118 -87.570435 27,050 155 450 1152
2022-07-03 16:37:59 GMT 40.265965 -87.575455 27,050 156 450 1216
2022-07-03 16:37:56 GMT 40.280952 -87.584755 26,950 156 450 1216
2022-07-03 16:37:52 GMT 40.280952 -87.584755 26,800 159 448 1152
2022-07-03 16:37:49 GMT 40.284531 -87.586792 26,825 158 449 1152
2022-07-03 16:37:44 GMT 40.294781 -87.592247 26,800 159 449 1152
2022-07-03 16:37:41 GMT 40.300690 -87.595093 26,750 160 448 1088
2022-07-03 16:37:37 GMT 40.309025 -87.598801 26,675 161 448 1088
2022-07-03 16:37:32 GMT 40.320148 -87.603111 26,550 164 446 1152
2022-07-03 16:37:27 GMT 40.327320 -87.605545 26,250 171 442 1216
2022-07-03 16:37:21 GMT 40.341248 -87.609436 26,350 169 443 1216
2022-07-03 16:37:18 GMT 40.347290 -87.610847 26,300 170 443 1216
2022-07-03 16:37:13 GMT 40.356369 -87.612595 26,050 174 441 1088
2022-07-03 16:37:10 GMT 40.362000 -87.613472 26,050 174 441 1088
2022-07-03 16:37:06 GMT 40.372192 -87.614868 26,075 174 441 1088
2022-07-03 16:37:03 GMT 40.378693 -87.615723 26,025 174 441 1024
2022-07-03 16:37:00 GMT 40.382767 -87.616272 25,975 174 440 1024
2022-07-03 16:36:57 GMT 40.389652 -87.617149 25,925 174 439 960
2022-07-03 16:36:54 GMT 40.396915 -87.618149 25,875 174 439 960
2022-07-03 16:36:50 GMT 40.405060 -87.619209 25,725 174 439 960
2022-07-03 16:36:45 GMT 40.419586 -87.621147 25,675 174 437 832
2022-07-03 16:36:39 GMT 40.425613 -87.621948 25,625 174 437 768
2022-07-03 16:36:35 GMT 40.433670 -87.622986 25,575 174 435 704
2022-07-03 16:36:32 GMT 40.438385 -87.623596 25,550 174 435 704
2022-07-03 16:36:29 GMT 40.453243 -87.625580 25,500 174 434 768
2022-07-03 16:36:26 GMT 40.453243 -87.625580 25,500 174 434 768
2022-07-03 16:36:22 GMT 40.461296 -87.626640 25,350 174 430 576
2022-07-03 16:36:19 GMT 40.465302 -87.627136 25,350 174 430 576
2022-07-03 16:36:16 GMT 40.471539 -87.627953 25,375 174 431 640
2022-07-03 16:36:13 GMT 40.477123 -87.628700 25,350 174 430 576
2022-07-03 16:36:09 GMT 40.485130 -87.629822 25,250 174 427 768
2022-07-03 16:36:05 GMT 40.494232 -87.631042 25,250 174 427 768
2022-07-03 16:36:02 GMT 40.498947 -87.631653 25,200 174 426 896
2022-07-03 16:35:59 GMT 40.505615 -87.632507 25,175 174 426 896
2022-07-03 16:35:53 GMT 40.516369 -87.633942 25,100 174 424 896
2022-07-03 16:35:49 GMT 40.524673 -87.635010 25,025 174 424 832
2022-07-03 16:35:46 GMT 40.531631 -87.635986 24,975 174 423 960
2022-07-03 16:35:43 GMT 40.538040 -87.636841 24,950 174 423 960
2022-07-03 16:35:39 GMT 40.550491 -87.638489 24,900 174 422 832
2022-07-03 16:35:36 GMT 40.550491 -87.638489 24,850 174 422 832
2022-07-03 16:35:33 GMT 40.554382 -87.638977 24,825 174 421 832
2022-07-03 16:35:29 GMT 40.563293 -87.640190 24,725 174 420 896
2022-07-03 16:35:26 GMT 40.576466 -87.641937 24,575 174 419 960
2022-07-03 16:35:23 GMT 40.576466 -87.641937 24,650 174 419 1024
2022-07-03 16:35:19 GMT 40.583038 -87.642822 24,600 174 419 960
2022-07-03 16:35:14 GMT 40.592285 -87.644043 24,525 174 418 960
2022-07-03 16:35:11 GMT 40.597137 -87.644684 24,500 174 418 896
2022-07-03 16:35:08 GMT 40.602676 -87.645370 24,450 174 415 768
2022-07-03 16:35:04 GMT 40.612289 -87.646667 24,375 174 417 960
2022-07-03 16:35:01 GMT 40.616135 -87.647217 24,350 174 416 832
2022-07-03 16:34:58 GMT 40.622269 -87.648010 24,275 174 415 768
2022-07-03 16:34:55 GMT 40.627998 -87.648804 24,275 174 415 768
2022-07-03 16:34:50 GMT 40.640198 -87.650421 24,175 174 413 768
2022-07-03 16:34:46 GMT 40.645889 -87.651184 24,125 174 412 704
2022-07-03 16:34:43 GMT 40.650467 -87.651794 23,750 174 406 896
2022-07-03 16:34:40 GMT 40.657196 -87.652649 24,075 174 411 768
2022-07-03 16:34:37 GMT 40.663754 -87.653542 24,000 174 410 832
2022-07-03 16:34:34 GMT 40.676556 -87.655228 23,750 174 406 896
2022-07-03 16:34:30 GMT 40.676556 -87.655228 23,900 174 408 832
2022-07-03 16:34:27 GMT 40.681458 -87.655884 23,875 174 408 896
2022-07-03 16:34:24 GMT 40.687454 -87.656677 23,875 174 408 896
2022-07-03 16:34:20 GMT 40.696472 -87.657898 23,775 174 406 896
2022-07-03 16:34:16 GMT 40.701321 -87.658539 23,750 174 406 896
2022-07-03 16:34:13 GMT 40.706535 -87.659225 23,700 174 404 960
2022-07-03 16:34:07 GMT 40.720734 -87.661163 23,575 174 404 960
2022-07-03 16:34:04 GMT 40.724457 -87.661659 23,500 174 403 1024
2022-07-03 16:33:56 GMT 40.744381 -87.664345 23,325 174 402 1088
2022-07-03 16:33:50 GMT 40.750431 -87.665154 23,300 174 402 1088
2022-07-03 16:33:45 GMT 40.758533 -87.666214 23,225 174 401 1024
2022-07-03 16:33:42 GMT 40.764305 -87.666969 23,175 174 401 960
2022-07-03 16:33:36 GMT 40.777222 -87.668701 23,050 174 400 1024
2022-07-03 16:33:31 GMT 40.784973 -87.669708 23,000 174 399 1024
2022-07-03 16:33:25 GMT 40.796799 -87.671333 22,875 174 398 1024
2022-07-03 16:33:23 GMT 40.801083 -87.671898 22,850 174 398 1024
2022-07-03 16:33:14 GMT 40.822632 -87.674744 22,650 174 397 1216
2022-07-03 16:33:11 GMT 40.822632 -87.674744 22,600 174 397 1216
2022-07-03 16:33:06 GMT 40.831154 -87.675896 22,525 174 397 1280
2022-07-03 16:33:02 GMT 40.837669 -87.676765 22,450 174 397 1280
2022-07-03 16:33:00 GMT 40.842186 -87.677391 22,400 174 397 1280
2022-07-03 16:32:57 GMT 40.848751 -87.678261 22,300 174 396 1344
2022-07-03 16:32:53 GMT 40.854858 -87.679077 22,225 174 397 1472
2022-07-03 16:32:50 GMT 40.860481 -87.679825 22,150 174 397 1536
2022-07-03 16:32:45 GMT 40.870331 -87.681152 22,025 174 397 1408
2022-07-03 16:32:42 GMT 40.876831 -87.682068 21,975 174 397 1280
2022-07-03 16:32:39 GMT 40.880219 -87.682510 21,875 174 397 1216
2022-07-03 16:32:35 GMT 40.888275 -87.683571 21,825 174 397 1088
2022-07-03 16:32:32 GMT 40.893906 -87.684319 21,775 174 396 1024
2022-07-03 16:32:29 GMT 40.898849 -87.684998 21,725 174 396 1024
2022-07-03 16:32:23 GMT 40.911549 -87.686691 21,475 174 392 1024
2022-07-03 16:32:20 GMT 40.914093 -87.687073 21,600 174 393 1024
2022-07-03 16:32:16 GMT 40.923386 -87.688293 21,500 174 390 1152
2022-07-03 16:32:11 GMT 40.938629 -87.690369 21,375 174 391 1152
2022-07-03 16:32:07 GMT 40.938629 -87.690369 20,900 174 389 1152
2022-07-03 16:32:04 GMT 40.946186 -87.691376 21,275 174 389 1152
2022-07-03 16:31:59 GMT 40.952179 -87.692200 21,225 174 389 1152
2022-07-03 16:31:56 GMT 40.960876 -87.693359 21,125 174 388 1152
2022-07-03 16:31:50 GMT 40.970531 -87.694618 21,025 174 387 1088
2022-07-03 16:31:45 GMT 40.977562 -87.695618 20,800 174 385 1152
2022-07-03 16:31:41 GMT 40.986221 -87.696739 20,875 174 385 1152
2022-07-03 16:31:38 GMT 40.990364 -87.697304 20,825 174 385 1152
2022-07-03 16:31:35 GMT 40.995850 -87.698059 20,700 174 383 1152
2022-07-03 16:31:31 GMT 41.004364 -87.699158 20,675 174 383 1152
2022-07-03 16:31:27 GMT 41.012100 -87.700256 20,575 174 383 1280
2022-07-03 16:31:24 GMT 41.015316 -87.700676 20,550 174 383 1408
2022-07-03 16:31:18 GMT 41.032654 -87.703003 20,200 174 383 1600
2022-07-03 16:31:14 GMT 41.032654 -87.703003 20,275 174 383 1536
2022-07-03 16:31:11 GMT 41.040390 -87.704041 20,175 174 383 1536
2022-07-03 16:31:08 GMT 41.042873 -87.704353 20,100 174 383 1600
2022-07-03 16:31:06 GMT 41.046753 -87.704895 20,075 174 383 1600
2022-07-03 16:31:03 GMT 41.051392 -87.705544 20,000 174 383 1600
2022-07-03 16:30:59 GMT 41.060211 -87.706726 19,875 174 383 1536
2022-07-03 16:30:56 GMT 41.064754 -87.707352 19,800 174 383 1536
2022-07-03 16:30:53 GMT 41.069782 -87.708038 19,750 174 383 1408
2022-07-03 16:30:49 GMT 41.078953 -87.709290 19,625 174 383 1344
2022-07-03 16:30:46 GMT 41.084244 -87.710022 19,600 174 383 1344
2022-07-03 16:30:43 GMT 41.088169 -87.710541 19,500 174 382 1280
2022-07-03 16:30:38 GMT 41.096500 -87.711662 19,400 174 382 1344
2022-07-03 16:30:35 GMT 41.101868 -87.712402 19,350 174 381 1408
2022-07-03 16:30:32 GMT 41.106125 -87.712952 19,275 174 381 1536
2022-07-03 16:30:29 GMT 41.111397 -87.713661 19,200 174 381 1600
2022-07-03 16:30:26 GMT 41.118073 -87.714600 19,100 174 381 1664
2022-07-03 16:30:22 GMT 41.124714 -87.715469 19,000 174 381 1600
2022-07-03 16:30:17 GMT 41.136932 -87.717163 18,800 174 382 1600
2022-07-03 16:30:14 GMT 41.143055 -87.717964 18,650 174 381 1472
2022-07-03 16:30:11 GMT 41.143055 -87.717964 18,725 174 382 1536
2022-07-03 16:30:08 GMT 41.151169 -87.719055 18,550 174 381 1408
2022-07-03 16:30:04 GMT 41.156460 -87.719772 18,550 173 382 1344
2022-07-03 16:30:01 GMT 41.161697 -87.720520 18,475 174 381 1344
2022-07-03 16:29:57 GMT 41.168655 -87.721497 18,350 174 379 1344
2022-07-03 16:29:54 GMT 41.173874 -87.722145 18,325 174 379 1280
2022-07-03 16:29:51 GMT 41.179596 -87.722832 18,250 175 378 1280
2022-07-03 16:29:48 GMT 41.186535 -87.723518 18,175 175 377 1152
2022-07-03 16:29:44 GMT 41.192505 -87.724060 18,125 176 376 1088
2022-07-03 16:29:40 GMT 41.198311 -87.724518 16,675 181 356 1408
2022-07-03 16:29:37 GMT 41.205250 -87.725021 17,975 177 373 1280
2022-07-03 16:29:33 GMT 41.211868 -87.725342 17,900 178 372 1472
2022-07-03 16:29:29 GMT 41.216583 -87.725525 17,825 178 372 1536
2022-07-03 16:29:26 GMT 41.222900 -87.725708 17,700 179 371 1344
2022-07-03 16:29:23 GMT 41.226929 -87.725769 17,675 179 371 1344
2022-07-03 16:29:19 GMT 41.233841 -87.725830 17,450 181 368 1152
2022-07-03 16:29:16 GMT 41.240799 -87.725769 17,125 181 368 1152
2022-07-03 16:29:12 GMT 41.248589 -87.725769 17,425 181 367 1152
2022-07-03 16:29:08 GMT 41.253571 -87.725708 17,375 181 366 1152
2022-07-03 16:29:05 GMT 41.258469 -87.725647 17,325 181 365 1216
2022-07-03 16:29:02 GMT 41.263577 -87.725639 17,250 181 364 1216
2022-07-03 16:28:58 GMT 41.275822 -87.725578 17,175 181 363 1216
2022-07-03 16:28:55 GMT 41.275822 -87.725578 17,075 181 362 1216
2022-07-03 16:28:52 GMT 41.280853 -87.725586 17,050 181 361 1280
2022-07-03 16:28:50 GMT 41.284527 -87.725578 16,925 181 359 1216
2022-07-03 16:28:47 GMT 41.287876 -87.725517 16,975 181 359 1216
2022-07-03 16:28:43 GMT 41.297096 -87.725456 16,850 181 357 1408
2022-07-03 16:28:40 GMT 41.300495 -87.725456 16,800 181 357 1408
2022-07-03 16:28:37 GMT 41.305149 -87.725456 16,600 181 354 1344
2022-07-03 16:28:33 GMT 41.313309 -87.725342 16,625 181 354 1344
2022-07-03 16:28:30 GMT 41.318230 -87.725334 16,550 181 353 1344
2022-07-03 16:28:27 GMT 41.321583 -87.725334 16,500 181 352 1472
2022-07-03 16:28:22 GMT 41.329403 -87.725266 16,250 181 350 1792
2022-07-03 16:28:19 GMT 41.334618 -87.725266 16,300 181 351 1728
2022-07-03 16:28:16 GMT 41.338852 -87.725220 16,225 181 350 1792
2022-07-03 16:28:13 GMT 41.344345 -87.725204 16,050 181 350 1792
2022-07-03 16:28:10 GMT 41.350071 -87.725143 16,025 181 349 1792
2022-07-03 16:28:07 GMT 41.355652 -87.725159 15,900 181 349 1856
2022-07-03 16:28:02 GMT 41.363758 -87.725082 15,725 181 349 1984
2022-07-03 16:27:59 GMT 41.366924 -87.725082 15,675 181 349 2048
2022-07-03 16:27:56 GMT 41.371624 -87.725021 15,575 181 349 2112
2022-07-03 16:27:53 GMT 41.384171 -87.724976 15,400 181 349 2240
2022-07-03 16:27:49 GMT 41.384171 -87.724976 15,300 181 349 2176
2022-07-03 16:27:47 GMT 41.391735 -87.724998 15,200 179 350 2176
2022-07-03 16:27:43 GMT 41.391735 -87.724998 15,125 178 350 2240
2022-07-03 16:27:40 GMT 41.400814 -87.725510 14,900 176 351 2304
2022-07-03 16:27:35 GMT 41.404953 -87.725891 14,825 175 352 2368
2022-07-03 16:27:31 GMT 41.413513 -87.727013 14,600 173 354 2368
2022-07-03 16:27:28 GMT 41.418137 -87.727829 14,500 171 354 2368
2022-07-03 16:27:26 GMT 41.421249 -87.728455 14,425 170 355 2304
2022-07-03 16:27:23 GMT 41.425369 -87.729385 14,325 169 357 2240
2022-07-03 16:27:20 GMT 41.430588 -87.730698 14,150 166 357 2176
2022-07-03 16:27:17 GMT 41.435165 -87.732010 14,075 166 358 2176
2022-07-03 16:27:12 GMT 41.444527 -87.735222 13,925 163 358 2048
2022-07-03 16:27:08 GMT 41.449310 -87.737068 13,750 163 358 2048
2022-07-03 16:27:05 GMT 41.453796 -87.738876 13,725 162 358 1984
2022-07-03 16:27:01 GMT 41.461990 -87.742188 13,525 163 357 1792
2022-07-03 16:26:58 GMT 41.470139 -87.745491 13,325 163 356 1920
2022-07-03 16:26:55 GMT 41.470139 -87.745491 13,400 163 356 1856
2022-07-03 16:26:50 GMT 41.482655 -87.750549 13,175 162 355 1920
2022-07-03 16:26:47 GMT 41.482655 -87.750549 13,100 163 354 1856
2022-07-03 16:26:44 GMT 41.486618 -87.752174 13,075 163 354 1856
2022-07-03 16:26:41 GMT 41.493313 -87.754890 12,950 163 353 1600
2022-07-03 16:26:38 GMT 41.498474 -87.756981 12,825 162 351 1472
2022-07-03 16:26:35 GMT 41.502365 -87.758537 12,800 162 351 1408
2022-07-03 16:26:28 GMT 41.512253 -87.762596 12,675 162 347 1472
2022-07-03 16:26:24 GMT 41.518387 -87.765091 12,550 162 345 1728
2022-07-03 16:26:18 GMT 41.528042 -87.769012 12,350 163 342 2048
2022-07-03 16:26:14 GMT 41.534454 -87.771645 12,200 163 342 2176
2022-07-03 16:26:09 GMT 41.542145 -87.774757 11,975 163 342 2176
2022-07-03 16:26:06 GMT 41.548244 -87.777252 11,675 162 341 2240
2022-07-03 16:26:03 GMT 41.550106 -87.778015 11,825 163 342 2176
2022-07-03 16:25:59 GMT 41.556427 -87.780571 11,625 162 341 2240
2022-07-03 16:25:56 GMT 41.562698 -87.783134 11,500 162 341 2240
2022-07-03 16:25:53 GMT 41.566315 -87.784569 11,425 162 341 2240
2022-07-03 16:25:47 GMT 41.576111 -87.788567 11,200 162 341 2240
2022-07-03 16:25:43 GMT 41.581390 -87.790726 11,075 162 341 2176
2022-07-03 16:25:37 GMT 41.590210 -87.794304 10,825 162 340 1920
2022-07-03 16:25:34 GMT 41.594467 -87.796059 10,775 162 340 1856
2022-07-03 16:25:31 GMT 41.597351 -87.797241 10,725 163 338 1792
2022-07-03 16:25:28 GMT 41.604675 -87.800240 10,600 163 335 1536
2022-07-03 16:25:25 GMT 41.607697 -87.801483 10,500 162 333 1280
2022-07-03 16:25:22 GMT 41.612961 -87.803612 10,475 163 332 1216
2022-07-03 16:25:17 GMT 41.620102 -87.806541 10,375 163 327 704
2022-07-03 16:25:14 GMT 41.624542 -87.808357 10,350 162 324 576
2022-07-03 16:25:10 GMT 41.628342 -87.809853 10,350 163 322 448
2022-07-03 16:25:07 GMT 41.639511 -87.814407 10,300 163 314 512
2022-07-03 16:25:04 GMT 41.639511 -87.814407 10,250 162 309 832
2022-07-03 16:25:01 GMT 41.642899 -87.815842 10,250 162 307 896
2022-07-03 16:24:58 GMT 41.646790 -87.817406 10,150 162 304 1536
2022-07-03 16:24:55 GMT 41.654663 -87.820618 9,825 163 301 2432
2022-07-03 16:24:52 GMT 41.654663 -87.820618 10,000 163 301 2368
2022-07-03 16:24:49 GMT 41.657547 -87.821838 9,900 163 301 2496
2022-07-03 16:24:46 GMT 41.663742 -87.824326 9,700 163 299 2624
2022-07-03 16:24:43 GMT 41.667606 -87.825859 9,550 163 299 2496
2022-07-03 16:24:40 GMT 41.671005 -87.827263 9,475 163 299 2496
2022-07-03 16:24:35 GMT 41.677048 -87.829636 9,250 163 298 2496
2022-07-03 16:24:32 GMT 41.682129 -87.831734 9,075 162 298 2432
2022-07-03 16:24:29 GMT 41.686157 -87.833382 9,025 162 298 2496
2022-07-03 16:24:26 GMT 41.690090 -87.834991 8,800 162 298 2432
2022-07-03 16:24:23 GMT 41.693859 -87.836655 8,800 161 296 1984
2022-07-03 16:24:19 GMT 41.698975 -87.838875 8,650 161 295 1920
2022-07-03 16:24:14 GMT 41.705078 -87.841438 8,500 163 292 2048
2022-07-03 16:24:10 GMT 41.709000 -87.843056 8,350 164 290 2368
2022-07-03 16:24:07 GMT 41.714767 -87.845245 8,225 164 289 2368
2022-07-03 16:24:03 GMT 41.718719 -87.846741 8,050 164 289 2432
2022-07-03 16:24:00 GMT 41.722595 -87.848175 7,925 163 288 2432
2022-07-03 16:23:57 GMT 41.725983 -87.849487 7,875 163 287 2432
2022-07-03 16:23:55 GMT 41.729919 -87.851051 7,750 163 287 2432
2022-07-03 16:23:52 GMT 41.733707 -87.852623 7,650 162 286 2368
2022-07-03 16:23:49 GMT 41.736099 -87.853607 7,525 148 274 2368
2022-07-03 16:23:46 GMT 41.740723 -87.855545 7,475 162 285 2368
2022-07-03 16:23:42 GMT 41.745300 -87.857605 7,100 159 282 2624
2022-07-03 16:23:39 GMT 41.750050 -87.859772 7,100 159 283 2688
2022-07-03 16:23:35 GMT 41.756489 -87.855621 5,700 144 287 1920
2022-07-03 16:23:34 GMT 41.757561 -87.856659 5,700 144 287 1920
2022-07-03 16:23:32 GMT 41.759720 -87.858742 5,700 144 287 1920
2022-07-03 16:23:30 GMT 41.761871 -87.860817 5,700 144 287 1920
2022-07-03 16:23:29 GMT 41.762939 -87.861870 5,700 144 287 1920
2022-07-03 16:23:28 GMT 41.764019 -87.862907 5,700 144 287 1920
2022-07-03 16:23:26 GMT 41.766171 -87.864990 5,700 144 287 1920
2022-07-03 16:23:25 GMT 41.767250 -87.866028 5,700 144 287 1920
2022-07-03 16:23:23 GMT 41.769402 -87.868118 5,700 144 287 1920
2022-07-03 16:23:22 GMT 41.771561 -87.870201 5,700 144 287 1920
2022-07-03 16:23:20 GMT 41.772629 -87.871239 5,700 144 287 1920
2022-07-03 16:23:19 GMT 41.773708 -87.872276 5,700 144 287 1920
2022-07-03 16:23:17 GMT 41.775860 -87.874367 5,700 144 287 1920
2022-07-03 16:23:16 GMT 41.776939 -87.875412 5,700 144 287 1920
2022-07-03 16:23:14 GMT 41.779091 -87.877487 5,700 144 287 1920
2022-07-03 16:23:13 GMT 41.780170 -87.878540 5,700 144 287 1920
2022-07-03 16:23:11 GMT 41.782318 -87.880623 5,700 144 287 1920
2022-07-03 16:23:10 GMT 41.783401 -87.881660 5,700 144 287 1920
2022-07-03 16:23:08 GMT 41.785549 -87.883751 5,700 144 287 1920
2022-07-03 16:23:06 GMT 41.787701 -87.885834 5,700 144 287 1920
2022-07-03 16:23:05 GMT 41.788780 -87.886879 5,700 144 287 1920
2022-07-03 16:23:03 GMT 41.791149 -87.888298 5,500 143 283 1920
2022-07-03 16:23:02 GMT 41.792191 -87.889359 5,500 143 283 1920
2022-07-03 16:23:01 GMT 41.794281 -87.891479 5,500 143 283 608
2022-07-03 16:22:59 GMT 41.796429 -87.893478 5,300 146 276 608
2022-07-03 16:22:56 GMT 41.798512 -87.895470 5,300 146 276 608
2022-07-03 16:22:55 GMT 41.799671 -87.896973 5,200 151 264 608
2022-07-03 16:22:53 GMT 41.801739 -87.898689 5,200 151 264 608
2022-07-03 16:22:52 GMT 41.803810 -87.900414 5,200 151 264 608
2022-07-03 16:22:50 GMT 41.804569 -87.902237 4,900 159 259 608
2022-07-03 16:22:48 GMT 41.806751 -87.903580 4,900 159 259 608
2022-07-03 16:22:47 GMT 41.807838 -87.904251 4,900 159 259 608
2022-07-03 16:22:46 GMT 41.809799 -87.907440 4,900 169 252 608
2022-07-03 16:22:44 GMT 41.810928 -87.907829 4,900 169 252 608
2022-07-03 16:22:42 GMT 41.813190 -87.908600 4,900 169 252 608
2022-07-03 16:22:41 GMT 41.815449 -87.911400 4,800 177 247 608
2022-07-03 16:22:38 GMT 41.817730 -87.911591 4,800 177 247 608
2022-07-03 16:22:37 GMT 41.820030 -87.912521 4,600 178 247 608
2022-07-03 16:22:34 GMT 41.822311 -87.912621 4,600 178 247 608
2022-07-03 16:22:33 GMT 41.823460 -87.912666 4,600 178 247 608
2022-07-03 16:22:32 GMT 41.824451 -87.913239 4,500 179 251 608
2022-07-03 16:22:31 GMT 41.825611 -87.913254 4,500 179 251 608
2022-07-03 16:22:30 GMT 41.827942 -87.913269 4,500 179 251 608
2022-07-03 16:22:28 GMT 41.829102 -87.913277 4,500 179 251 608
2022-07-03 16:22:27 GMT 41.830250 -87.913277 4,300 178 249 608
2022-07-03 16:22:25 GMT 41.832550 -87.913322 4,300 178 249 608
2022-07-03 16:22:24 GMT 41.833698 -87.913330 4,300 178 249 608
2022-07-03 16:22:22 GMT 41.836029 -87.913162 4,300 178 244 608
2022-07-03 16:22:21 GMT 41.837151 -87.913208 4,300 178 244 608
2022-07-03 16:22:19 GMT 41.839409 -87.913300 4,300 178 244 608
2022-07-03 16:22:18 GMT 41.840679 -87.913269 4,200 177 237 608
2022-07-03 16:22:17 GMT 41.843060 -87.913429 4,100 178 228 608
2022-07-03 16:22:14 GMT 41.845169 -87.913513 4,100 178 228 608
2022-07-03 16:22:13 GMT 41.846340 -87.913513 4,000 178 225 608
2022-07-03 16:22:11 GMT 41.848591 -87.913689 3,900 178 220 608
2022-07-03 16:22:10 GMT 41.849609 -87.913727 3,900 178 220 608
2022-07-03 16:22:09 GMT 41.851799 -87.913803 3,700 178 216 608
2022-07-03 16:22:08 GMT 41.852718 -87.913986 3,700 178 216 608
2022-07-03 16:22:06 GMT 41.854729 -87.914040 3,700 178 216 608
2022-07-03 16:22:04 GMT 41.855831 -87.914001 3,600 178 215 608
2022-07-03 16:22:03 GMT 41.857658 -87.914108 3,500 178 222 -96
2022-07-03 16:22:01 GMT 41.859718 -87.914169 3,500 178 222 -96
2022-07-03 16:21:59 GMT 41.861729 -87.914230 3,500 178 227 96
2022-07-03 16:21:57 GMT 41.862782 -87.914238 3,500 178 225 96
2022-07-03 16:21:55 GMT 41.864849 -87.914307 3,400 178 224 96
2022-07-03 16:21:53 GMT 41.866940 -87.914360 3,400 177 222 96
2022-07-03 16:21:51 GMT 41.868999 -87.914459 3,400 177 219 96
2022-07-03 16:21:50 GMT 41.870029 -87.914490 3,300 177 217 96
2022-07-03 16:21:48 GMT 41.872009 -87.914581 3,200 177 218 96
2022-07-03 16:21:47 GMT 41.873039 -87.914658 3,200 177 215 96
2022-07-03 16:21:45 GMT 41.875069 -87.914780 3,200 177 210 96
2022-07-03 16:21:44 GMT 41.877048 -87.914909 3,200 177 206 96
2022-07-03 16:21:43 GMT 41.877998 -87.914993 3,200 177 207 96
2022-07-03 16:21:40 GMT 41.879871 -87.915108 3,100 177 210 96
2022-07-03 16:21:39 GMT 41.880840 -87.915169 3,100 177 209 96
2022-07-03 16:21:38 GMT 41.881828 -87.915207 3,100 177 205 96
2022-07-03 16:21:36 GMT 41.883709 -87.915298 3,100 176 204 96
2022-07-03 16:21:35 GMT 41.884682 -87.915367 3,100 177 201 96
2022-07-03 16:21:34 GMT 41.886539 -87.915512 3,100 177 198 96
2022-07-03 16:21:32 GMT 41.888359 -87.915627 3,000 177 195 96
2022-07-03 16:21:30 GMT 41.889221 -87.915680 3,000 177 196 96
2022-07-03 16:21:28 GMT 41.891102 -87.915810 3,000 177 185 0
2022-07-03 16:21:27 GMT 41.891960 -87.915840 3,000 177 186 0
2022-07-03 16:21:25 GMT 41.893669 -87.915939 3,000 177 184 0
2022-07-03 16:21:24 GMT 41.894501 -87.916008 3,000 177 184 0
2022-07-03 16:21:22 GMT 41.896210 -87.916107 3,000 177 179 1376
2022-07-03 16:21:21 GMT 41.897072 -87.916153 3,000 177 175 1376
2022-07-03 16:21:20 GMT 41.898739 -87.916283 3,000 177 171 1376
2022-07-03 16:21:18 GMT 41.900421 -87.916351 2,900 177 162 1376
2022-07-03 16:21:16 GMT 41.901089 -87.916428 2,900 178 169 1376
2022-07-03 16:21:15 GMT 41.902699 -87.916481 2,900 177 165 1376
2022-07-03 16:21:13 GMT 41.903431 -87.916527 2,850 177 169 1376
2022-07-03 16:21:11 GMT 41.904961 -87.916649 2,700 178 170 1376
2022-07-03 16:21:10 GMT 41.906570 -87.916718 2,700 178 165 1376
2022-07-03 16:21:08 GMT 41.907299 -87.916763 2,700 178 168 1376
2022-07-03 16:21:07 GMT 41.908871 -87.916817 2,625 178 167 1376
2022-07-03 16:21:05 GMT 41.909672 -87.916832 2,600 177 165 1376
2022-07-03 16:21:04 GMT 41.911152 -87.916901 2,525 177 170 1376
2022-07-03 16:21:02 GMT 41.911919 -87.916946 2,425 177 171 1376
2022-07-03 16:21:01 GMT 41.913490 -87.917053 2,425 178 172 2944
2022-07-03 16:20:59 GMT 41.914322 -87.917061 2,400 178 169 2944
2022-07-03 16:20:58 GMT 41.915878 -87.917107 2,350 177 168 2944
2022-07-03 16:20:56 GMT 41.916641 -87.917091 2,300 175 170 2944
2022-07-03 16:20:54 GMT 41.918240 -87.917297 2,300 177 164 2944
2022-07-03 16:20:52 GMT 41.919788 -87.917427 2,300 179 162 2944
2022-07-03 16:20:51 GMT 41.921291 -87.917458 2,200 178 162 2944
2022-07-03 16:20:49 GMT 41.922020 -87.917488 2,200 178 164 2944
2022-07-03 16:20:47 GMT 41.923538 -87.917503 2,200 178 163 2944
2022-07-03 16:20:46 GMT 41.924309 -87.917511 2,200 177 161 2944
2022-07-03 16:20:44 GMT 41.925819 -87.917572 2,100 178 157 2944
2022-07-03 16:20:43 GMT 41.927299 -87.917587 2,100 177 153 2944
2022-07-03 16:20:40 GMT 41.928741 -87.917587 2,100 177 150 2944
2022-07-03 16:20:39 GMT 41.929420 -87.917610 2,000 177 151 2944
2022-07-03 16:20:37 GMT 41.930809 -87.917641 2,000 178 151 2944
2022-07-03 16:20:36 GMT 41.932171 -87.917618 1,900 181 150 2944
2022-07-03 16:20:34 GMT 41.932831 -87.917648 1,900 184 151 2944
2022-07-03 16:20:32 GMT 41.934189 -87.917549 1,800 190 151 2944
2022-07-03 16:20:31 GMT 41.935532 -87.917252 1,800 195 151 2944
2022-07-03 16:20:29 GMT 41.936192 -87.917068 1,700 198 151 2944
2022-07-03 16:20:28 GMT 41.936909 -87.916771 1,700 200 146 2944
2022-07-03 16:20:26 GMT 41.938171 -87.916237 1,700 208 147 2944
2022-07-03 16:20:24 GMT 41.939442 -87.915367 1,500 212 141 2944
2022-07-03 16:20:22 GMT 41.940521 -87.914528 1,500 216 146 2944
2022-07-03 16:20:21 GMT 41.941620 -87.913521 1,500 220 149 2944
2022-07-03 16:20:19 GMT 41.942322 -87.912903 1,500 224 133 2944
2022-07-03 16:20:17 GMT 41.943150 -87.911812 1,475 223 143 2944
2022-07-03 16:20:16 GMT 41.943642 -87.911186 1,400 222 143 2944
2022-07-03 16:20:15 GMT 41.944649 -87.909958 1,400 223 135 2944
2022-07-03 16:20:13 GMT 41.945049 -87.909401 1,350 222 139 2944
2022-07-03 16:20:12 GMT 41.945511 -87.908791 1,350 220 139 2944
2022-07-03 16:20:11 GMT 41.946480 -87.907631 1,300 220 142 2944
2022-07-03 16:20:09 GMT 41.947029 -87.907059 1,300 223 136 2944
2022-07-03 16:20:07 GMT 41.947910 -87.905922 1,200 222 140 2944
2022-07-03 16:20:06 GMT 41.948391 -87.905319 1,150 221 138 2944
2022-07-03 16:20:04 GMT 41.949409 -87.904182 1,100 222 139 2944
2022-07-03 16:20:02 GMT 41.950359 -87.903030 975 222 140 2944
2022-07-03 16:20:00 GMT 41.951302 -87.901833 950 220 141 32
2022-07-03 16:19:59 GMT 41.951778 -87.901260 775 220 142 32
2022-07-03 16:19:58 GMT 41.952801 -87.900108 775 222 145 32
2022-07-03 16:19:55 GMT 41.953789 -87.898933 700 221 147 32
2022-07-03 16:19:53 GMT 41.954811 -87.897690 650 221 144 32
2022-07-03 16:19:52 GMT 41.955299 -87.897141 575 221 150 32
2022-07-03 16:19:50 GMT 41.956341 -87.895866 500 221 151 32
2022-07-03 16:19:49 GMT 41.956848 -87.895271 500 221 154 32
2022-07-03 16:19:47 GMT 41.957901 -87.894043 450 221 154 32
2022-07-03 16:19:46 GMT 41.958439 -87.893387 450 221 151 -256
2022-07-03 16:19:44 GMT 41.959469 -87.892181 450 221 148 -32
2022-07-03 16:19:43 GMT 41.959991 -87.891563 450 221 144 -32
2022-07-03 16:19:42 GMT 41.960979 -87.890381 450 221 138 -96
2022-07-03 16:19:40 GMT 41.961491 -87.889816 450 222 134 -96
2022-07-03 16:19:39 GMT 41.961941 -87.889267 450 222 131 -96
2022-07-03 16:19:37 GMT 41.962830 -87.888191 450 221 125 -96
2022-07-03 16:19:36 GMT 41.963680 -87.887138 500 220 118 96
2022-07-03 16:19:34 GMT 41.964081 -87.886650 450 220 114 -32
2022-07-03 16:19:32 GMT 41.964909 -87.885742 450 221 104 -32
2022-07-03 16:19:31 GMT 41.965248 -87.885323 450 221 103 0
2022-07-03 16:19:29 GMT 41.965981 -87.884499 450 223 93 0
2022-07-03 16:19:28 GMT 41.966591 -87.883713 450 221 86 0
2022-07-03 16:19:26 GMT 41.966888 -87.883369 450 221 82 128
2022-07-03 16:19:25 GMT 41.967171 -87.883049 450 222 79 -128
2022-07-03 16:19:23 GMT 41.967701 -87.882393 450 221 69 -128
2022-07-03 16:19:21 GMT 41.968159 -87.881844 0 220 59 -128
2022-07-03 16:19:19 GMT 41.968601 -87.881371 0 222 45
2022-07-03 16:19:18 GMT 41.968761 -87.881157 0 221 41
2022-07-03 16:19:16 GMT 41.969090 -87.880791 0 224 27
2022-07-03 16:19:15 GMT 41.969219 -87.880638 0 224 21
2022-07-03 16:19:13 GMT 41.969391 -87.880417 0 224 15
2022-07-03 16:19:11 GMT 41.969490 -87.880272 0 218 10
2022-07-03 16:19:10 GMT 41.969559 -87.880203 0 224 9
2022-07-03 16:19:08 GMT 41.969589 -87.880180 0 226 11
2022-07-03 16:19:07 GMT 41.969620 -87.880127 0 224 10
2022-07-03 16:19:05 GMT 41.969688 -87.880058 0 213 8
2022-07-03 16:19:03 GMT 41.969761 -87.879967 0 184 5
2022-07-03 16:19:02 GMT 41.969799 -87.879936 0 154 6
2022-07-03 16:19:01 GMT 41.969841 -87.879929 0 129 6
2022-07-03 16:18:59 GMT 41.969891 -87.879921 0 117 7
2022-07-03 16:18:57 GMT 41.969910 -87.879982 0 125 11
2022-07-03 16:18:55 GMT 41.969940 -87.880096 0 150 13
2022-07-03 16:18:53 GMT 41.970032 -87.880188 0 157 12
2022-07-03 16:18:52 GMT 41.970070 -87.880249 0 166 12
2022-07-03 16:18:50 GMT 41.970188 -87.880302 0 177 12
2022-07-03 16:18:49 GMT 41.970219 -87.880333 0 182 14
2022-07-03 16:18:47 GMT 41.970379 -87.880310 0 179 11
2022-07-03 16:18:45 GMT 41.970482 -87.880310 0 179 14
2022-07-03 16:18:44 GMT 41.970612 -87.880318 0 178 14
2022-07-03 16:18:42 GMT 41.970741 -87.880318 0 178 12
2022-07-03 16:18:40 GMT 41.970791 -87.880333 0 181 12
2022-07-03 16:18:39 GMT 41.970890 -87.880341 0 181 14
2022-07-03 16:18:36 GMT 41.971020 -87.880318 0 179 14
2022-07-03 16:18:35 GMT 41.971088 -87.880348 0 184 13
2022-07-03 16:18:33 GMT 41.971210 -87.880341 0 179 13
2022-07-03 16:18:32 GMT 41.971260 -87.880318 0 171 13
2022-07-03 16:18:30 GMT 41.971371 -87.880310 0 158 13
2022-07-03 16:18:29 GMT 41.971420 -87.880341 0 150 14
2022-07-03 16:18:27 GMT 41.971539 -87.880386 0 129 12
2022-07-03 16:18:25 GMT 41.971630 -87.880501 0 111 9
2022-07-03 16:18:24 GMT 41.971680 -87.880600 0 106 8
2022-07-03 16:18:22 GMT 41.971699 -87.880638 0 103 10
2022-07-03 16:18:19 GMT 41.971741 -87.880814 0 93 9
2022-07-03 16:18:17 GMT 41.971748 -87.880898 0 91 11
2022-07-03 16:18:16 GMT 41.971760 -87.880920 0 86 15
2022-07-03 16:18:14 GMT 41.971748 -87.881081 0 87 18
2022-07-03 16:18:13 GMT 41.971741 -87.881302 0 88 18
2022-07-03 16:18:11 GMT 41.971741 -87.881432 0 87 17
2022-07-03 16:18:09 GMT 41.971722 -87.881638 0 94 16
2022-07-03 16:18:08 GMT 41.971741 -87.881737 0 88 16
2022-07-03 16:18:06 GMT 41.971748 -87.881943 0 84 17
2022-07-03 16:18:05 GMT 41.971729 -87.882050 0 87 16
2022-07-03 16:18:03 GMT 41.971722 -87.882271 0 89 15
2022-07-03 16:18:01 GMT 41.971729 -87.882469 0 87 14
2022-07-03 16:18:00 GMT 41.971722 -87.882530 0 88 16
2022-07-03 16:17:59 GMT 41.971729 -87.882652 0 84 13
2022-07-03 16:17:58 GMT 41.971722 -87.882698 0 87 15
2022-07-03 16:17:56 GMT 41.971699 -87.882889 0 94 14
2022-07-03 16:17:55 GMT 41.971699 -87.883057 0 95 16
2022-07-03 16:17:53 GMT 41.971741 -87.883278 0 85 13
2022-07-03 16:17:51 GMT 41.971729 -87.883362 0 83 12
2022-07-03 16:17:50 GMT 41.971722 -87.883507 0 85 12
2022-07-03 16:17:47 GMT 41.971691 -87.883652 0 94 12
2022-07-03 16:17:46 GMT 41.971699 -87.883720 0 89 11
2022-07-03 16:17:44 GMT 41.971699 -87.883858 0 92 11
2022-07-03 16:17:43 GMT 41.971691 -87.883926 0 96 10
2022-07-03 16:17:41 GMT 41.971699 -87.884041 0 94 11
2022-07-03 16:17:40 GMT 41.971722 -87.884178 0 96 11
2022-07-03 16:17:38 GMT 41.971699 -87.884262 0 111 10
2022-07-03 16:17:37 GMT 41.971722 -87.884361 0 110 10
2022-07-03 16:17:35 GMT 41.971741 -87.884422 0 115 10
2022-07-03 16:17:33 GMT 41.971741 -87.884537 0 127 12
2022-07-03 16:17:31 GMT 41.971828 -87.884659 0 115 10
2022-07-03 16:17:30 GMT 41.971882 -87.884758 0 108 11
2022-07-03 16:17:28 GMT 41.971901 -87.884811 0 98 12
2022-07-03 16:17:27 GMT 41.971931 -87.884903 0 96 10
2022-07-03 16:17:25 GMT 41.971931 -87.885033 0 101 11
2022-07-03 16:17:24 GMT 41.971931 -87.885071 0 99 13
2022-07-03 16:17:22 GMT 41.971989 -87.885231 0 83 14
2022-07-03 16:17:21 GMT 41.971958 -87.885399 0 90 13
2022-07-03 16:17:19 GMT 41.971970 -87.885468 0 87 14
2022-07-03 16:17:17 GMT 41.971951 -87.885612 0 92 15
2022-07-03 16:17:16 GMT 41.971939 -87.885773 0 95 17
2022-07-03 16:17:14 GMT 41.971951 -87.885872 0 94 17
2022-07-03 16:17:13 GMT 41.971989 -87.886032 0 83 23
2022-07-03 16:17:11 GMT 41.971981 -87.886208 0 83 20
2022-07-03 16:17:09 GMT 41.971939 -87.886459 0 90 20
2022-07-03 16:17:08 GMT 41.971939 -87.886703 0 91 18
2022-07-03 16:17:06 GMT 41.971931 -87.886780 0 94 20
2022-07-03 16:17:05 GMT 41.971951 -87.887047 0 96 18
2022-07-03 16:17:03 GMT 41.971958 -87.887154 0 96 20
2022-07-03 16:17:01 GMT 41.971989 -87.887421 0 89 16
2022-07-03 16:17:00 GMT 41.971989 -87.887512 0 88 18
2022-07-03 16:16:58 GMT 41.971989 -87.887741 0 87 18
2022-07-03 16:16:57 GMT 41.971970 -87.887970 0 89 16
2022-07-03 16:16:55 GMT 41.971970 -87.888062 0 91 18
2022-07-03 16:16:53 GMT 41.971981 -87.888290 0 86 17
2022-07-03 16:16:52 GMT 41.971970 -87.888420 0 84 14
2022-07-03 16:16:51 GMT 41.971951 -87.888573 0 88 17
2022-07-03 16:16:49 GMT 41.971951 -87.888672 0 87 17
2022-07-03 16:16:47 GMT 41.971931 -87.888893 0 96 15
2022-07-03 16:16:46 GMT 41.971958 -87.888977 0 90 17
2022-07-03 16:16:44 GMT 41.971958 -87.889168 0 92 20
2022-07-03 16:16:42 GMT 41.971981 -87.889412 0 84 19
2022-07-03 16:16:41 GMT 41.971970 -87.889526 0 86 19
2022-07-03 16:16:39 GMT 41.971958 -87.889771 0 84 18
2022-07-03 16:16:38 GMT 41.971958 -87.889893 0 83 18
2022-07-03 16:16:36 GMT 41.971931 -87.890121 0 88 15
2022-07-03 16:16:35 GMT 41.971931 -87.890221 0 89 15
2022-07-03 16:16:34 GMT 41.971920 -87.890373 0 94 19
2022-07-03 16:16:33 GMT 41.971920 -87.890511 0 94 18
2022-07-03 16:16:30 GMT 41.971931 -87.890739 0 97 16
2022-07-03 16:16:29 GMT 41.971951 -87.890846 0 94 16
2022-07-03 16:16:27 GMT 41.971958 -87.891029 0 87 17
2022-07-03 16:16:26 GMT 41.971951 -87.891151 0 90 15
2022-07-03 16:16:24 GMT 41.971939 -87.891327 0 97 15
2022-07-03 16:16:22 GMT 41.971958 -87.891502 0 94 15
2022-07-03 16:16:21 GMT 41.971981 -87.891647 0 87 17
2022-07-03 16:16:18 GMT 41.971981 -87.891853 0 88 18
2022-07-03 16:16:17 GMT 41.971958 -87.891960 0 90 19
2022-07-03 16:16:16 GMT 41.971958 -87.892189 0 90 19
2022-07-03 16:16:14 GMT 41.971970 -87.892418 0 84 18
2022-07-03 16:16:12 GMT 41.971970 -87.892548 0 83 16
2022-07-03 16:16:10 GMT 41.971951 -87.892738 0 89 16
2022-07-03 16:16:08 GMT 41.971939 -87.892937 0 95 17
2022-07-03 16:16:07 GMT 41.971951 -87.893044 0 93 17
2022-07-03 16:16:06 GMT 41.971970 -87.893272 0 85 15
2022-07-03 16:16:04 GMT 41.971958 -87.893356 0 88 16
2022-07-03 16:16:02 GMT 41.971958 -87.893570 0 88 15
2022-07-03 16:16:01 GMT 41.971958 -87.893761 0 88 14
2022-07-03 16:15:59 GMT 41.971951 -87.893806 0 89 16
2022-07-03 16:15:57 GMT 41.971939 -87.894020 0 92 15
2022-07-03 16:15:56 GMT 41.971951 -87.894127 0 91 14
2022-07-03 16:15:55 GMT 41.971951 -87.894310 0 88 13
2022-07-03 16:15:53 GMT 41.971958 -87.894402 0 86 12
2022-07-03 16:15:52 GMT 41.971920 -87.894539 0 102 14
2022-07-03 16:15:50 GMT 41.971909 -87.894638 0 111 14
2022-07-03 16:15:48 GMT 41.971970 -87.894814 0 107 11
2022-07-03 16:15:47 GMT 41.971981 -87.894859 0 112 13
2022-07-03 16:15:46 GMT 41.971989 -87.895012 0 130 14
2022-07-03 16:15:43 GMT 41.972061 -87.895172 0 138 10
2022-07-03 16:15:42 GMT 41.972092 -87.895180 0 140 13
2022-07-03 16:15:40 GMT 41.972179 -87.895317 0 144 10
2022-07-03 16:15:39 GMT 41.972240 -87.895401 0 139 12
2022-07-03 16:15:37 GMT 41.972301 -87.895409 0 120 12
2022-07-03 16:15:35 GMT 41.972382 -87.895531 0 104 11
2022-07-03 16:15:33 GMT 41.972431 -87.895630 0 86 12
2022-07-03 16:15:32 GMT 41.972439 -87.895721 0 81 11
2022-07-03 16:15:31 GMT 41.972439 -87.895798 0 77 10
2022-07-03 16:15:29 GMT 41.972420 -87.895920 0 72 11
2022-07-03 16:15:27 GMT 41.972420 -87.896057 0 62 11
2022-07-03 16:15:26 GMT 41.972359 -87.896172 0 68 10
2022-07-03 16:15:24 GMT 41.972340 -87.896217 0 73 11
2022-07-03 16:15:23 GMT 41.972309 -87.896339 0 66 15
2022-07-03 16:15:20 GMT 41.972271 -87.896507 0 61 16
2022-07-03 16:15:19 GMT 41.972179 -87.896690 0 67 14
2022-07-03 16:15:17 GMT 41.972172 -87.896782 0 59 15
2022-07-03 16:15:15 GMT 41.972099 -87.896942 0 58 14
2022-07-03 16:15:14 GMT 41.972080 -87.897011 0 56 15
2022-07-03 16:15:12 GMT 41.971989 -87.897186 0 63 10
2022-07-03 16:15:10 GMT 41.971939 -87.897270 0 68 16
2022-07-03 16:15:09 GMT 41.971931 -87.897377 0 58 14
2022-07-03 16:15:08 GMT 41.971851 -87.897491 0 63 14
2022-07-03 16:15:06 GMT 41.971828 -87.897583 0 62 14
2022-07-03 16:15:04 GMT 41.971771 -87.897697 0 66 17
2022-07-03 16:15:03 GMT 41.971729 -87.897797 0 68 15
2022-07-03 16:15:01 GMT 41.971691 -87.897987 0 58 16
2022-07-03 16:15:00 GMT 41.971642 -87.898064 0 63 18
2022-07-03 16:14:59 GMT 41.971539 -87.898247 0 77 16
2022-07-03 16:14:57 GMT 41.971539 -87.898354 0 74 16
2022-07-03 16:14:56 GMT 41.971519 -87.898453 0 72 17
2022-07-03 16:14:55 GMT 41.971470 -87.898643 0 75 17
2022-07-03 16:14:53 GMT 41.971432 -87.898750 0 82 16
2022-07-03 16:14:51 GMT 41.971401 -87.898956 0 87 15
2022-07-03 16:14:50 GMT 41.971390 -87.899132 0 90 17
2022-07-03 16:14:48 GMT 41.971401 -87.899239 0 88 17
2022-07-03 16:14:46 GMT 41.971420 -87.899467 0 87 13
2022-07-03 16:14:45 GMT 41.971378 -87.899597 0 88 15
2022-07-03 16:14:43 GMT 41.971378 -87.899696 0 89 15
2022-07-03 16:14:42 GMT 41.971378 -87.899857 0 89 15
2022-07-03 16:14:39 GMT 41.971390 -87.900047 0 85 15
2022-07-03 16:14:37 GMT 41.971359 -87.900238 0 93 15
2022-07-03 16:14:36 GMT 41.971390 -87.900352 0 85 14
2022-07-03 16:14:35 GMT 41.971371 -87.900459 0 93 21
2022-07-03 16:14:33 GMT 41.971378 -87.900726 0 86 20
2022-07-03 16:14:31 GMT 41.971371 -87.900871 0 89 18
2022-07-03 16:14:29 GMT 41.971371 -87.901108 0 90 18
2022-07-03 16:14:28 GMT 41.971378 -87.901199 0 84 19
2022-07-03 16:14:25 GMT 41.971371 -87.901550 0 85 20
2022-07-03 16:14:24 GMT 41.971352 -87.901680 0 90 19
2022-07-03 16:14:23 GMT 41.971340 -87.901802 0 92 19
2022-07-03 16:14:22 GMT 41.971329 -87.901932 0 97 18
2022-07-03 16:14:21 GMT 41.971352 -87.902039 0 92 16
2022-07-03 16:14:19 GMT 41.971371 -87.902229 0 91 17
2022-07-03 16:14:18 GMT 41.971371 -87.902344 0 90 17
2022-07-03 16:14:16 GMT 41.971371 -87.902512 0 90 22
2022-07-03 16:14:14 GMT 41.971371 -87.902786 0 91 21
2022-07-03 16:14:13 GMT 41.971371 -87.902908 0 92 21
2022-07-03 16:14:11 GMT 41.971378 -87.903168 0 88 22
2022-07-03 16:14:10 GMT 41.971371 -87.903458 0 91 19
2022-07-03 16:14:08 GMT 41.971378 -87.903587 0 90 18
2022-07-03 16:14:07 GMT 41.971378 -87.903702 0 88 18
2022-07-03 16:14:05 GMT 41.971359 -87.903938 0 96 18
2022-07-03 16:14:04 GMT 41.971371 -87.904030 0 94 19
2022-07-03 16:14:02 GMT 41.971390 -87.904266 0 94 19
2022-07-03 16:14:01 GMT 41.971401 -87.904404 0 93 18
2022-07-03 16:13:59 GMT 41.971401 -87.904617 0 97 20
2022-07-03 16:13:57 GMT 41.971439 -87.904877 0 88 17
2022-07-03 16:13:56 GMT 41.971451 -87.904991 0 91 16
2022-07-03 16:13:54 GMT 41.971420 -87.905144 0 96 21
2022-07-03 16:13:53 GMT 41.971439 -87.905251 0 93 22
2022-07-03 16:13:52 GMT 41.971451 -87.905388 0 94 22
2022-07-03 16:13:50 GMT 41.971470 -87.905663 0 91 21
2022-07-03 16:13:48 GMT 41.971470 -87.905937 0 95 19
2022-07-03 16:13:47 GMT 41.971470 -87.906052 0 95 19
2022-07-03 16:13:45 GMT 41.971489 -87.906288 0 93 18
2022-07-03 16:13:44 GMT 41.971500 -87.906517 0 96 16
2022-07-03 16:13:42 GMT 41.971489 -87.906723 0 110 18
2022-07-03 16:13:40 GMT 41.971531 -87.906837 0 110 17
2022-07-03 16:13:38 GMT 41.971588 -87.907021 0 107 18
2022-07-03 16:13:37 GMT 41.971642 -87.907227 0 108 18
2022-07-03 16:13:35 GMT 41.971661 -87.907341 0 110 18
2022-07-03 16:13:34 GMT 41.971680 -87.907463 0 115 17
2022-07-03 16:13:32 GMT 41.971760 -87.907669 0 121 13
2022-07-03 16:13:31 GMT 41.971809 -87.907784 0 120 17
2022-07-03 16:13:29 GMT 41.971828 -87.907883 0 125 16
2022-07-03 16:13:27 GMT 41.971920 -87.908028 0 122 17
2022-07-03 16:13:26 GMT 41.971958 -87.908119 0 123 16
2022-07-03 16:13:24 GMT 41.972038 -87.908302 0 127 16
2022-07-03 16:13:22 GMT 41.972118 -87.908447 0 133 18
2022-07-03 16:13:21 GMT 41.972240 -87.908623 0 134 17
2022-07-03 16:13:19 GMT 41.972351 -87.908760 0 132 18
2022-07-03 16:13:17 GMT 41.972408 -87.908852 0 134 17
2022-07-03 16:13:16 GMT 41.972462 -87.908943 0 140 16
2022-07-03 16:13:14 GMT 41.972599 -87.909058 0 129 16
2022-07-03 16:13:12 GMT 41.972691 -87.909210 0 133 17
2022-07-03 16:13:11 GMT 41.972790 -87.909370 0 136 16
2022-07-03 16:13:09 GMT 41.972839 -87.909447 0 139 16
2022-07-03 16:13:07 GMT 41.972961 -87.909561 0 130 16
2022-07-03 16:13:06 GMT 41.973061 -87.909729 0 137 16
2022-07-03 16:13:04 GMT 41.973110 -87.909821 0 142 14
2022-07-03 16:13:03 GMT 41.973221 -87.909920 0 134 14
2022-07-03 16:13:01 GMT 41.973259 -87.909973 0 138 16
2022-07-03 16:13:00 GMT 41.973309 -87.910042 0 140 15
2022-07-03 16:12:59 GMT 41.973412 -87.910179 0 143 15
2022-07-03 16:12:57 GMT 41.973541 -87.910309 0 144 12
2022-07-03 16:12:55 GMT 41.973598 -87.910378 0 146 15
2022-07-03 16:12:53 GMT 41.973671 -87.910393 0 133 18
2022-07-03 16:12:52 GMT 41.973789 -87.910538 0 129 16
2022-07-03 16:12:50 GMT 41.973820 -87.910667 0 142 14
2022-07-03 16:12:49 GMT 41.973930 -87.910759 0 136 14
2022-07-03 16:12:47 GMT 41.973969 -87.910843 0 138 13
2022-07-03 16:12:45 GMT 41.974049 -87.910950 0 143 15
2022-07-03 16:12:44 GMT 41.974110 -87.911003 0 142 15
2022-07-03 16:12:42 GMT 41.974209 -87.911118 0 147 16
2022-07-03 16:12:40 GMT 41.974350 -87.911232 0 145 12
2022-07-03 16:12:39 GMT 41.974449 -87.911308 0 137 11
2022-07-03 16:12:37 GMT 41.974480 -87.911362 0 137 12
2022-07-03 16:12:35 GMT 41.974579 -87.911461 0 135 13
2022-07-03 16:12:34 GMT 41.974621 -87.911491 0 128 14
2022-07-03 16:12:33 GMT 41.974689 -87.911598 0 135 16
2022-07-03 16:12:31 GMT 41.974731 -87.911690 0 149 14
2022-07-03 16:12:30 GMT 41.974831 -87.911819 0 176 12
2022-07-03 16:12:28 GMT 41.974899 -87.911827 0 181 10
2022-07-03 16:12:26 GMT 41.975010 -87.911873 0 206 10
2022-07-03 16:12:25 GMT 41.975060 -87.911873 0 218 9
2022-07-03 16:12:24 GMT 41.975109 -87.911842 0 224 9
2022-07-03 16:12:22 GMT 41.975170 -87.911781 0 229 10
2022-07-03 16:12:21 GMT 41.975231 -87.911690 0 227 10
2022-07-03 16:12:19 GMT 41.975250 -87.911636 0 223 10
2022-07-03 16:12:17 GMT 41.975319 -87.911568 0 229 11
2022-07-03 16:12:16 GMT 41.975399 -87.911461 0 239 10
2022-07-03 16:12:14 GMT 41.975430 -87.911423 0 241 10
2022-07-03 16:12:12 GMT 41.975471 -87.911263 0 229 7
2022-07-03 16:12:11 GMT 41.975498 -87.911263 0 239 8
2022-07-03 16:12:09 GMT 41.975552 -87.911179 0 245 6
2022-07-03 16:12:07 GMT 41.975578 -87.911118 0 252 8
2022-07-03 16:12:05 GMT 41.975590 -87.911003 0 239 6
2022-07-03 16:12:04 GMT 41.975578 -87.911003 0 236 10
2022-07-03 16:12:02 GMT 41.975651 -87.910881 0 244 6
2022-07-03 16:12:01 GMT 41.975670 -87.910828 0 245 3
2022-07-03 16:12:00 GMT 41.975670 -87.910812 0 240 6
2022-07-03 16:11:57 GMT 41.975712 -87.910728 0 253 6
2022-07-03 16:11:56 GMT 41.975750 -87.910660 0 270 4
2022-07-03 16:11:54 GMT 41.975739 -87.910652 0 258 4
2022-07-03 16:11:53 GMT 41.975739 -87.910629 0 246 6
2022-07-03 16:11:51 GMT 41.975719 -87.910553 0 234 5
2022-07-03 16:11:50 GMT 41.975750 -87.910553 0 259 5
2022-07-03 16:11:49 GMT 41.975780 -87.910500 0 280 6
2022-07-03 16:11:47 GMT 41.975800 -87.910454 0 294 4
2022-07-03 16:11:45 GMT 41.975800 -87.910408 0 312 4
2022-07-03 16:11:43 GMT 41.975811 -87.910362 0 6 3
2022-07-03 16:11:41 GMT 41.975830 -87.910339 0 11 3
2022-07-03 16:11:40 GMT 41.975819 -87.910309 0 21 3
2022-07-03 16:11:39 GMT 41.975842 -87.910271 0 25 3
2022-07-03 16:11:37 GMT 41.975861 -87.910294 0 27 3
2022-07-03 16:11:36 GMT 41.975868 -87.910233 0 27 2
2022-07-03 16:11:34 GMT 41.975899 -87.910240 0 29 2
2022-07-03 16:11:31 GMT 41.975868 -87.910202 0 36 1
2022-07-03 16:11:30 GMT 41.975910 -87.910187 0 41 1
2022-07-03 16:11:29 GMT 41.975941 -87.910179 0 41 1
2022-07-03 16:11:27 GMT 41.975960 -87.910141 0 41 0
2022-07-03 16:11:25 GMT 41.975948 -87.910156 0 41 1
2022-07-03 16:11:23 GMT 41.975929 -87.910088 0 41 0
2022-07-03 16:11:21 GMT 41.975941 -87.910088 0 41 0
2022-07-03 16:11:20 GMT 41.975948 -87.910080 0 41 0
2022-07-03 16:11:18 GMT 41.975979 -87.910080 0 42 0
2022-07-03 16:11:16 GMT 41.975990 -87.910088 0 46 1
2022-07-03 16:11:14 GMT 41.975990 -87.910110 0 47 1
2022-07-03 16:11:13 GMT 41.975990 -87.910027 0 50 0
2022-07-03 16:11:12 GMT 41.976002 -87.910027 0 50 0
2022-07-03 16:11:10 GMT 41.976002 -87.910049 0 50 1
2022-07-03 16:11:08 GMT 41.975990 -87.910027 0 50 0
2022-07-03 16:11:06 GMT 41.976002 -87.910042 0 50 0
2022-07-03 16:11:05 GMT 41.976009 -87.910042 0 50 0
2022-07-03 16:11:03 GMT 41.976009 -87.910049 0 50 0
2022-07-03 16:11:02 GMT 41.976009 -87.910057 0 50 0
2022-07-03 16:10:59 GMT 41.976021 -87.910057 0 50 1
2022-07-03 16:10:57 GMT 41.976002 -87.910042 0 49 1
2022-07-03 16:10:54 GMT 41.975990 -87.910042 0 48 0
2022-07-03 16:10:52 GMT 41.975979 -87.910042 0 47 1
2022-07-03 16:10:50 GMT 41.975979 -87.910042 0 47 0
2022-07-03 16:10:48 GMT 41.976002 -87.910049 0 47 0
2022-07-03 16:10:47 GMT 41.976009 -87.910080 0 47 0
2022-07-03 16:10:44 GMT 41.976021 -87.910088 0 47 0
2022-07-03 16:10:43 GMT 41.976021 -87.910080 0 47 0
2022-07-03 16:10:41 GMT 41.976028 -87.910103 0 47 1
2022-07-03 16:10:40 GMT 41.976028 -87.910080 0 51 1
2022-07-03 16:10:38 GMT 41.976009 -87.910049 0 51 0
2022-07-03 16:10:37 GMT 41.976021 -87.910057 0 51 0
2022-07-03 16:10:34 GMT 41.975990 -87.910049 0 50 0
2022-07-03 16:10:33 GMT 41.976002 -87.910072 0 50 0
2022-07-03 16:10:30 GMT 41.976002 -87.910072 0 51 0
2022-07-03 16:10:29 GMT 41.975990 -87.910049 0 51 0
2022-07-03 16:10:28 GMT 41.975979 -87.910019 0 51 0
2022-07-03 16:10:26 GMT 41.975971 -87.910011 0 51 0
2022-07-03 16:10:25 GMT 41.975979 -87.910042 0 51 0
2022-07-03 16:10:23 GMT 41.975990 -87.910049 0 51 0
2022-07-03 16:10:21 GMT 41.976009 -87.910080 0 51 0
2022-07-03 16:10:20 GMT 41.976009 -87.910088 0 51 0
2022-07-03 16:10:19 GMT 41.976009 -87.910042 0 51 0
2022-07-03 16:10:17 GMT 41.976002 -87.910042 0 51 0
2022-07-03 16:10:15 GMT 41.976009 -87.910049 0 51 0
2022-07-03 16:10:13 GMT 41.976002 -87.910049 0 52 0
2022-07-03 16:10:11 GMT 41.976009 -87.910057 0 52 0
2022-07-03 16:10:10 GMT 41.976021 -87.910080 0 52 0
2022-07-03 16:10:08 GMT 41.976009 -87.910072 0 53 1
2022-07-03 16:10:07 GMT 41.976002 -87.910072 0 53 0
2022-07-03 16:10:05 GMT 41.975979 -87.910049 0 53 1
2022-07-03 16:10:01 GMT 41.975971 -87.910011 0 49 0
2022-07-03 16:09:59 GMT 41.975971 -87.909988 0 49 0
2022-07-03 16:09:58 GMT 41.975971 -87.910004 0 47 1
2022-07-03 16:09:56 GMT 41.975990 -87.910057 0 44 1
2022-07-03 16:09:55 GMT 41.976002 -87.910080 0 44 1
2022-07-03 16:09:54 GMT 41.976028 -87.910110 0 44 0
2022-07-03 16:09:51 GMT 41.976028 -87.910110 0 44 0
2022-07-03 16:09:50 GMT 41.976028 -87.910057 0 44 1
2022-07-03 16:09:48 GMT 41.976021 -87.910133 0 48 1
2022-07-03 16:09:47 GMT 41.976028 -87.910118 0 48 1
2022-07-03 16:09:45 GMT 41.976040 -87.910088 0 48 0
2022-07-03 16:09:43 GMT 41.976002 -87.910049 0 47 0
2022-07-03 16:09:41 GMT 41.975990 -87.910027 0 47 0
2022-07-03 16:09:39 GMT 41.975979 -87.910019 0 47 0
2022-07-03 16:09:38 GMT 41.975979 -87.910027 0 47 0
2022-07-03 16:09:37 GMT 41.975990 -87.910042 0 47 0
2022-07-03 16:09:35 GMT 41.975990 -87.910042 0 47 0
2022-07-03 16:09:33 GMT 41.976002 -87.910049 0 47 0
2022-07-03 16:09:32 GMT 41.975990 -87.910027 0 47 0
2022-07-03 16:09:30 GMT 41.975979 -87.910027 0 47 0
2022-07-03 16:09:28 GMT 41.976002 -87.910049 0 47 0
2022-07-03 16:09:27 GMT 41.976002 -87.910042 0 47 0
2022-07-03 16:09:25 GMT 41.976002 -87.910057 0 47 0
2022-07-03 16:09:23 GMT 41.975979 -87.910019 0 47 0
2022-07-03 16:09:22 GMT 41.975990 -87.910049 0 46 0
2022-07-03 16:09:20 GMT 41.975990 -87.910049 0 46 0
2022-07-03 16:09:18 GMT 41.975990 -87.910049 0 46 0
2022-07-03 16:09:17 GMT 41.976002 -87.910057 0 46 0
2022-07-03 16:09:16 GMT 41.976002 -87.910057 0 46 0
2022-07-03 16:09:14 GMT 41.976002 -87.910057 0 46 0
2022-07-03 16:09:12 GMT 41.976002 -87.910042 0 46 0
2022-07-03 16:09:11 GMT 41.976009 -87.910057 0 46 0
2022-07-03 16:09:09 GMT 41.976009 -87.910057 0 46 0
2022-07-03 16:09:08 GMT 41.976009 -87.910049 0 46 1
2022-07-03 16:09:06 GMT 41.975990 -87.910042 0 46 0
2022-07-03 16:09:04 GMT 41.975971 -87.910011 0 46 0
2022-07-03 16:09:03 GMT 41.975971 -87.909988 0 46 0
2022-07-03 16:09:02 GMT 41.975971 -87.910011 0 45 0
2022-07-03 16:08:59 GMT 41.975979 -87.910027 0 44 0
2022-07-03 16:08:58 GMT 41.975979 -87.910019 0 44 0
2022-07-03 16:08:57 GMT 41.975990 -87.910042 0 44 0
2022-07-03 16:08:55 GMT 41.975990 -87.910049 0 44 0
2022-07-03 16:08:53 GMT 41.975979 -87.910019 0 44 0
2022-07-03 16:08:52 GMT 41.975979 -87.910027 0 44 0
2022-07-03 16:08:51 GMT 41.975979 -87.910011 0 44 0
2022-07-03 16:08:48 GMT 41.975971 -87.910011 0 43 0
2022-07-03 16:08:46 GMT 41.975971 -87.910011 0 43 0
2022-07-03 16:08:44 GMT 41.975971 -87.910004 0 43 0
2022-07-03 16:08:43 GMT 41.975971 -87.910019 0 43 0
2022-07-03 16:08:40 GMT 41.975979 -87.910011 0 42 0
2022-07-03 16:08:39 GMT 41.975971 -87.910004 0 40 0
2022-07-03 16:08:38 GMT 41.976002 -87.910027 0 39 0
2022-07-03 16:08:36 GMT 41.976009 -87.910049 0 38 0
2022-07-03 16:08:33 GMT 41.976021 -87.910072 0 38 0
2022-07-03 16:08:32 GMT 41.976002 -87.910072 0 38 0
2022-07-03 16:08:28 GMT 41.976009 -87.910080 0 37 0
2022-07-03 16:08:26 GMT 41.976009 -87.910088 0 37 0
2022-07-03 16:08:24 GMT 41.976002 -87.910072 0 37 0
2022-07-03 16:08:23 GMT 41.976002 -87.910080 0 37 0
2022-07-03 16:08:22 GMT 41.976002 -87.910057 0 37 0
2022-07-03 16:08:18 GMT 41.976009 -87.910057 0 35 0
2022-07-03 16:08:16 GMT 41.976021 -87.910057 0 36 0
2022-07-03 16:08:15 GMT 41.975979 -87.910011 0 36 0
2022-07-03 16:08:13 GMT 41.975979 -87.910011 0 36 0
2022-07-03 16:08:07 GMT 41.975971 -87.909988 0 41 0
2022-07-03 16:08:04 GMT 41.975979 -87.910011 0 41 0
2022-07-03 16:08:01 GMT 41.975971 -87.910004 0 37 0
2022-07-03 16:07:59 GMT 41.975990 -87.910042 0 37 0
2022-07-03 16:07:57 GMT 41.976009 -87.910057 0 36 0
2022-07-03 16:07:54 GMT 41.976021 -87.910080 0 33 0
2022-07-03 16:07:48 GMT 41.976028 -87.910080 0 32 0
2022-07-03 16:07:47 GMT 41.976021 -87.910080 0 32 0
2022-07-03 16:07:46 GMT 41.976021 -87.910072 0 30 1
2022-07-03 16:07:43 GMT 41.976021 -87.910080 0 30 0
2022-07-03 16:07:40 GMT 41.976021 -87.910080 0 30 0
2022-07-03 16:07:37 GMT 41.976021 -87.910072 0 30 0
2022-07-03 16:07:36 GMT 41.976028 -87.910072 0 30 1
2022-07-03 16:07:34 GMT 41.976009 -87.910049 0 29 0
2022-07-03 16:07:33 GMT 41.976021 -87.910103 0 24 0
2022-07-03 16:07:30 GMT 41.976021 -87.910103 0 24 0
2022-07-03 16:07:27 GMT 41.976028 -87.910110 0 23 0
2022-07-03 16:07:25 GMT 41.976028 -87.910110 0 23 0
2022-07-03 16:07:22 GMT 41.976028 -87.910103 0 23 0
2022-07-03 16:07:21 GMT 41.976028 -87.910110 0 23 0
2022-07-03 16:07:20 GMT 41.976040 -87.910103 0 23 0

Making use of Plane Finder data

You are free to use the raw flight data, aircraft information and images provided in this report for your own purposes provided the data is correctly attributed to Plane Finder. We ask that you please credit Plane Finder and link to planefinder.net in close proximity to the content.

Optionally one of the following logos (no smaller then 150x24px) can be used and must link to planefinder.net

Embedding the Plane Finder map

You are welcome to embed the Plane Finder playback map on your website to offer visitors a more interactive experience. We suggest using the following HTML code:

<iframe src="//planefinder.net/data/report/UA5333-N202SY-7700-squawk-2022-07-03/map" width="800" height="600" seamless="seamless"></iframe>

Where our data comes from

Plane Finder has a global network of data feeds and antenna radars that receive data broadcast directly from aircraft. The primary technologies used are ADS-B and MLAT. We also show feeds from the FAA and a FLARM glider feed.

Click here to find out more about the Plane Finder network.

How we collect our data